Darstellungsparameter: Aktuell verwendete Einstellungen:
Skalierung der Graphiken ... ?
xyx+y,   Skalierungsfaktor:      Skalierung: Modus: x, Faktor: 1
Darstellungszeitraum ... ?
Vom - - bis: - -   Zeitraum: 05.07.2019 - 03.08.2019
Min/Max/Avg-Anzeige ... ?
Zeige MMA aktuell
Zeige MMA Monat
Zeige MMA alles
Zeige --A aktuell
Zeige --A Monat
Zeige --A alles
Keine MMA-Anzeige
MMA:
Average (ber die Originaldaten)
MMA-Basis: 05.07.2019 - 03.08.2019
Quicknavigation für Darstellung... ?
Tage:      1T, 2T, 3T, 5T -1T -2T -3T -5T +1T +2T +3T +5T
Wochen: 1W, 2W, 3W -1W -2W -3W +1W +2W +3W
Monate: 1M, 3M, 6M -1M -3M -6M +1M +3M +6M
Jahre:    1J, 3J, 5J, 10J -1J -3J -5J -10J +1J +3J +5J +10J
Nutze für die Darstellung ... ?
Originaldaten oder Mittelwerte auf ...
Stundenbasis Tagesbasis Wochenbasis
Monatsbasis Jahresbasis      Datenbasis: Original-Daten
Darstellen als:
Statistik (Auto) Statistik J:M      Darstellung:
Zur Graphik,    zurück zur Übersicht aller Sensoren.
 
Tabellarische Datenbersicht: ?
 
Sensor: Nr:Datum:Temp:Abs-Feuchte:Windchill:Wind:
Aussen-T/F 1 05-07-2019 00:00:00 17.2 C 8.49 g/m*3 17.2 C 0 km/h
2 05-07-2019 00:05:00 17.1 C 8.59 g/m*3 17.1 C 0 km/h
3 05-07-2019 00:10:00 16.9 C 8.63 g/m*3 16.9 C 0 km/h
4 05-07-2019 00:15:00 16.7 C 8.67 g/m*3 16.7 C 0 km/h
5 05-07-2019 00:20:00 16.5 C 8.57 g/m*3 16.5 C 0 km/h
6 05-07-2019 00:25:00 16.4 C 8.65 g/m*3 16.4 C 0 km/h
7 05-07-2019 00:30:00 16.2 C 8.55 g/m*3 16.2 C 0 km/h
8 05-07-2019 00:35:00 16.1 C 8.5 g/m*3 16.1 C 0 km/h
9 05-07-2019 00:40:00 16.1 C 8.64 g/m*3 16.1 C 1.6 km/h
10 05-07-2019 00:45:00 16 C 8.58 g/m*3 16 C 0 km/h
11 05-07-2019 00:50:00 15.9 C 8.67 g/m*3 15.9 C 0 km/h
12 05-07-2019 00:55:00 15.9 C 8.53 g/m*3 15.9 C 0 km/h
13 05-07-2019 01:00:00 15.8 C 8.62 g/m*3 15.8 C 0 km/h
14 05-07-2019 01:05:00 15.7 C 8.43 g/m*3 15.7 C 0 km/h
15 05-07-2019 01:10:00 15.6 C 8.51 g/m*3 15.6 C 0 km/h
16 05-07-2019 01:15:00 15.4 C 8.54 g/m*3 15.4 C 0 km/h
17 05-07-2019 01:20:00 15.3 C 8.62 g/m*3 15.3 C 0 km/h
18 05-07-2019 01:25:00 15.2 C 8.44 g/m*3 15.2 C 0 km/h
19 05-07-2019 01:30:00 15.1 C 8.51 g/m*3 15.1 C 0 km/h
20 05-07-2019 01:35:00 14.9 C 8.54 g/m*3 14.9 C 0 km/h
21 05-07-2019 01:40:00 14.9 C 8.54 g/m*3 14.9 C 0 km/h
22 05-07-2019 01:45:00 14.8 C 8.49 g/m*3 14.8 C 0 km/h
23 05-07-2019 01:50:00 14.8 C 8.61 g/m*3 14.8 C 0 km/h
24 05-07-2019 01:55:00 14.7 C 8.56 g/m*3 14.7 C 0 km/h
25 05-07-2019 02:00:00 14.6 C 8.38 g/m*3 14.6 C 0 km/h
Sensor: Nr:Datum:Temp:Abs-Feuchte:Windchill:Wind:
Aussen-T/F 26 05-07-2019 02:05:00 14.5 C 8.33 g/m*3 14.5 C 0 km/h
27 05-07-2019 02:10:00 14.4 C 8.41 g/m*3 14.4 C 0 km/h
28 05-07-2019 02:15:00 14.3 C 8.35 g/m*3 14.3 C 0 km/h
29 05-07-2019 02:20:00 14.3 C 8.48 g/m*3 14.3 C 0 km/h
30 05-07-2019 02:25:00 14.2 C 8.43 g/m*3 14.2 C 0 km/h
31 05-07-2019 02:30:00 14.1 C 8.37 g/m*3 14.1 C 0 km/h
32 05-07-2019 02:35:00 14 C 8.32 g/m*3 14 C 0 km/h
33 05-07-2019 02:40:00 13.9 C 8.39 g/m*3 13.9 C 0 km/h
34 05-07-2019 02:45:00 13.8 C 8.46 g/m*3 13.8 C 0 km/h
35 05-07-2019 02:50:00 13.8 C 8.46 g/m*3 13.8 C 0 km/h
36 05-07-2019 02:55:00 13.7 C 8.53 g/m*3 13.7 C 0 km/h
37 05-07-2019 03:00:00 13.7 C 8.41 g/m*3 13.7 C 0 km/h
38 05-07-2019 03:05:00 13.7 C 8.53 g/m*3 13.7 C 0 km/h
39 05-07-2019 03:10:00 13.6 C 8.47 g/m*3 13.6 C 0 km/h
40 05-07-2019 03:15:00 13.6 C 8.47 g/m*3 13.6 C 0 km/h
41 05-07-2019 03:20:00 13.6 C 8.59 g/m*3 13.6 C 0 km/h
42 05-07-2019 03:25:00 13.7 C 8.76 g/m*3 13.7 C 0 km/h
43 05-07-2019 03:30:00 13.7 C 8.76 g/m*3 13.7 C 0 km/h
44 05-07-2019 03:35:00 13.7 C 8.76 g/m*3 13.7 C 0 km/h
45 05-07-2019 03:40:00 13.7 C 8.76 g/m*3 13.7 C 0 km/h
46 05-07-2019 03:45:00 13.8 C 8.82 g/m*3 13.8 C 3.2 km/h
47 05-07-2019 03:50:00 13.8 C 8.94 g/m*3 13.8 C 4.8 km/h
48 05-07-2019 03:55:00 13.9 C 8.87 g/m*3 13.9 C 4.8 km/h
49 05-07-2019 04:00:00 14 C 8.93 g/m*3 14 C 6.4 km/h
50 05-07-2019 04:05:00 14.1 C 8.98 g/m*3 14.1 C 6.4 km/h
Sensor: Nr:Datum:Temp:Abs-Feuchte:Windchill:Wind:
Aussen-T/F 51 05-07-2019 04:10:00 14.1 C 8.98 g/m*3 14.1 C 3.2 km/h
52 05-07-2019 04:15:00 14.1 C 8.98 g/m*3 14.1 C 0 km/h
53 05-07-2019 04:20:00 14.1 C 8.98 g/m*3 14.1 C 4.8 km/h
54 05-07-2019 04:25:00 14.1 C 8.98 g/m*3 14.1 C 3.2 km/h
55 05-07-2019 04:30:00 14.1 C 8.86 g/m*3 14.1 C 1.6 km/h
56 05-07-2019 04:35:00 14.1 C 8.98 g/m*3 14.1 C 4.8 km/h
57 05-07-2019 04:40:00 14.1 C 8.98 g/m*3 14.1 C 1.6 km/h
58 05-07-2019 04:45:00 14.1 C 8.86 g/m*3 14.1 C 0 km/h
59 05-07-2019 04:50:00 14.1 C 8.98 g/m*3 14.1 C 3.2 km/h
60 05-07-2019 04:55:00 14 C 8.93 g/m*3 14 C 0 km/h
61 05-07-2019 05:00:00 13.9 C 8.87 g/m*3 13.9 C 1.6 km/h
62 05-07-2019 05:05:00 13.9 C 8.87 g/m*3 13.9 C 0 km/h
63 05-07-2019 05:10:00 13.8 C 8.82 g/m*3 13.8 C 0 km/h
64 05-07-2019 05:15:00 13.8 C 8.82 g/m*3 13.8 C 0 km/h
65 05-07-2019 05:20:00 13.8 C 8.82 g/m*3 13.8 C 0 km/h
66 05-07-2019 05:25:00 13.7 C 8.76 g/m*3 13.7 C 0 km/h
67 05-07-2019 05:30:00 13.7 C 8.76 g/m*3 13.7 C 0 km/h
68 05-07-2019 05:35:00 13.7 C 8.88 g/m*3 13.7 C 0 km/h
69 05-07-2019 05:40:00 13.7 C 8.88 g/m*3 13.7 C 1.6 km/h
70 05-07-2019 05:45:00 13.7 C 8.88 g/m*3 13.7 C 3.2 km/h
71 05-07-2019 05:50:00 13.7 C 9 g/m*3 13.7 C 1.6 km/h
72 05-07-2019 05:55:00 13.7 C 9 g/m*3 13.7 C 3.2 km/h
73 05-07-2019 06:00:00 13.8 C 9.06 g/m*3 13.8 C 0 km/h
74 05-07-2019 06:05:00 13.8 C 9.06 g/m*3 13.8 C 0 km/h
75 05-07-2019 06:10:00 13.8 C 9.06 g/m*3 13.8 C 0 km/h
Sensor: Nr:Datum:Temp:Abs-Feuchte:Windchill:Wind:
Aussen-T/F 76 05-07-2019 06:15:00 13.8 C 9.06 g/m*3 13.8 C 1.6 km/h
77 05-07-2019 06:20:00 13.9 C 9.11 g/m*3 13.9 C 4.8 km/h
78 05-07-2019 06:25:00 13.9 C 9.23 g/m*3 13.9 C 0 km/h
79 05-07-2019 06:30:00 13.9 C 9.11 g/m*3 13.9 C 0 km/h
80 05-07-2019 06:35:00 14 C 9.29 g/m*3 14 C 0 km/h
81 05-07-2019 06:40:00 14 C 9.29 g/m*3 14 C 4.8 km/h
82 05-07-2019 06:45:00 14.1 C 9.34 g/m*3 14.1 C 3.2 km/h
83 05-07-2019 06:50:00 14.1 C 9.22 g/m*3 14.1 C 1.6 km/h
84 05-07-2019 06:55:00 14.1 C 9.22 g/m*3 14.1 C 0 km/h
85 05-07-2019 07:00:00 14.2 C 9.4 g/m*3 14.2 C 0 km/h
86 05-07-2019 07:05:00 14.2 C 9.4 g/m*3 14.2 C 0 km/h
87 05-07-2019 07:10:00 14.3 C 9.46 g/m*3 14.3 C 0 km/h
88 05-07-2019 07:15:00 14.3 C 9.46 g/m*3 14.3 C 0 km/h
89 05-07-2019 07:20:00 14.3 C 9.21 g/m*3 14.3 C 6.4 km/h
90 05-07-2019 07:25:00 14.4 C 9.27 g/m*3 14.4 C 3.2 km/h
91 05-07-2019 07:30:00 14.6 C 9.39 g/m*3 14.6 C 3.2 km/h
92 05-07-2019 07:35:00 14.7 C 9.32 g/m*3 14.7 C 9.7 km/h
93 05-07-2019 07:40:00 14.8 C 9.5 g/m*3 14.8 C 4.8 km/h
94 05-07-2019 07:45:00 14.9 C 9.56 g/m*3 14.9 C 4.8 km/h
95 05-07-2019 07:50:00 14.9 C 9.43 g/m*3 14.9 C 6.4 km/h
96 05-07-2019 07:55:00 15 C 9.49 g/m*3 15 C 4.8 km/h
97 05-07-2019 08:00:00 15 C 9.49 g/m*3 15 C 8.1 km/h
98 05-07-2019 08:05:00 15.2 C 9.73 g/m*3 15.2 C 8.1 km/h
99 05-07-2019 08:10:00 15.3 C 9.66 g/m*3 15.3 C 6.4 km/h
100 05-07-2019 08:15:00 15.5 C 9.65 g/m*3 15.5 C 6.4 km/h
Sensor: Nr:Datum:Temp:Abs-Feuchte:Windchill:Wind:
Aussen-T/F 101 05-07-2019 08:20:00 15.7 C 9.77 g/m*3 15.7 C 6.4 km/h
102 05-07-2019 08:25:00 15.8 C 9.83 g/m*3 15.8 C 6.4 km/h
103 05-07-2019 08:30:00 15.9 C 9.89 g/m*3 15.9 C 3.2 km/h
104 05-07-2019 08:35:00 16 C 9.95 g/m*3 16 C 3.2 km/h
105 05-07-2019 08:40:00 16.1 C 9.87 g/m*3 16.1 C 3.2 km/h
106 05-07-2019 08:45:00 16.2 C 9.93 g/m*3 16.2 C 4.8 km/h
107 05-07-2019 08:50:00 16.4 C 9.77 g/m*3 16.4 C 6.4 km/h
108 05-07-2019 08:55:00 16.5 C 9.69 g/m*3 16.5 C 4.8 km/h
109 05-07-2019 09:00:00 16.6 C 9.75 g/m*3 16.6 C 3.2 km/h
110 05-07-2019 09:05:00 16.7 C 9.81 g/m*3 16.7 C 4.8 km/h
111 05-07-2019 09:10:00 16.8 C 9.87 g/m*3 16.8 C 3.2 km/h
112 05-07-2019 09:15:00 16.9 C 9.92 g/m*3 16.9 C 3.2 km/h
113 05-07-2019 09:20:00 17.1 C 10.04 g/m*3 17.1 C 1.6 km/h
114 05-07-2019 09:25:00 17.2 C 10.1 g/m*3 17.2 C 1.6 km/h
115 05-07-2019 09:30:00 17.3 C 10.02 g/m*3 17.3 C 4.8 km/h
116 05-07-2019 09:35:00 17.5 C 9.99 g/m*3 17.5 C 1.6 km/h
117 05-07-2019 09:40:00 17.6 C 9.75 g/m*3 17.6 C 3.2 km/h
118 05-07-2019 09:45:00 17.8 C 10.02 g/m*3 17.8 C 4.8 km/h
119 05-07-2019 09:50:00 17.9 C 9.92 g/m*3 17.9 C 1.6 km/h
120 05-07-2019 09:55:00 18.1 C 10.2 g/m*3 18.1 C 3.2 km/h
121 05-07-2019 10:00:00 18.3 C 9.85 g/m*3 18.3 C 1.6 km/h
122 05-07-2019 10:05:00 18.7 C 9.93 g/m*3 18.7 C 3.2 km/h
123 05-07-2019 10:10:00 18.9 C 10.04 g/m*3 18.9 C 3.2 km/h
124 05-07-2019 10:15:00 19.3 C 10.28 g/m*3 19.3 C 3.2 km/h
125 05-07-2019 10:20:00 19.7 C 10.53 g/m*3 19.7 C 6.4 km/h
Sensor: Nr:Datum:Temp:Abs-Feuchte:Windchill:Wind:
Aussen-T/F 126 05-07-2019 10:25:00 20 C 10.54 g/m*3 20 C 4.8 km/h
127 05-07-2019 10:30:00 20.4 C 10.26 g/m*3 20.4 C 4.8 km/h
128 05-07-2019 10:35:00 21 C 10.26 g/m*3 21 C 4.8 km/h
129 05-07-2019 10:40:00 21.4 C 10.31 g/m*3 21.4 C 1.6 km/h
130 05-07-2019 10:45:00 21.7 C 10.49 g/m*3 21.7 C 8.1 km/h
131 05-07-2019 10:50:00 21.7 C 10.3 g/m*3 21.7 C 6.4 km/h
132 05-07-2019 10:55:00 21.6 C 10.24 g/m*3 21.6 C 4.8 km/h
133 05-07-2019 11:00:00 21.6 C 10.24 g/m*3 21.6 C 4.8 km/h
134 05-07-2019 11:05:00 21.6 C 10.24 g/m*3 21.6 C 8.1 km/h
135 05-07-2019 11:10:00 21.7 C 10.49 g/m*3 21.7 C 6.4 km/h
136 05-07-2019 11:15:00 21.8 C 10.36 g/m*3 21.8 C 6.4 km/h
137 05-07-2019 11:20:00 21.7 C 10.3 g/m*3 21.7 C 8.1 km/h
138 05-07-2019 11:25:00 21.8 C 10.17 g/m*3 21.8 C 4.8 km/h
139 05-07-2019 11:30:00 21.9 C 10.03 g/m*3 21.9 C 3.2 km/h
140 05-07-2019 11:35:00 22 C 10.09 g/m*3 22 C 8.1 km/h
141 05-07-2019 11:40:00 22.1 C 10.35 g/m*3 22.1 C 3.2 km/h
142 05-07-2019 11:45:00 22.3 C 10.47 g/m*3 22.3 C 1.6 km/h
143 05-07-2019 11:50:00 22.4 C 10.33 g/m*3 22.4 C 6.4 km/h
144 05-07-2019 11:55:00 22.4 C 10.33 g/m*3 22.4 C 8.1 km/h
145 05-07-2019 12:00:00 22.3 C 10.27 g/m*3 22.3 C 1.6 km/h
146 05-07-2019 12:05:00 22.3 C 10.07 g/m*3 22.3 C 4.8 km/h
147 05-07-2019 12:10:00 22.4 C 10.33 g/m*3 22.4 C 1.6 km/h
148 05-07-2019 12:15:00 22.4 C 10.13 g/m*3 22.4 C 6.4 km/h
149 05-07-2019 12:20:00 22.5 C 10.19 g/m*3 22.5 C 8.1 km/h
150 05-07-2019 12:25:00 22.6 C 10.25 g/m*3 22.6 C 1.6 km/h
Sensor: Nr:Datum:Temp:Abs-Feuchte:Windchill:Wind:
Aussen-T/F 151 05-07-2019 12:30:00 22.7 C 10.51 g/m*3 22.7 C 3.2 km/h
152 05-07-2019 12:35:00 22.9 C 10.22 g/m*3 22.9 C 8.1 km/h
153 05-07-2019 12:40:00 23.1 C 10.13 g/m*3 23.1 C 9.7 km/h
154 05-07-2019 12:45:00 23.4 C 10.09 g/m*3 23.4 C 9.7 km/h
155 05-07-2019 12:50:00 23.7 C 10.48 g/m*3 23.7 C 8.1 km/h
156 05-07-2019 12:55:00 23.8 C 10.11 g/m*3 23.8 C 6.4 km/h
157 05-07-2019 13:00:00 23.8 C 10.33 g/m*3 23.8 C 8.1 km/h
158 05-07-2019 13:05:00 23.9 C 10.17 g/m*3 23.9 C 6.4 km/h
159 05-07-2019 13:10:00 24.1 C 10.06 g/m*3 24.1 C 11.3 km/h
160 05-07-2019 13:15:00 24.2 C 10.12 g/m*3 24.2 C 11.3 km/h
161 05-07-2019 13:20:00 24.3 C 9.96 g/m*3 24.3 C 16.1 km/h
162 05-07-2019 13:25:00 24.4 C 10.01 g/m*3 24.4 C 11.3 km/h
163 05-07-2019 13:30:00 24.4 C 10.01 g/m*3 24.4 C 9.7 km/h
164 05-07-2019 13:35:00 24.6 C 10.35 g/m*3 24.6 C 9.7 km/h
165 05-07-2019 13:40:00 24.7 C 10.19 g/m*3 24.7 C 9.7 km/h
166 05-07-2019 13:45:00 24.7 C 9.96 g/m*3 24.7 C 8.1 km/h
167 05-07-2019 13:50:00 24.7 C 9.96 g/m*3 24.7 C 8.1 km/h
168 05-07-2019 13:55:00 24.8 C 10.02 g/m*3 24.8 C 8.1 km/h
169 05-07-2019 14:00:00 24.8 C 10.02 g/m*3 24.8 C 4.8 km/h
170 05-07-2019 14:05:00 24.8 C 9.79 g/m*3 24.8 C 8.1 km/h
171 05-07-2019 14:10:00 24.9 C 10.07 g/m*3 24.9 C 6.4 km/h
172 05-07-2019 14:15:00 25.1 C 10.42 g/m*3 25.1 C 4.8 km/h
173 05-07-2019 14:20:00 25.2 C 10.01 g/m*3 25.2 C 8.1 km/h
174 05-07-2019 14:25:00 25.3 C 9.83 g/m*3 25.3 C 11.3 km/h
175 05-07-2019 14:30:00 25.4 C 9.65 g/m*3 25.4 C 14.5 km/h
Sensor: Nr:Datum:Temp:Abs-Feuchte:Windchill:Wind:
Aussen-T/F 176 05-07-2019 14:35:00 25.5 C 10.18 g/m*3 25.5 C 8.1 km/h
177 05-07-2019 14:40:00 25.9 C 10.17 g/m*3 25.9 C 6.4 km/h
178 05-07-2019 14:45:00 26.2 C 10.59 g/m*3 26.2 C 9.7 km/h
179 05-07-2019 14:50:00 26.3 C 9.9 g/m*3 26.3 C 4.8 km/h
180 05-07-2019 14:55:00 26.6 C 10.82 g/m*3 26.6 C 4.8 km/h
181 05-07-2019 15:00:00 27 C 10.55 g/m*3 27 C 8.1 km/h
182 05-07-2019 15:05:00 27.2 C 9.89 g/m*3 27.2 C 8.1 km/h
183 05-07-2019 15:10:00 27.3 C 10.2 g/m*3 27.3 C 3.2 km/h
184 05-07-2019 15:15:00 27.3 C 9.94 g/m*3 27.3 C 14.5 km/h
185 05-07-2019 15:20:00 27.2 C 9.89 g/m*3 27.2 C 12.9 km/h
186 05-07-2019 15:25:00 27.1 C 9.83 g/m*3 27.1 C 12.9 km/h
187 05-07-2019 15:30:00 27.1 C 9.83 g/m*3 27.1 C 8.1 km/h
188 05-07-2019 15:35:00 27.3 C 9.68 g/m*3 27.3 C 11.3 km/h
189 05-07-2019 15:40:00 27.6 C 10.11 g/m*3 27.6 C 1.6 km/h
190 05-07-2019 15:45:00 27.8 C 9.95 g/m*3 27.8 C 9.7 km/h
191 05-07-2019 15:50:00 28.2 C 9.9 g/m*3 28.2 C 8.1 km/h
192 05-07-2019 15:55:00 28.3 C 9.95 g/m*3 28.3 C 17.7 km/h
193 05-07-2019 16:00:00 28.3 C 9.95 g/m*3 28.3 C 9.7 km/h
194 05-07-2019 16:05:00 28.3 C 9.68 g/m*3 28.3 C 12.9 km/h
195 05-07-2019 16:10:00 28.6 C 10.12 g/m*3 28.6 C 9.7 km/h
196 05-07-2019 16:15:00 28.6 C 10.4 g/m*3 28.6 C 8.1 km/h
197 05-07-2019 16:20:00 28.9 C 10 g/m*3 28.9 C 6.4 km/h
198 05-07-2019 16:25:00 28.9 C 9.71 g/m*3 28.9 C 11.3 km/h
199 05-07-2019 16:30:00 28.8 C 9.66 g/m*3 28.8 C 9.7 km/h
200 05-07-2019 16:35:00 29.1 C 10.11 g/m*3 29.1 C 8.1 km/h
Sensor: Nr:Datum:Temp:Abs-Feuchte:Windchill:Wind:
Aussen-T/F 201 05-07-2019 16:40:00 29.3 C 10.22 g/m*3 29.3 C 12.9 km/h
202 05-07-2019 16:45:00 29.4 C 9.98 g/m*3 29.4 C 8.1 km/h
203 05-07-2019 16:50:00 29.5 C 9.74 g/m*3 29.5 C 12.9 km/h
204 05-07-2019 16:55:00 29.3 C 9.93 g/m*3 29.3 C 11.3 km/h
205 05-07-2019 17:00:00 29.2 C 9.87 g/m*3 29.2 C 12.9 km/h
206 05-07-2019 17:05:00 29.2 C 9.87 g/m*3 29.2 C 11.3 km/h
207 05-07-2019 17:10:00 29.4 C 9.69 g/m*3 29.4 C 4.8 km/h
208 05-07-2019 17:15:00 29.7 C 10.14 g/m*3 29.7 C 6.4 km/h
209 05-07-2019 17:20:00 29.7 C 10.14 g/m*3 29.7 C 9.7 km/h
210 05-07-2019 17:25:00 29.6 C 10.09 g/m*3 29.6 C 11.3 km/h
211 05-07-2019 17:30:00 29.6 C 10.39 g/m*3 29.6 C 14.5 km/h
212 05-07-2019 17:35:00 29.7 C 10.14 g/m*3 29.7 C 11.3 km/h
213 05-07-2019 17:40:00 29.7 C 9.85 g/m*3 29.7 C 8.1 km/h
214 05-07-2019 17:45:00 29.7 C 9.85 g/m*3 29.7 C 11.3 km/h
215 05-07-2019 17:50:00 29.8 C 10.2 g/m*3 29.8 C 4.8 km/h
216 05-07-2019 17:55:00 29.9 C 9.95 g/m*3 29.9 C 12.9 km/h
217 05-07-2019 18:00:00 29.9 C 10.25 g/m*3 29.9 C 12.9 km/h
218 05-07-2019 18:05:00 29.6 C 10.39 g/m*3 29.6 C 11.3 km/h
219 05-07-2019 18:10:00 29.8 C 10.5 g/m*3 29.8 C 6.4 km/h
220 05-07-2019 18:15:00 29.9 C 10.25 g/m*3 29.9 C 12.9 km/h
221 05-07-2019 18:20:00 29.7 C 10.14 g/m*3 29.7 C 12.9 km/h
222 05-07-2019 18:25:00 29.4 C 9.98 g/m*3 29.4 C 12.9 km/h
223 05-07-2019 18:30:00 29.3 C 10.22 g/m*3 29.3 C 8.1 km/h
224 05-07-2019 18:35:00 29.4 C 10.27 g/m*3 29.4 C 8.1 km/h
225 05-07-2019 18:40:00 29.4 C 10.27 g/m*3 29.4 C 14.5 km/h
Sensor: Nr:Datum:Temp:Abs-Feuchte:Windchill:Wind:
Aussen-T/F 226 05-07-2019 18:45:00 29.3 C 10.8 g/m*3 29.3 C 11.3 km/h
227 05-07-2019 18:50:00 28.9 C 10 g/m*3 28.9 C 11.3 km/h
228 05-07-2019 18:55:00 28.4 C 10.28 g/m*3 28.4 C 9.7 km/h
229 05-07-2019 19:00:00 28.4 C 10.56 g/m*3 28.4 C 12.9 km/h
230 05-07-2019 19:05:00 28.3 C 10.51 g/m*3 28.3 C 8.1 km/h
231 05-07-2019 19:10:00 28.3 C 10.51 g/m*3 28.3 C 9.7 km/h
232 05-07-2019 19:15:00 28.1 C 10.39 g/m*3 28.1 C 8.1 km/h
233 05-07-2019 19:20:00 27.9 C 10.28 g/m*3 27.9 C 8.1 km/h
234 05-07-2019 19:25:00 27.7 C 10.16 g/m*3 27.7 C 8.1 km/h
235 05-07-2019 19:30:00 27.6 C 10.38 g/m*3 27.6 C 6.4 km/h
236 05-07-2019 19:35:00 27.7 C 10.43 g/m*3 27.7 C 8.1 km/h
237 05-07-2019 19:40:00 27.5 C 10.32 g/m*3 27.5 C 12.9 km/h
238 05-07-2019 19:45:00 27.2 C 10.15 g/m*3 27.2 C 4.8 km/h
239 05-07-2019 19:50:00 26.9 C 10.24 g/m*3 26.9 C 9.7 km/h
240 05-07-2019 19:55:00 26.6 C 10.07 g/m*3 26.6 C 8.1 km/h
241 05-07-2019 20:00:00 26.4 C 10.21 g/m*3 26.4 C 6.4 km/h
242 05-07-2019 20:05:00 26.3 C 10.15 g/m*3 26.3 C 6.4 km/h
243 05-07-2019 20:10:00 26.3 C 10.4 g/m*3 26.3 C 6.4 km/h
244 05-07-2019 20:15:00 26.2 C 10.59 g/m*3 26.2 C 4.8 km/h
245 05-07-2019 20:20:00 26.2 C 10.34 g/m*3 26.2 C 6.4 km/h
246 05-07-2019 20:25:00 26.2 C 10.34 g/m*3 26.2 C 4.8 km/h
247 05-07-2019 20:30:00 26.2 C 10.09 g/m*3 26.2 C 4.8 km/h
248 05-07-2019 20:35:00 26.2 C 10.34 g/m*3 26.2 C 4.8 km/h
249 05-07-2019 20:40:00 26 C 10.23 g/m*3 26 C 3.2 km/h
250 05-07-2019 20:45:00 25.9 C 10.41 g/m*3 25.9 C 1.6 km/h
Sensor: Nr:Datum:Temp:Abs-Feuchte:Windchill:Wind:
Aussen-T/F 251 05-07-2019 20:50:00 25.8 C 11.07 g/m*3 25.8 C 1.6 km/h
252 05-07-2019 20:55:00 25.6 C 11.19 g/m*3 25.6 C 0 km/h
253 05-07-2019 21:00:00 25.2 C 11.17 g/m*3 25.2 C 0 km/h
254 05-07-2019 21:05:00 24.7 C 11.09 g/m*3 24.7 C 0 km/h
255 05-07-2019 21:10:00 24.3 C 11.06 g/m*3 24.3 C 0 km/h
256 05-07-2019 21:15:00 24 C 10.88 g/m*3 24 C 1.6 km/h
257 05-07-2019 21:20:00 23.7 C 10.91 g/m*3 23.7 C 0 km/h
258 05-07-2019 21:25:00 23.3 C 11.08 g/m*3 23.3 C 0 km/h
259 05-07-2019 21:30:00 23 C 10.89 g/m*3 23 C 0 km/h
260 05-07-2019 21:35:00 22.7 C 10.91 g/m*3 22.7 C 0 km/h
261 05-07-2019 21:40:00 22.3 C 10.86 g/m*3 22.3 C 0 km/h
262 05-07-2019 21:45:00 22.1 C 10.93 g/m*3 22.1 C 0 km/h
263 05-07-2019 21:50:00 21.8 C 10.74 g/m*3 21.8 C 0 km/h
264 05-07-2019 21:55:00 21.6 C 10.81 g/m*3 21.6 C 1.6 km/h
265 05-07-2019 22:00:00 21.5 C 10.75 g/m*3 21.5 C 1.6 km/h
266 05-07-2019 22:05:00 21.4 C 10.87 g/m*3 21.4 C 0 km/h
267 05-07-2019 22:10:00 21.3 C 10.81 g/m*3 21.3 C 0 km/h
268 05-07-2019 22:15:00 21.2 C 10.75 g/m*3 21.2 C 0 km/h
269 05-07-2019 22:20:00 21.2 C 10.93 g/m*3 21.2 C 0 km/h
270 05-07-2019 22:25:00 21.1 C 10.87 g/m*3 21.1 C 0 km/h
271 05-07-2019 22:30:00 21.1 C 11.06 g/m*3 21.1 C 0 km/h
272 05-07-2019 22:35:00 21 C 10.81 g/m*3 21 C 0 km/h
273 05-07-2019 22:40:00 21.1 C 10.87 g/m*3 21.1 C 1.6 km/h
274 05-07-2019 22:45:00 21.1 C 10.87 g/m*3 21.1 C 0 km/h
275 05-07-2019 22:50:00 21.1 C 11.06 g/m*3 21.1 C 0 km/h
Sensor: Nr:Datum:Temp:Abs-Feuchte:Windchill:Wind:
Aussen-T/F 276 05-07-2019 22:55:00 21.1 C 10.87 g/m*3 21.1 C 0 km/h
277 05-07-2019 23:00:00 21.1 C 10.87 g/m*3 21.1 C 0 km/h
278 05-07-2019 23:05:00 21 C 10.99 g/m*3 21 C 0 km/h
279 05-07-2019 23:10:00 20.9 C 10.93 g/m*3 20.9 C 0 km/h
280 05-07-2019 23:15:00 20.8 C 10.86 g/m*3 20.8 C 0 km/h
281 05-07-2019 23:20:00 20.8 C 11.05 g/m*3 20.8 C 0 km/h
282 05-07-2019 23:25:00 20.7 C 11.16 g/m*3 20.7 C 0 km/h
283 05-07-2019 23:30:00 20.5 C 11.21 g/m*3 20.5 C 0 km/h
284 05-07-2019 23:35:00 20.3 C 11.26 g/m*3 20.3 C 0 km/h
285 05-07-2019 23:40:00 20.1 C 11.13 g/m*3 20.1 C 0 km/h
286 05-07-2019 23:45:00 19.8 C 11.27 g/m*3 19.8 C 0 km/h
287 05-07-2019 23:50:00 19.5 C 11.08 g/m*3 19.5 C 0 km/h
288 05-07-2019 23:55:00 19.3 C 11.11 g/m*3 19.3 C 0 km/h
289 06-07-2019 00:00:00 19.1 C 11.15 g/m*3 19.1 C 0 km/h
290 06-07-2019 00:05:00 18.9 C 11.02 g/m*3 18.9 C 0 km/h
291 06-07-2019 00:10:00 18.8 C 11.11 g/m*3 18.8 C 0 km/h
292 06-07-2019 00:15:00 18.7 C 11.05 g/m*3 18.7 C 0 km/h
293 06-07-2019 00:20:00 18.5 C 11.08 g/m*3 18.5 C 0 km/h
294 06-07-2019 00:25:00 18.4 C 10.85 g/m*3 18.4 C 0 km/h
295 06-07-2019 00:30:00 18.3 C 11.1 g/m*3 18.3 C 0 km/h
296 06-07-2019 00:35:00 18.3 C 11.1 g/m*3 18.3 C 0 km/h
297 06-07-2019 00:40:00 18.2 C 11.04 g/m*3 18.2 C 0 km/h
298 06-07-2019 00:45:00 18.1 C 10.97 g/m*3 18.1 C 0 km/h
299 06-07-2019 00:50:00 18.1 C 10.97 g/m*3 18.1 C 0 km/h
300 06-07-2019 00:55:00 18.1 C 10.97 g/m*3 18.1 C 0 km/h
Sensor: Nr:Datum:Temp:Abs-Feuchte:Windchill:Wind:
Aussen-T/F 301 06-07-2019 01:00:00 18.1 C 11.12 g/m*3 18.1 C 0 km/h
302 06-07-2019 01:05:00 18 C 10.91 g/m*3 18 C 0 km/h
303 06-07-2019 01:10:00 17.9 C 10.84 g/m*3 17.9 C 0 km/h
304 06-07-2019 01:15:00 17.9 C 10.99 g/m*3 17.9 C 0 km/h
305 06-07-2019 01:20:00 17.8 C 11.08 g/m*3 17.8 C 0 km/h
306 06-07-2019 01:25:00 17.7 C 11.01 g/m*3 17.7 C 0 km/h
307 06-07-2019 01:30:00 17.6 C 10.95 g/m*3 17.6 C 0 km/h
308 06-07-2019 01:35:00 17.4 C 10.82 g/m*3 17.4 C 0 km/h
309 06-07-2019 01:40:00 17.3 C 10.9 g/m*3 17.3 C 1.6 km/h
310 06-07-2019 01:45:00 17.3 C 10.9 g/m*3 17.3 C 0 km/h
311 06-07-2019 01:50:00 17.2 C 10.98 g/m*3 17.2 C 0 km/h
312 06-07-2019 01:55:00 17.1 C 11.06 g/m*3 17.1 C 1.6 km/h
313 06-07-2019 02:00:00 17.1 C 11.06 g/m*3 17.1 C 0 km/h
314 06-07-2019 02:05:00 17.1 C 11.06 g/m*3 17.1 C 0 km/h
315 06-07-2019 02:10:00 17.1 C 11.06 g/m*3 17.1 C 0 km/h
316 06-07-2019 02:15:00 17 C 11 g/m*3 17 C 0 km/h
317 06-07-2019 02:20:00 17 C 11 g/m*3 17 C 0 km/h
318 06-07-2019 02:25:00 17 C 11 g/m*3 17 C 0 km/h
319 06-07-2019 02:30:00 17 C 11 g/m*3 17 C 0 km/h
320 06-07-2019 02:35:00 17.1 C 11.21 g/m*3 17.1 C 0 km/h
321 06-07-2019 02:40:00 17.1 C 11.06 g/m*3 17.1 C 0 km/h
322 06-07-2019 02:45:00 17.1 C 11.06 g/m*3 17.1 C 0 km/h
323 06-07-2019 02:50:00 17.1 C 11.21 g/m*3 17.1 C 0 km/h
324 06-07-2019 02:55:00 17 C 11.14 g/m*3 17 C 0 km/h
325 06-07-2019 03:00:00 17 C 11.14 g/m*3 17 C 1.6 km/h
Sensor: Nr:Datum:Temp:Abs-Feuchte:Windchill:Wind:
Aussen-T/F 326 06-07-2019 03:05:00 17 C 11.14 g/m*3 17 C 1.6 km/h
327 06-07-2019 03:10:00 17 C 11.14 g/m*3 17 C 3.2 km/h
328 06-07-2019 03:15:00 17 C 11.14 g/m*3 17 C 0 km/h
329 06-07-2019 03:20:00 16.9 C 11.08 g/m*3 16.9 C 0 km/h
330 06-07-2019 03:25:00 16.9 C 11.08 g/m*3 16.9 C 0 km/h
331 06-07-2019 03:30:00 16.9 C 11.22 g/m*3 16.9 C 0 km/h
332 06-07-2019 03:35:00 16.8 C 11.15 g/m*3 16.8 C 0 km/h
333 06-07-2019 03:40:00 16.8 C 11.15 g/m*3 16.8 C 0 km/h
334 06-07-2019 03:45:00 16.8 C 11.15 g/m*3 16.8 C 0 km/h
335 06-07-2019 03:50:00 16.7 C 11.08 g/m*3 16.7 C 0 km/h
336 06-07-2019 03:55:00 16.7 C 11.08 g/m*3 16.7 C 0 km/h
337 06-07-2019 04:00:00 16.6 C 11.02 g/m*3 16.6 C 0 km/h
338 06-07-2019 04:05:00 16.5 C 11.09 g/m*3 16.5 C 0 km/h
339 06-07-2019 04:10:00 16.4 C 11.03 g/m*3 16.4 C 0 km/h
340 06-07-2019 04:15:00 16.4 C 11.03 g/m*3 16.4 C 0 km/h
341 06-07-2019 04:20:00 16.3 C 10.96 g/m*3 16.3 C 0 km/h
342 06-07-2019 04:25:00 16.2 C 10.89 g/m*3 16.2 C 0 km/h
343 06-07-2019 04:30:00 16.1 C 10.97 g/m*3 16.1 C 0 km/h
344 06-07-2019 04:35:00 16 C 10.9 g/m*3 16 C 1.6 km/h
345 06-07-2019 04:40:00 15.9 C 10.83 g/m*3 15.9 C 1.6 km/h
346 06-07-2019 04:45:00 15.9 C 10.97 g/m*3 15.9 C 4.8 km/h
347 06-07-2019 04:50:00 15.9 C 10.97 g/m*3 15.9 C 0 km/h
348 06-07-2019 04:55:00 15.8 C 10.9 g/m*3 15.8 C 0 km/h
349 06-07-2019 05:00:00 15.8 C 10.9 g/m*3 15.8 C 0 km/h
350 06-07-2019 05:05:00 15.8 C 10.9 g/m*3 15.8 C 0 km/h
Sensor: Nr:Datum:Temp:Abs-Feuchte:Windchill:Wind:
Aussen-T/F 351 06-07-2019 05:10:00 15.7 C 10.84 g/m*3 15.7 C 0 km/h
352 06-07-2019 05:15:00 15.7 C 10.84 g/m*3 15.7 C 0 km/h
353 06-07-2019 05:20:00 15.6 C 10.91 g/m*3 15.6 C 1.6 km/h
354 06-07-2019 05:25:00 15.5 C 10.71 g/m*3 15.5 C 0 km/h
355 06-07-2019 05:30:00 15.4 C 10.64 g/m*3 15.4 C 0 km/h
356 06-07-2019 05:35:00 15.3 C 10.71 g/m*3 15.3 C 0 km/h
357 06-07-2019 05:40:00 15.1 C 10.58 g/m*3 15.1 C 0 km/h
358 06-07-2019 05:45:00 15.1 C 10.71 g/m*3 15.1 C 0 km/h
359 06-07-2019 05:50:00 15.1 C 10.71 g/m*3 15.1 C 0 km/h
360 06-07-2019 05:55:00 15 C 10.77 g/m*3 15 C 0 km/h
361 06-07-2019 06:00:00 14.9 C 10.71 g/m*3 14.9 C 0 km/h
362 06-07-2019 06:05:00 15 C 10.77 g/m*3 15 C 0 km/h
363 06-07-2019 06:10:00 15.1 C 10.84 g/m*3 15.1 C 0 km/h
364 06-07-2019 06:15:00 15.1 C 10.97 g/m*3 15.1 C 0 km/h
365 06-07-2019 06:20:00 15.2 C 11.03 g/m*3 15.2 C 0 km/h
366 06-07-2019 06:25:00 15.2 C 11.03 g/m*3 15.2 C 0 km/h
367 06-07-2019 06:30:00 15.2 C 11.03 g/m*3 15.2 C 0 km/h
368 06-07-2019 06:35:00 15.3 C 11.1 g/m*3 15.3 C 0 km/h
369 06-07-2019 06:40:00 15.3 C 11.1 g/m*3 15.3 C 0 km/h
370 06-07-2019 06:45:00 15.3 C 11.1 g/m*3 15.3 C 0 km/h
371 06-07-2019 06:50:00 15.3 C 10.97 g/m*3 15.3 C 0 km/h
372 06-07-2019 06:55:00 15.3 C 10.97 g/m*3 15.3 C 0 km/h
373 06-07-2019 07:00:00 15.3 C 10.97 g/m*3 15.3 C 1.6 km/h
374 06-07-2019 07:05:00 15.2 C 10.9 g/m*3 15.2 C 0 km/h
375 06-07-2019 07:10:00 15.2 C 10.9 g/m*3 15.2 C 0 km/h
Sensor: Nr:Datum:Temp:Abs-Feuchte:Windchill:Wind:
Aussen-T/F 376 06-07-2019 07:15:00 15.1 C 10.97 g/m*3 15.1 C 0 km/h
377 06-07-2019 07:20:00 15.1 C 10.97 g/m*3 15.1 C 0 km/h
378 06-07-2019 07:25:00 15 C 10.9 g/m*3 15 C 0 km/h
379 06-07-2019 07:30:00 15 C 10.9 g/m*3 15 C 3.2 km/h
380 06-07-2019 07:35:00 15.1 C 11.09 g/m*3 15.1 C 1.6 km/h
381 06-07-2019 07:40:00 15.1 C 11.09 g/m*3 15.1 C 4.8 km/h
382 06-07-2019 07:45:00 15.2 C 11.16 g/m*3 15.2 C 3.2 km/h
383 06-07-2019 07:50:00 15.3 C 11.23 g/m*3 15.3 C 6.4 km/h
384 06-07-2019 07:55:00 15.6 C 11.3 g/m*3 15.6 C 8.1 km/h
385 06-07-2019 08:00:00 15.8 C 11.31 g/m*3 15.8 C 8.1 km/h
386 06-07-2019 08:05:00 15.9 C 11.24 g/m*3 15.9 C 6.4 km/h
387 06-07-2019 08:10:00 16.2 C 11.45 g/m*3 16.2 C 4.8 km/h
388 06-07-2019 08:15:00 16.4 C 11.45 g/m*3 16.4 C 4.8 km/h
389 06-07-2019 08:20:00 16.6 C 11.58 g/m*3 16.6 C 4.8 km/h
390 06-07-2019 08:25:00 16.8 C 11.58 g/m*3 16.8 C 6.4 km/h
391 06-07-2019 08:30:00 16.9 C 11.65 g/m*3 16.9 C 3.2 km/h
392 06-07-2019 08:35:00 17.1 C 11.65 g/m*3 17.1 C 4.8 km/h
393 06-07-2019 08:40:00 17.2 C 11.86 g/m*3 17.2 C 6.4 km/h
394 06-07-2019 08:45:00 17.3 C 11.79 g/m*3 17.3 C 4.8 km/h
395 06-07-2019 08:50:00 17.4 C 11.71 g/m*3 17.4 C 4.8 km/h
396 06-07-2019 08:55:00 17.8 C 11.99 g/m*3 17.8 C 4.8 km/h
397 06-07-2019 09:00:00 17.9 C 11.91 g/m*3 17.9 C 3.2 km/h
398 06-07-2019 09:05:00 18.2 C 11.81 g/m*3 18.2 C 6.4 km/h
399 06-07-2019 09:10:00 18.4 C 11.95 g/m*3 18.4 C 3.2 km/h
400 06-07-2019 09:15:00 18.6 C 11.94 g/m*3 18.6 C 3.2 km/h
Sensor: Nr:Datum:Temp:Abs-Feuchte:Windchill:Wind:
Aussen-T/F 401 06-07-2019 09:20:00 18.9 C 11.99 g/m*3 18.9 C 6.4 km/h
402 06-07-2019 09:25:00 19.2 C 12.2 g/m*3 19.2 C 3.2 km/h
403 06-07-2019 09:30:00 19.5 C 11.92 g/m*3 19.5 C 4.8 km/h
404 06-07-2019 09:35:00 19.9 C 11.85 g/m*3 19.9 C 4.8 km/h
405 06-07-2019 09:40:00 20.3 C 11.78 g/m*3 20.3 C 3.2 km/h
406 06-07-2019 09:45:00 20.6 C 11.99 g/m*3 20.6 C 3.2 km/h
407 06-07-2019 09:50:00 20.7 C 12.06 g/m*3 20.7 C 4.8 km/h
408 06-07-2019 09:55:00 20.9 C 12.02 g/m*3 20.9 C 4.8 km/h
409 06-07-2019 10:00:00 21.1 C 12.16 g/m*3 21.1 C 1.6 km/h
410 06-07-2019 10:05:00 21.1 C 12.16 g/m*3 21.1 C 1.6 km/h
411 06-07-2019 10:10:00 21.2 C 12.42 g/m*3 21.2 C 0 km/h
412 06-07-2019 10:15:00 21.3 C 12.12 g/m*3 21.3 C 1.6 km/h
413 06-07-2019 10:20:00 21.6 C 12.52 g/m*3 21.6 C 3.2 km/h
414 06-07-2019 10:25:00 21.9 C 12.16 g/m*3 21.9 C 6.4 km/h
415 06-07-2019 10:30:00 22.4 C 12.31 g/m*3 22.4 C 8.1 km/h
416 06-07-2019 10:35:00 22.7 C 12.32 g/m*3 22.7 C 8.1 km/h
417 06-07-2019 10:40:00 22.9 C 12.06 g/m*3 22.9 C 3.2 km/h
418 06-07-2019 10:45:00 23.1 C 12.2 g/m*3 23.1 C 4.8 km/h
419 06-07-2019 10:50:00 23.3 C 12.34 g/m*3 23.3 C 6.4 km/h
420 06-07-2019 10:55:00 23.4 C 11.99 g/m*3 23.4 C 4.8 km/h
421 06-07-2019 11:00:00 23.6 C 11.91 g/m*3 23.6 C 8.1 km/h
422 06-07-2019 11:05:00 23.8 C 11.83 g/m*3 23.8 C 4.8 km/h
423 06-07-2019 11:10:00 23.9 C 11.9 g/m*3 23.9 C 6.4 km/h
424 06-07-2019 11:15:00 24.1 C 11.82 g/m*3 24.1 C 9.7 km/h
425 06-07-2019 11:20:00 24.2 C 12.1 g/m*3 24.2 C 1.6 km/h
Sensor: Nr:Datum:Temp:Abs-Feuchte:Windchill:Wind:
Aussen-T/F 426 06-07-2019 11:25:00 24.2 C 12.1 g/m*3 24.2 C 3.2 km/h
427 06-07-2019 11:30:00 24.3 C 11.95 g/m*3 24.3 C 4.8 km/h
428 06-07-2019 11:35:00 24.6 C 11.7 g/m*3 24.6 C 8.1 km/h
429 06-07-2019 11:40:00 24.9 C 11.67 g/m*3 24.9 C 9.7 km/h
430 06-07-2019 11:45:00 25.1 C 11.34 g/m*3 25.1 C 11.3 km/h
431 06-07-2019 11:50:00 25.1 C 11.57 g/m*3 25.1 C 11.3 km/h
432 06-07-2019 11:55:00 25.2 C 11.41 g/m*3 25.2 C 3.2 km/h
433 06-07-2019 12:00:00 25.3 C 11.71 g/m*3 25.3 C 4.8 km/h
434 06-07-2019 12:05:00 25.3 C 11.47 g/m*3 25.3 C 3.2 km/h
435 06-07-2019 12:10:00 25.4 C 11.77 g/m*3 25.4 C 6.4 km/h
436 06-07-2019 12:15:00 25.5 C 11.84 g/m*3 25.5 C 8.1 km/h
437 06-07-2019 12:20:00 25.4 C 12.01 g/m*3 25.4 C 8.1 km/h
438 06-07-2019 12:25:00 25.4 C 12.01 g/m*3 25.4 C 8.1 km/h
439 06-07-2019 12:30:00 25.3 C 11.71 g/m*3 25.3 C 9.7 km/h
440 06-07-2019 12:35:00 25.3 C 11.94 g/m*3 25.3 C 9.7 km/h
441 06-07-2019 12:40:00 25.5 C 11.84 g/m*3 25.5 C 11.3 km/h
442 06-07-2019 12:45:00 25.7 C 11.97 g/m*3 25.7 C 9.7 km/h
443 06-07-2019 12:50:00 25.8 C 11.8 g/m*3 25.8 C 8.1 km/h
444 06-07-2019 12:55:00 25.9 C 11.86 g/m*3 25.9 C 9.7 km/h
445 06-07-2019 13:00:00 26.1 C 11.51 g/m*3 26.1 C 11.3 km/h
446 06-07-2019 13:05:00 26.3 C 11.88 g/m*3 26.3 C 11.3 km/h
447 06-07-2019 13:10:00 26.4 C 11.45 g/m*3 26.4 C 8.1 km/h
448 06-07-2019 13:15:00 26.6 C 11.08 g/m*3 26.6 C 9.7 km/h
449 06-07-2019 13:20:00 26.7 C 11.14 g/m*3 26.7 C 9.7 km/h
450 06-07-2019 13:25:00 26.8 C 10.94 g/m*3 26.8 C 12.9 km/h
Sensor: Nr:Datum:Temp:Abs-Feuchte:Windchill:Wind:
Aussen-T/F 451 06-07-2019 13:30:00 26.9 C 10.75 g/m*3 26.9 C 12.9 km/h
452 06-07-2019 13:35:00 27.1 C 10.61 g/m*3 27.1 C 6.4 km/h
453 06-07-2019 13:40:00 27.2 C 10.93 g/m*3 27.2 C 9.7 km/h
454 06-07-2019 13:45:00 27.3 C 10.73 g/m*3 27.3 C 9.7 km/h
455 06-07-2019 13:50:00 27.3 C 10.99 g/m*3 27.3 C 6.4 km/h
456 06-07-2019 13:55:00 27.4 C 11.05 g/m*3 27.4 C 9.7 km/h
457 06-07-2019 14:00:00 27.5 C 10.85 g/m*3 27.5 C 6.4 km/h
458 06-07-2019 14:05:00 27.6 C 10.91 g/m*3 27.6 C 8.1 km/h
459 06-07-2019 14:10:00 27.7 C 10.97 g/m*3 27.7 C 8.1 km/h
460 06-07-2019 14:15:00 27.9 C 11.36 g/m*3 27.9 C 4.8 km/h
461 06-07-2019 14:20:00 28.2 C 9.62 g/m*3 28.2 C 8.1 km/h
462 06-07-2019 14:25:00 28.8 C 7.67 g/m*3 28.8 C 9.7 km/h
463 06-07-2019 14:30:00 29.2 C 7.84 g/m*3 29.2 C 11.3 km/h
464 06-07-2019 14:35:00 29.6 C 7.42 g/m*3 29.6 C 11.3 km/h
465 06-07-2019 14:40:00 29.4 C 7.34 g/m*3 29.4 C 22.5 km/h
466 06-07-2019 14:45:00 29.2 C 7.84 g/m*3 29.2 C 22.5 km/h
467 06-07-2019 14:50:00 29.4 C 7.63 g/m*3 29.4 C 12.9 km/h
468 06-07-2019 14:55:00 29.9 C 8.45 g/m*3 29.9 C 16.1 km/h
469 06-07-2019 15:00:00 30.3 C 8.01 g/m*3 30.3 C 20.9 km/h
470 06-07-2019 15:05:00 30.4 C 7.44 g/m*3 30.4 C 20.9 km/h
471 06-07-2019 15:10:00 30.4 C 7.44 g/m*3 30.4 C 8.1 km/h
472 06-07-2019 15:15:00 30.6 C 7.52 g/m*3 30.6 C 14.5 km/h
473 06-07-2019 15:20:00 30.7 C 7.56 g/m*3 30.7 C 16.1 km/h
474 06-07-2019 15:25:00 30.8 C 7.92 g/m*3 30.8 C 12.9 km/h
475 06-07-2019 15:30:00 31.1 C 7.08 g/m*3 31.1 C 12.9 km/h
Sensor: Nr:Datum:Temp:Abs-Feuchte:Windchill:Wind:
Aussen-T/F 476 06-07-2019 15:35:00 31.3 C 6.83 g/m*3 31.3 C 12.9 km/h
477 06-07-2019 15:40:00 31.4 C 6.87 g/m*3 31.4 C 11.3 km/h
478 06-07-2019 15:45:00 31.7 C 6.98 g/m*3 31.7 C 19.3 km/h
479 06-07-2019 15:50:00 31.7 C 6.31 g/m*3 31.7 C 20.9 km/h
480 06-07-2019 15:55:00 31.1 C 6.43 g/m*3 31.1 C 19.3 km/h
481 06-07-2019 16:00:00 30.4 C 5.89 g/m*3 30.4 C 17.7 km/h
482 06-07-2019 16:05:00 29.9 C 6.03 g/m*3 29.9 C 14.5 km/h
483 06-07-2019 16:10:00 29.8 C 5.7 g/m*3 29.8 C 19.3 km/h
484 06-07-2019 16:15:00 29.7 C 6.27 g/m*3 29.7 C 11.3 km/h
485 06-07-2019 16:20:00 29.3 C 5.84 g/m*3 29.3 C 12.9 km/h
486 06-07-2019 16:25:00 29 C 6.03 g/m*3 29 C 11.3 km/h
487 06-07-2019 16:30:00 28.8 C 6.25 g/m*3 28.8 C 11.3 km/h
488 06-07-2019 16:35:00 28.6 C 6.46 g/m*3 28.6 C 9.7 km/h
489 06-07-2019 16:40:00 28.4 C 6.39 g/m*3 28.4 C 17.7 km/h
490 06-07-2019 16:45:00 28.4 C 6.67 g/m*3 28.4 C 11.3 km/h
491 06-07-2019 16:50:00 28.4 C 6.67 g/m*3 28.4 C 8.1 km/h
492 06-07-2019 16:55:00 28.3 C 6.63 g/m*3 28.3 C 12.9 km/h
493 06-07-2019 17:00:00 28.3 C 6.91 g/m*3 28.3 C 12.9 km/h
494 06-07-2019 17:05:00 28.2 C 7.15 g/m*3 28.2 C 20.9 km/h
495 06-07-2019 17:10:00 28.1 C 7.38 g/m*3 28.1 C 12.9 km/h
496 06-07-2019 17:15:00 28.2 C 7.7 g/m*3 28.2 C 16.1 km/h
497 06-07-2019 17:20:00 28.4 C 8.06 g/m*3 28.4 C 20.9 km/h
498 06-07-2019 17:25:00 28.2 C 7.97 g/m*3 28.2 C 17.7 km/h
499 06-07-2019 17:30:00 28.1 C 8.2 g/m*3 28.1 C 16.1 km/h
500 06-07-2019 17:35:00 27.9 C 8.38 g/m*3 27.9 C 11.3 km/h
Sensor: Nr:Datum:Temp:Abs-Feuchte:Windchill:Wind:
Aussen-T/F 501 06-07-2019 17:40:00 27.7 C 8.02 g/m*3 27.7 C 16.1 km/h
502 06-07-2019 17:45:00 27.4 C 8.16 g/m*3 27.4 C 14.5 km/h
503 06-07-2019 17:50:00 27.2 C 7.81 g/m*3 27.2 C 20.9 km/h
504 06-07-2019 17:55:00 27 C 7.72 g/m*3 27 C 16.1 km/h
505 06-07-2019 18:00:00 26.7 C 7.59 g/m*3 26.7 C 16.1 km/h
506 06-07-2019 18:05:00 26.3 C 8.17 g/m*3 26.3 C 20.9 km/h
507 06-07-2019 18:10:00 25.2 C 9.78 g/m*3 25.2 C 25.7 km/h
508 06-07-2019 18:15:00 23.7 C 10.69 g/m*3 23.7 C 25.7 km/h
509 06-07-2019 18:20:00 22.6 C 11.25 g/m*3 22.6 C 8.1 km/h
510 06-07-2019 18:25:00 21.9 C 11.19 g/m*3 21.9 C 9.7 km/h
511 06-07-2019 18:30:00 21.6 C 11.95 g/m*3 21.6 C 1.6 km/h
512 06-07-2019 18:35:00 21.2 C 10.93 g/m*3 21.2 C 4.8 km/h
513 06-07-2019 18:40:00 21.1 C 11.06 g/m*3 21.1 C 1.6 km/h
514 06-07-2019 18:45:00 21.1 C 10.69 g/m*3 21.1 C 4.8 km/h
515 06-07-2019 18:50:00 21.2 C 10.38 g/m*3 21.2 C 16.1 km/h
516 06-07-2019 18:55:00 21.3 C 10.44 g/m*3 21.3 C 6.4 km/h
517 06-07-2019 19:00:00 21.4 C 10.12 g/m*3 21.4 C 6.4 km/h
518 06-07-2019 19:05:00 21.4 C 10.31 g/m*3 21.4 C 4.8 km/h
519 06-07-2019 19:10:00 21.5 C 10.37 g/m*3 21.5 C 6.4 km/h
520 06-07-2019 19:15:00 21.6 C 10.43 g/m*3 21.6 C 8.1 km/h
521 06-07-2019 19:20:00 21.6 C 10.43 g/m*3 21.6 C 4.8 km/h
522 06-07-2019 19:25:00 21.6 C 10.43 g/m*3 21.6 C 9.7 km/h
523 06-07-2019 19:30:00 21.7 C 10.3 g/m*3 21.7 C 11.3 km/h
524 06-07-2019 19:35:00 21.8 C 10.55 g/m*3 21.8 C 9.7 km/h
525 06-07-2019 19:40:00 21.8 C 10.55 g/m*3 21.8 C 6.4 km/h
Sensor: Nr:Datum:Temp:Abs-Feuchte:Windchill:Wind:
Aussen-T/F 526 06-07-2019 19:45:00 21.8 C 10.94 g/m*3 21.8 C 3.2 km/h
527 06-07-2019 19:50:00 21.7 C 11.25 g/m*3 21.7 C 3.2 km/h
528 06-07-2019 19:55:00 21.4 C 11.62 g/m*3 21.4 C 1.6 km/h
529 06-07-2019 20:00:00 21.2 C 11.68 g/m*3 21.2 C 6.4 km/h
530 06-07-2019 20:05:00 21 C 11.54 g/m*3 21 C 4.8 km/h
531 06-07-2019 20:10:00 20.7 C 11.16 g/m*3 20.7 C 4.8 km/h
532 06-07-2019 20:15:00 20.6 C 10.56 g/m*3 20.6 C 8.1 km/h
533 06-07-2019 20:20:00 20.6 C 10.92 g/m*3 20.6 C 3.2 km/h
534 06-07-2019 20:25:00 20.5 C 11.21 g/m*3 20.5 C 3.2 km/h
535 06-07-2019 20:30:00 20.4 C 11.85 g/m*3 20.4 C 4.8 km/h
536 06-07-2019 20:35:00 20.1 C 11.82 g/m*3 20.1 C 4.8 km/h
537 06-07-2019 20:40:00 19.8 C 11.44 g/m*3 19.8 C 4.8 km/h
538 06-07-2019 20:45:00 19.8 C 11.44 g/m*3 19.8 C 4.8 km/h
539 06-07-2019 20:50:00 19.8 C 11.27 g/m*3 19.8 C 8.1 km/h
540 06-07-2019 20:55:00 19.8 C 11.44 g/m*3 19.8 C 3.2 km/h
541 06-07-2019 21:00:00 19.8 C 11.27 g/m*3 19.8 C 4.8 km/h
542 06-07-2019 21:05:00 19.8 C 11.27 g/m*3 19.8 C 4.8 km/h
543 06-07-2019 21:10:00 19.8 C 11.44 g/m*3 19.8 C 1.6 km/h
544 06-07-2019 21:15:00 19.8 C 11.1 g/m*3 19.8 C 3.2 km/h
545 06-07-2019 21:20:00 19.8 C 11.1 g/m*3 19.8 C 3.2 km/h
546 06-07-2019 21:25:00 19.9 C 11.34 g/m*3 19.9 C 1.6 km/h
547 06-07-2019 21:30:00 19.8 C 11.27 g/m*3 19.8 C 3.2 km/h
548 06-07-2019 21:35:00 19.8 C 11.27 g/m*3 19.8 C 1.6 km/h
549 06-07-2019 21:40:00 19.7 C 11.38 g/m*3 19.7 C 4.8 km/h
550 06-07-2019 21:45:00 19.7 C 11.72 g/m*3 19.7 C 6.4 km/h
Sensor: Nr:Datum:Temp:Abs-Feuchte:Windchill:Wind:
Aussen-T/F 551 06-07-2019 21:50:00 19.6 C 11.82 g/m*3 19.6 C 6.4 km/h
552 06-07-2019 21:55:00 19.6 C 11.65 g/m*3 19.6 C 1.6 km/h
553 06-07-2019 22:00:00 19.5 C 11.75 g/m*3 19.5 C 3.2 km/h
554 06-07-2019 22:05:00 19.4 C 11.85 g/m*3 19.4 C 4.8 km/h
555 06-07-2019 22:10:00 19.4 C 12.01 g/m*3 19.4 C 3.2 km/h
556 06-07-2019 22:15:00 19.4 C 12.01 g/m*3 19.4 C 1.6 km/h
557 06-07-2019 22:20:00 19.3 C 11.61 g/m*3 19.3 C 3.2 km/h
558 06-07-2019 22:25:00 19.4 C 11.85 g/m*3 19.4 C 4.8 km/h
559 06-07-2019 22:30:00 19.7 C 12.06 g/m*3 19.7 C 3.2 km/h
560 06-07-2019 22:35:00 19.9 C 12.37 g/m*3 19.9 C 4.8 km/h
561 06-07-2019 22:40:00 20.3 C 12.66 g/m*3 20.3 C 14.5 km/h
562 06-07-2019 22:45:00 20.6 C 12.71 g/m*3 20.6 C 11.3 km/h
563 06-07-2019 22:50:00 20.7 C 12.78 g/m*3 20.7 C 12.9 km/h
564 06-07-2019 22:55:00 20.8 C 12.86 g/m*3 20.8 C 9.7 km/h
565 06-07-2019 23:00:00 20.8 C 12.86 g/m*3 20.8 C 9.7 km/h
566 06-07-2019 23:05:00 20.8 C 12.86 g/m*3 20.8 C 8.1 km/h
567 06-07-2019 23:10:00 20.7 C 12.78 g/m*3 20.7 C 11.3 km/h
568 06-07-2019 23:15:00 20.7 C 12.78 g/m*3 20.7 C 9.7 km/h
569 06-07-2019 23:20:00 20.7 C 12.78 g/m*3 20.7 C 6.4 km/h
570 06-07-2019 23:25:00 20.6 C 12.71 g/m*3 20.6 C 9.7 km/h
571 06-07-2019 23:30:00 20.4 C 12.74 g/m*3 20.4 C 11.3 km/h
572 06-07-2019 23:35:00 20.3 C 12.66 g/m*3 20.3 C 4.8 km/h
573 06-07-2019 23:40:00 20.1 C 12.34 g/m*3 20.1 C 9.7 km/h
574 06-07-2019 23:45:00 19.9 C 12.37 g/m*3 19.9 C 14.5 km/h
575 06-07-2019 23:50:00 19.7 C 12.23 g/m*3 19.7 C 12.9 km/h
Sensor: Nr:Datum:Temp:Abs-Feuchte:Windchill:Wind:
Aussen-T/F 576 06-07-2019 23:55:00 19.6 C 12.15 g/m*3 19.6 C 8.1 km/h
577 07-07-2019 00:00:00 19.4 C 12.18 g/m*3 19.4 C 4.8 km/h
578 07-07-2019 00:05:00 19.3 C 12.11 g/m*3 19.3 C 6.4 km/h
579 07-07-2019 00:10:00 19.3 C 12.27 g/m*3 19.3 C 9.7 km/h
580 07-07-2019 00:15:00 19.2 C 12.2 g/m*3 19.2 C 8.1 km/h
581 07-07-2019 00:20:00 19.1 C 12.13 g/m*3 19.1 C 6.4 km/h
582 07-07-2019 00:25:00 19 C 12.22 g/m*3 19 C 8.1 km/h
583 07-07-2019 00:30:00 18.9 C 11.99 g/m*3 18.9 C 4.8 km/h
584 07-07-2019 00:35:00 18.8 C 11.92 g/m*3 18.8 C 8.1 km/h
585 07-07-2019 00:40:00 18.7 C 11.85 g/m*3 18.7 C 8.1 km/h
586 07-07-2019 00:45:00 18.6 C 11.94 g/m*3 18.6 C 6.4 km/h
587 07-07-2019 00:50:00 18.5 C 11.87 g/m*3 18.5 C 6.4 km/h
588 07-07-2019 00:55:00 18.4 C 11.8 g/m*3 18.4 C 8.1 km/h
589 07-07-2019 01:00:00 18.3 C 11.88 g/m*3 18.3 C 6.4 km/h
590 07-07-2019 01:05:00 18.2 C 11.97 g/m*3 18.2 C 8.1 km/h
591 07-07-2019 01:10:00 18.1 C 11.9 g/m*3 18.1 C 9.7 km/h
592 07-07-2019 01:15:00 18.1 C 12.05 g/m*3 18.1 C 8.1 km/h
593 07-07-2019 01:20:00 18 C 11.98 g/m*3 18 C 8.1 km/h
594 07-07-2019 01:25:00 17.9 C 11.91 g/m*3 17.9 C 3.2 km/h
595 07-07-2019 01:30:00 17.9 C 11.91 g/m*3 17.9 C 11.3 km/h
596 07-07-2019 01:35:00 17.8 C 11.84 g/m*3 17.8 C 11.3 km/h
597 07-07-2019 01:40:00 17.7 C 11.62 g/m*3 17.7 C 1.6 km/h
598 07-07-2019 01:45:00 17.6 C 11.7 g/m*3 17.6 C 6.4 km/h
599 07-07-2019 01:50:00 17.5 C 11.48 g/m*3 17.5 C 9.7 km/h
600 07-07-2019 01:55:00 17.5 C 11.48 g/m*3 17.5 C 4.8 km/h
Sensor: Nr:Datum:Temp:Abs-Feuchte:Windchill:Wind:
Aussen-T/F 601 07-07-2019 02:00:00 17.4 C 11.26 g/m*3 17.4 C 8.1 km/h
602 07-07-2019 02:05:00 17.4 C 11.12 g/m*3 17.4 C 11.3 km/h
603 07-07-2019 02:10:00 17.4 C 10.97 g/m*3 17.4 C 8.1 km/h
604 07-07-2019 02:15:00 17.4 C 10.97 g/m*3 17.4 C 8.1 km/h
605 07-07-2019 02:20:00 17.4 C 10.97 g/m*3 17.4 C 6.4 km/h
606 07-07-2019 02:25:00 17.4 C 10.97 g/m*3 17.4 C 4.8 km/h
607 07-07-2019 02:30:00 17.3 C 10.9 g/m*3 17.3 C 3.2 km/h
608 07-07-2019 02:35:00 17.3 C 10.9 g/m*3 17.3 C 4.8 km/h
609 07-07-2019 02:40:00 17.3 C 10.9 g/m*3 17.3 C 4.8 km/h
610 07-07-2019 02:45:00 17.3 C 11.05 g/m*3 17.3 C 8.1 km/h
611 07-07-2019 02:50:00 17.2 C 10.98 g/m*3 17.2 C 4.8 km/h
612 07-07-2019 02:55:00 17.2 C 10.98 g/m*3 17.2 C 1.6 km/h
613 07-07-2019 03:00:00 17.2 C 10.98 g/m*3 17.2 C 3.2 km/h
614 07-07-2019 03:05:00 17.1 C 11.06 g/m*3 17.1 C 1.6 km/h
615 07-07-2019 03:10:00 17.1 C 11.06 g/m*3 17.1 C 4.8 km/h
616 07-07-2019 03:15:00 17.1 C 11.06 g/m*3 17.1 C 6.4 km/h
617 07-07-2019 03:20:00 17.1 C 11.06 g/m*3 17.1 C 3.2 km/h
618 07-07-2019 03:25:00 17 C 11 g/m*3 17 C 4.8 km/h
619 07-07-2019 03:30:00 16.9 C 10.93 g/m*3 16.9 C 6.4 km/h
620 07-07-2019 03:35:00 16.9 C 10.93 g/m*3 16.9 C 3.2 km/h
621 07-07-2019 03:40:00 16.9 C 10.79 g/m*3 16.9 C 4.8 km/h
622 07-07-2019 03:45:00 16.9 C 10.79 g/m*3 16.9 C 6.4 km/h
623 07-07-2019 03:50:00 16.9 C 10.79 g/m*3 16.9 C 4.8 km/h
624 07-07-2019 03:55:00 16.9 C 10.79 g/m*3 16.9 C 4.8 km/h
625 07-07-2019 04:00:00 16.9 C 10.79 g/m*3 16.9 C 6.4 km/h
Sensor: Nr:Datum:Temp:Abs-Feuchte:Windchill:Wind:
Aussen-T/F 626 07-07-2019 04:05:00 16.9 C 10.64 g/m*3 16.9 C 4.8 km/h
627 07-07-2019 04:10:00 16.9 C 10.79 g/m*3 16.9 C 3.2 km/h
628 07-07-2019 04:15:00 16.9 C 10.79 g/m*3 16.9 C 3.2 km/h
629 07-07-2019 04:20:00 16.8 C 10.72 g/m*3 16.8 C 4.8 km/h
630 07-07-2019 04:25:00 16.8 C 10.72 g/m*3 16.8 C 4.8 km/h
631 07-07-2019 04:30:00 16.8 C 10.72 g/m*3 16.8 C 3.2 km/h
632 07-07-2019 04:35:00 16.8 C 10.72 g/m*3 16.8 C 4.8 km/h
633 07-07-2019 04:40:00 16.8 C 11.01 g/m*3 16.8 C 3.2 km/h
634 07-07-2019 04:45:00 16.8 C 11.15 g/m*3 16.8 C 6.4 km/h
635 07-07-2019 04:50:00 16.8 C 11.15 g/m*3 16.8 C 8.1 km/h
636 07-07-2019 04:55:00 16.7 C 11.08 g/m*3 16.7 C 6.4 km/h
637 07-07-2019 05:00:00 16.7 C 11.23 g/m*3 16.7 C 8.1 km/h
638 07-07-2019 05:05:00 16.7 C 11.23 g/m*3 16.7 C 1.6 km/h
639 07-07-2019 05:10:00 16.6 C 11.16 g/m*3 16.6 C 1.6 km/h
640 07-07-2019 05:15:00 16.6 C 11.02 g/m*3 16.6 C 11.3 km/h
641 07-07-2019 05:20:00 16.5 C 10.95 g/m*3 16.5 C 8.1 km/h
642 07-07-2019 05:25:00 16.4 C 10.89 g/m*3 16.4 C 6.4 km/h
643 07-07-2019 05:30:00 16.4 C 10.89 g/m*3 16.4 C 4.8 km/h
644 07-07-2019 05:35:00 16.4 C 11.03 g/m*3 16.4 C 6.4 km/h
645 07-07-2019 05:40:00 16.3 C 11.1 g/m*3 16.3 C 9.7 km/h
646 07-07-2019 05:45:00 16.1 C 11.24 g/m*3 16.1 C 9.7 km/h
647 07-07-2019 06:00:00 15.5 C 11.5 g/m*3 15.5 C 1.6 km/h
648 07-07-2019 06:10:00 15.3 C 11.49 g/m*3 15.3 C 1.6 km/h
649 07-07-2019 06:15:00 15.1 C 11.35 g/m*3 15.1 C 0 km/h
650 07-07-2019 06:20:00 14.9 C 11.34 g/m*3 14.9 C 0 km/h
Sensor: Nr:Datum:Temp:Abs-Feuchte:Windchill:Wind:
Aussen-T/F 651 07-07-2019 06:30:00 14.8 C 11.4 g/m*3 14.8 C 0 km/h
652 07-07-2019 06:35:00 14.8 C 11.53 g/m*3 14.8 C 0 km/h
653 07-07-2019 06:40:00 14.8 C 11.53 g/m*3 14.8 C 0 km/h
654 07-07-2019 06:45:00 14.8 C 11.65 g/m*3 14.8 C 1.6 km/h
655 07-07-2019 06:50:00 14.8 C 11.65 g/m*3 14.8 C 0 km/h
656 07-07-2019 06:55:00 14.8 C 11.65 g/m*3 14.8 C 0 km/h
657 07-07-2019 07:00:00 14.7 C 11.58 g/m*3 14.7 C 0 km/h
658 07-07-2019 07:05:00 14.7 C 11.71 g/m*3 14.7 C 0 km/h
659 07-07-2019 07:10:00 14.7 C 11.71 g/m*3 14.7 C 0 km/h
660 07-07-2019 07:15:00 14.7 C 11.71 g/m*3 14.7 C 0 km/h
661 07-07-2019 07:20:00 14.7 C 11.71 g/m*3 14.7 C 0 km/h
662 07-07-2019 07:25:00 14.7 C 11.71 g/m*3 14.7 C 0 km/h
663 07-07-2019 07:30:00 14.7 C 11.71 g/m*3 14.7 C 1.6 km/h
664 07-07-2019 07:35:00 14.7 C 11.71 g/m*3 14.7 C 0 km/h
665 07-07-2019 07:40:00 14.7 C 11.71 g/m*3 14.7 C 3.2 km/h
666 07-07-2019 07:45:00 14.6 C 11.64 g/m*3 14.6 C 3.2 km/h
667 07-07-2019 07:50:00 14.5 C 11.57 g/m*3 14.5 C 3.2 km/h
668 07-07-2019 07:55:00 14.4 C 11.5 g/m*3 14.4 C 3.2 km/h
669 07-07-2019 08:05:00 14.3 C 11.43 g/m*3 14.3 C 3.2 km/h
670 07-07-2019 08:10:00 14.3 C 11.43 g/m*3 14.3 C 0 km/h
671 07-07-2019 08:15:00 14.2 C 11.36 g/m*3 14.2 C 0 km/h
672 07-07-2019 08:20:00 14.2 C 11.48 g/m*3 14.2 C 1.6 km/h
673 07-07-2019 08:25:00 14.2 C 11.48 g/m*3 14.2 C 0 km/h
674 07-07-2019 08:30:00 14.2 C 11.48 g/m*3 14.2 C 1.6 km/h
675 07-07-2019 08:35:00 14.2 C 11.48 g/m*3 14.2 C 0 km/h
Sensor: Nr:Datum:Temp:Abs-Feuchte:Windchill:Wind:
Aussen-T/F 676 07-07-2019 08:40:00 14.3 C 11.55 g/m*3 14.3 C 0 km/h
677 07-07-2019 08:45:00 14.3 C 11.55 g/m*3 14.3 C 0 km/h
678 07-07-2019 08:50:00 14.4 C 11.62 g/m*3 14.4 C 0 km/h
679 07-07-2019 08:55:00 14.5 C 11.82 g/m*3 14.5 C 1.6 km/h
680 07-07-2019 09:00:00 14.5 C 11.69 g/m*3 14.5 C 0 km/h
681 07-07-2019 09:05:00 14.4 C 11.62 g/m*3 14.4 C 1.6 km/h
682 07-07-2019 09:10:00 14.4 C 11.62 g/m*3 14.4 C 1.6 km/h
683 07-07-2019 09:15:00 14.3 C 11.55 g/m*3 14.3 C 4.8 km/h
684 07-07-2019 09:20:00 14.4 C 11.62 g/m*3 14.4 C 4.8 km/h
685 07-07-2019 09:25:00 14.4 C 11.62 g/m*3 14.4 C 14.5 km/h
686 07-07-2019 09:30:00 14.6 C 11.76 g/m*3 14.6 C 0 km/h
687 07-07-2019 09:35:00 14.9 C 12.11 g/m*3 14.9 C 1.6 km/h
688 07-07-2019 09:40:00 15.2 C 12.33 g/m*3 15.2 C 1.6 km/h
689 07-07-2019 09:45:00 15.4 C 12.48 g/m*3 15.4 C 0 km/h
690 07-07-2019 09:50:00 15.6 C 12.5 g/m*3 15.6 C 0 km/h
691 07-07-2019 09:55:00 15.3 C 12.14 g/m*3 15.3 C 3.2 km/h
692 07-07-2019 10:00:00 15.2 C 11.94 g/m*3 15.2 C 3.2 km/h
693 07-07-2019 10:05:00 15.2 C 11.94 g/m*3 15.2 C 1.6 km/h
694 07-07-2019 10:10:00 15.3 C 11.75 g/m*3 15.3 C 11.3 km/h
695 07-07-2019 10:15:00 15.3 C 11.62 g/m*3 15.3 C 8.1 km/h
696 07-07-2019 10:20:00 15.4 C 11.69 g/m*3 15.4 C 11.3 km/h
697 07-07-2019 10:25:00 15.4 C 11.56 g/m*3 15.4 C 4.8 km/h
698 07-07-2019 10:30:00 15.4 C 11.3 g/m*3 15.4 C 12.9 km/h
699 07-07-2019 10:35:00 15.3 C 10.84 g/m*3 15.3 C 11.3 km/h
700 07-07-2019 10:40:00 15.3 C 10.58 g/m*3 15.3 C 9.7 km/h
Sensor: Nr:Datum:Temp:Abs-Feuchte:Windchill:Wind:
Aussen-T/F 701 07-07-2019 10:45:00 15.4 C 10.64 g/m*3 15.4 C 11.3 km/h
702 07-07-2019 10:50:00 15.6 C 11.04 g/m*3 15.6 C 8.1 km/h
703 07-07-2019 10:55:00 15.8 C 10.77 g/m*3 15.8 C 9.7 km/h
704 07-07-2019 11:00:00 15.9 C 10.56 g/m*3 15.9 C 11.3 km/h
705 07-07-2019 11:05:00 16 C 10.63 g/m*3 16 C 8.1 km/h
706 07-07-2019 11:10:00 16.1 C 10.69 g/m*3 16.1 C 9.7 km/h
707 07-07-2019 11:15:00 16.1 C 10.83 g/m*3 16.1 C 11.3 km/h
708 07-07-2019 11:20:00 16.2 C 10.62 g/m*3 16.2 C 11.3 km/h
709 07-07-2019 11:25:00 16.3 C 10.68 g/m*3 16.3 C 8.1 km/h
710 07-07-2019 11:30:00 16.5 C 10.53 g/m*3 16.5 C 12.9 km/h
711 07-07-2019 11:35:00 16.6 C 10.59 g/m*3 16.6 C 4.8 km/h
712 07-07-2019 11:40:00 16.9 C 10.79 g/m*3 16.9 C 9.7 km/h
713 07-07-2019 11:45:00 17 C 10.42 g/m*3 17 C 9.7 km/h
714 07-07-2019 11:50:00 17.2 C 10.54 g/m*3 17.2 C 9.7 km/h
715 07-07-2019 11:55:00 17.3 C 10.16 g/m*3 17.3 C 12.9 km/h
716 07-07-2019 12:00:00 17.3 C 10.02 g/m*3 17.3 C 6.4 km/h
717 07-07-2019 12:05:00 17.5 C 10.59 g/m*3 17.5 C 6.4 km/h
718 07-07-2019 12:10:00 17.6 C 10.2 g/m*3 17.6 C 11.3 km/h
719 07-07-2019 12:15:00 17.7 C 10.41 g/m*3 17.7 C 8.1 km/h
720 07-07-2019 12:20:00 17.7 C 10.41 g/m*3 17.7 C 8.1 km/h
721 07-07-2019 12:25:00 17.8 C 10.32 g/m*3 17.8 C 8.1 km/h
722 07-07-2019 12:30:00 17.8 C 10.02 g/m*3 17.8 C 9.7 km/h
723 07-07-2019 12:35:00 17.8 C 10.32 g/m*3 17.8 C 8.1 km/h
724 07-07-2019 12:40:00 17.9 C 9.92 g/m*3 17.9 C 11.3 km/h
725 07-07-2019 12:45:00 17.9 C 10.38 g/m*3 17.9 C 8.1 km/h
Sensor: Nr:Datum:Temp:Abs-Feuchte:Windchill:Wind:
Aussen-T/F 726 07-07-2019 12:50:00 17.9 C 10.08 g/m*3 17.9 C 11.3 km/h
727 07-07-2019 12:55:00 17.9 C 9.92 g/m*3 17.9 C 12.9 km/h
728 07-07-2019 13:00:00 18.1 C 10.35 g/m*3 18.1 C 9.7 km/h
729 07-07-2019 13:05:00 18.1 C 9.89 g/m*3 18.1 C 16.1 km/h
730 07-07-2019 13:10:00 18.2 C 10.1 g/m*3 18.2 C 16.1 km/h
731 07-07-2019 13:15:00 18.1 C 9.73 g/m*3 18.1 C 17.7 km/h
732 07-07-2019 13:20:00 18.2 C 9.95 g/m*3 18.2 C 9.7 km/h
733 07-07-2019 13:25:00 18.3 C 10.16 g/m*3 18.3 C 14.5 km/h
734 07-07-2019 13:30:00 18.6 C 10.03 g/m*3 18.6 C 6.4 km/h
735 07-07-2019 13:35:00 18.8 C 9.82 g/m*3 18.8 C 11.3 km/h
736 07-07-2019 13:40:00 18.9 C 9.88 g/m*3 18.9 C 12.9 km/h
737 07-07-2019 13:45:00 18.8 C 9.5 g/m*3 18.8 C 11.3 km/h
738 07-07-2019 13:50:00 18.9 C 9.4 g/m*3 18.9 C 12.9 km/h
739 07-07-2019 13:55:00 19 C 9.61 g/m*3 19 C 8.1 km/h
740 07-07-2019 14:00:00 19.2 C 9.56 g/m*3 19.2 C 14.5 km/h
741 07-07-2019 14:05:00 19.1 C 9.34 g/m*3 19.1 C 14.5 km/h
742 07-07-2019 14:10:00 19 C 9.61 g/m*3 19 C 11.3 km/h
743 07-07-2019 14:15:00 19.1 C 9.34 g/m*3 19.1 C 9.7 km/h
744 07-07-2019 14:20:00 19.1 C 9.51 g/m*3 19.1 C 11.3 km/h
745 07-07-2019 14:25:00 19.2 C 9.4 g/m*3 19.2 C 11.3 km/h
746 07-07-2019 14:30:00 19.4 C 9.01 g/m*3 19.4 C 11.3 km/h
747 07-07-2019 14:35:00 19.4 C 9.01 g/m*3 19.4 C 14.5 km/h
748 07-07-2019 14:40:00 19.3 C 9.12 g/m*3 19.3 C 11.3 km/h
749 07-07-2019 14:45:00 19.3 C 8.96 g/m*3 19.3 C 14.5 km/h
750 07-07-2019 14:50:00 19.4 C 9.01 g/m*3 19.4 C 9.7 km/h
Sensor: Nr:Datum:Temp:Abs-Feuchte:Windchill:Wind:
Aussen-T/F 751 07-07-2019 14:55:00 19.6 C 8.61 g/m*3 19.6 C 14.5 km/h
752 07-07-2019 15:00:00 19.7 C 8.83 g/m*3 19.7 C 11.3 km/h
753 07-07-2019 15:05:00 19.9 C 9.11 g/m*3 19.9 C 9.7 km/h
754 07-07-2019 15:10:00 20.5 C 9.25 g/m*3 20.5 C 14.5 km/h
755 07-07-2019 15:15:00 20.8 C 9.05 g/m*3 20.8 C 19.3 km/h
756 07-07-2019 15:20:00 20.8 C 9.05 g/m*3 20.8 C 19.3 km/h
757 07-07-2019 15:25:00 20.8 C 8.69 g/m*3 20.8 C 17.7 km/h
758 07-07-2019 15:30:00 20.8 C 8.33 g/m*3 20.8 C 12.9 km/h
759 07-07-2019 15:35:00 20.9 C 8.74 g/m*3 20.9 C 11.3 km/h
760 07-07-2019 15:40:00 21.2 C 8.52 g/m*3 21.2 C 16.1 km/h
761 07-07-2019 15:45:00 21.7 C 8.77 g/m*3 21.7 C 11.3 km/h
762 07-07-2019 15:50:00 22 C 8.93 g/m*3 22 C 14.5 km/h
763 07-07-2019 15:55:00 21.9 C 8.68 g/m*3 21.9 C 12.9 km/h
764 07-07-2019 16:00:00 21.7 C 8.58 g/m*3 21.7 C 12.9 km/h
765 07-07-2019 16:05:00 21.8 C 8.63 g/m*3 21.8 C 16.1 km/h
766 07-07-2019 16:10:00 21.6 C 8.53 g/m*3 21.6 C 14.5 km/h
767 07-07-2019 16:15:00 21.7 C 8.58 g/m*3 21.7 C 16.1 km/h
768 07-07-2019 16:20:00 21.9 C 8.3 g/m*3 21.9 C 12.9 km/h
769 07-07-2019 16:25:00 22 C 8.73 g/m*3 22 C 11.3 km/h
770 07-07-2019 16:30:00 21.9 C 8.1 g/m*3 21.9 C 17.7 km/h
771 07-07-2019 16:35:00 21.6 C 8.35 g/m*3 21.6 C 6.4 km/h
772 07-07-2019 16:40:00 21.6 C 8.35 g/m*3 21.6 C 6.4 km/h
773 07-07-2019 16:45:00 21.9 C 8.1 g/m*3 21.9 C 9.7 km/h
774 07-07-2019 16:50:00 22 C 8.15 g/m*3 22 C 17.7 km/h
775 07-07-2019 16:55:00 21.7 C 8.01 g/m*3 21.7 C 12.9 km/h
Sensor: Nr:Datum:Temp:Abs-Feuchte:Windchill:Wind:
Aussen-T/F 776 07-07-2019 17:00:00 21.4 C 8.25 g/m*3 21.4 C 9.7 km/h
777 07-07-2019 17:05:00 21.1 C 8.29 g/m*3 21.1 C 11.3 km/h
778 07-07-2019 17:10:00 20.9 C 8.01 g/m*3 20.9 C 9.7 km/h
779 07-07-2019 17:15:00 20.8 C 8.15 g/m*3 20.8 C 11.3 km/h
780 07-07-2019 17:20:00 21 C 8.06 g/m*3 21 C 14.5 km/h
781 07-07-2019 17:25:00 21.1 C 8.29 g/m*3 21.1 C 12.9 km/h
782 07-07-2019 17:30:00 21.8 C 8.44 g/m*3 21.8 C 12.9 km/h
783 07-07-2019 17:35:00 22 C 8.15 g/m*3 22 C 12.9 km/h
784 07-07-2019 17:40:00 21.8 C 8.25 g/m*3 21.8 C 16.1 km/h
785 07-07-2019 17:45:00 21.8 C 8.63 g/m*3 21.8 C 9.7 km/h
786 07-07-2019 17:50:00 21.9 C 8.49 g/m*3 21.9 C 14.5 km/h
787 07-07-2019 17:55:00 22.1 C 8.59 g/m*3 22.1 C 17.7 km/h
788 07-07-2019 18:00:00 22.2 C 8.44 g/m*3 22.2 C 16.1 km/h
789 07-07-2019 18:05:00 22 C 8.35 g/m*3 22 C 11.3 km/h
790 07-07-2019 18:10:00 21.8 C 8.25 g/m*3 21.8 C 12.9 km/h
791 07-07-2019 18:15:00 21.6 C 8.35 g/m*3 21.6 C 12.9 km/h
792 07-07-2019 18:20:00 21.4 C 8.44 g/m*3 21.4 C 12.9 km/h
793 07-07-2019 18:25:00 21.3 C 8.57 g/m*3 21.3 C 16.1 km/h
794 07-07-2019 18:30:00 21.3 C 8.57 g/m*3 21.3 C 14.5 km/h
795 07-07-2019 18:35:00 21.5 C 8.67 g/m*3 21.5 C 14.5 km/h
796 07-07-2019 18:40:00 21.8 C 8.83 g/m*3 21.8 C 9.7 km/h
797 07-07-2019 18:45:00 22.1 C 8.59 g/m*3 22.1 C 11.3 km/h
798 07-07-2019 18:50:00 22.1 C 8.59 g/m*3 22.1 C 16.1 km/h
799 07-07-2019 18:55:00 22.2 C 8.44 g/m*3 22.2 C 9.7 km/h
800 07-07-2019 19:00:00 22.1 C 8.39 g/m*3 22.1 C 9.7 km/h
Sensor: Nr:Datum:Temp:Abs-Feuchte:Windchill:Wind:
Aussen-T/F 801 07-07-2019 19:05:00 21.9 C 8.1 g/m*3 21.9 C 12.9 km/h
802 07-07-2019 19:10:00 21.6 C 8.16 g/m*3 21.6 C 16.1 km/h
803 07-07-2019 19:15:00 21.3 C 8.57 g/m*3 21.3 C 8.1 km/h
804 07-07-2019 19:20:00 21.3 C 8.39 g/m*3 21.3 C 11.3 km/h
805 07-07-2019 19:25:00 21.6 C 8.53 g/m*3 21.6 C 12.9 km/h
806 07-07-2019 19:30:00 21.5 C 8.3 g/m*3 21.5 C 11.3 km/h
807 07-07-2019 19:35:00 21.2 C 8.15 g/m*3 21.2 C 11.3 km/h
808 07-07-2019 19:40:00 21.1 C 8.29 g/m*3 21.1 C 6.4 km/h
809 07-07-2019 19:45:00 20.9 C 8.38 g/m*3 20.9 C 12.9 km/h
810 07-07-2019 19:50:00 20.7 C 8.1 g/m*3 20.7 C 11.3 km/h
811 07-07-2019 19:55:00 20.7 C 8.28 g/m*3 20.7 C 11.3 km/h
812 07-07-2019 20:00:00 20.4 C 8.14 g/m*3 20.4 C 14.5 km/h
813 07-07-2019 20:05:00 20.2 C 8.22 g/m*3 20.2 C 6.4 km/h
814 07-07-2019 20:10:00 20.1 C 8.34 g/m*3 20.1 C 8.1 km/h
815 07-07-2019 20:15:00 20.1 C 8.34 g/m*3 20.1 C 4.8 km/h
816 07-07-2019 20:20:00 20 C 8.3 g/m*3 20 C 11.3 km/h
817 07-07-2019 20:25:00 19.9 C 8.42 g/m*3 19.9 C 11.3 km/h
818 07-07-2019 20:30:00 19.9 C 8.42 g/m*3 19.9 C 6.4 km/h
819 07-07-2019 20:35:00 19.9 C 8.25 g/m*3 19.9 C 8.1 km/h
820 07-07-2019 20:40:00 19.9 C 8.25 g/m*3 19.9 C 8.1 km/h
821 07-07-2019 20:45:00 20 C 8.3 g/m*3 20 C 12.9 km/h
822 07-07-2019 20:50:00 19.9 C 8.25 g/m*3 19.9 C 11.3 km/h
823 07-07-2019 20:55:00 19.7 C 8.32 g/m*3 19.7 C 11.3 km/h
824 07-07-2019 21:00:00 19.5 C 8.22 g/m*3 19.5 C 12.9 km/h
825 07-07-2019 21:05:00 19.3 C 8.29 g/m*3 19.3 C 6.4 km/h
Sensor: Nr:Datum:Temp:Abs-Feuchte:Windchill:Wind:
Aussen-T/F 826 07-07-2019 21:10:00 19.2 C 8.24 g/m*3 19.2 C 4.8 km/h
827 07-07-2019 21:15:00 19.1 C 8.36 g/m*3 19.1 C 3.2 km/h
828 07-07-2019 21:20:00 18.9 C 8.26 g/m*3 18.9 C 6.4 km/h
829 07-07-2019 21:25:00 18.8 C 8.37 g/m*3 18.8 C 4.8 km/h
830 07-07-2019 21:30:00 18.6 C 8.28 g/m*3 18.6 C 6.4 km/h
831 07-07-2019 21:35:00 18.4 C 8.34 g/m*3 18.4 C 6.4 km/h
832 07-07-2019 21:40:00 18.3 C 8.29 g/m*3 18.3 C 4.8 km/h
833 07-07-2019 21:45:00 18.1 C 8.34 g/m*3 18.1 C 3.2 km/h
834 07-07-2019 21:50:00 17.9 C 8.7 g/m*3 17.9 C 3.2 km/h
835 07-07-2019 21:55:00 17.7 C 8.9 g/m*3 17.7 C 0 km/h
836 07-07-2019 22:00:00 17.3 C 8.69 g/m*3 17.3 C 0 km/h
837 07-07-2019 22:05:00 16.8 C 8.72 g/m*3 16.8 C 0 km/h
838 07-07-2019 22:10:00 16.4 C 8.79 g/m*3 16.4 C 0 km/h
839 07-07-2019 22:15:00 16.1 C 8.91 g/m*3 16.1 C 0 km/h
840 07-07-2019 22:20:00 15.8 C 8.75 g/m*3 15.8 C 0 km/h
841 07-07-2019 22:25:00 15.7 C 8.83 g/m*3 15.7 C 0 km/h
842 07-07-2019 22:30:00 15.4 C 8.93 g/m*3 15.4 C 0 km/h
843 07-07-2019 22:35:00 15.2 C 8.83 g/m*3 15.2 C 0 km/h
844 07-07-2019 22:40:00 15 C 8.85 g/m*3 15 C 0 km/h
845 07-07-2019 22:45:00 14.8 C 8.87 g/m*3 14.8 C 0 km/h
846 07-07-2019 22:50:00 14.7 C 8.81 g/m*3 14.7 C 0 km/h
847 07-07-2019 22:55:00 14.5 C 8.83 g/m*3 14.5 C 0 km/h
848 07-07-2019 23:00:00 14.4 C 8.78 g/m*3 14.4 C 1.6 km/h
849 07-07-2019 23:05:00 14.3 C 8.85 g/m*3 14.3 C 1.6 km/h
850 07-07-2019 23:10:00 14.2 C 8.79 g/m*3 14.2 C 1.6 km/h
Sensor: Nr:Datum:Temp:Abs-Feuchte:Windchill:Wind:
Aussen-T/F 851 07-07-2019 23:15:00 14.1 C 8.74 g/m*3 14.1 C 0 km/h
852 07-07-2019 23:20:00 14 C 8.93 g/m*3 14 C 0 km/h
853 07-07-2019 23:25:00 13.9 C 8.87 g/m*3 13.9 C 0 km/h
854 07-07-2019 23:30:00 13.8 C 8.82 g/m*3 13.8 C 0 km/h
855 07-07-2019 23:35:00 13.7 C 8.88 g/m*3 13.7 C 0 km/h
856 07-07-2019 23:40:00 13.6 C 8.83 g/m*3 13.6 C 0 km/h
857 07-07-2019 23:45:00 13.5 C 8.89 g/m*3 13.5 C 0 km/h
858 07-07-2019 23:50:00 13.4 C 8.83 g/m*3 13.4 C 0 km/h
859 07-07-2019 23:55:00 13.3 C 8.78 g/m*3 13.3 C 0 km/h
860 08-07-2019 00:00:00 13.2 C 8.73 g/m*3 13.2 C 0 km/h
861 08-07-2019 00:05:00 13.2 C 8.84 g/m*3 13.2 C 0 km/h
862 08-07-2019 00:10:00 13.1 C 8.79 g/m*3 13.1 C 0 km/h
863 08-07-2019 00:15:00 13 C 8.73 g/m*3 13 C 0 km/h
864 08-07-2019 00:20:00 12.9 C 8.68 g/m*3 12.9 C 1.6 km/h
865 08-07-2019 00:25:00 12.9 C 8.79 g/m*3 12.9 C 1.6 km/h
866 08-07-2019 00:30:00 12.8 C 8.74 g/m*3 12.8 C 0 km/h
867 08-07-2019 00:35:00 12.8 C 8.74 g/m*3 12.8 C 0 km/h
868 08-07-2019 00:40:00 12.7 C 8.68 g/m*3 12.7 C 0 km/h
869 08-07-2019 00:45:00 12.7 C 8.68 g/m*3 12.7 C 0 km/h
870 08-07-2019 00:50:00 12.6 C 8.63 g/m*3 12.6 C 0 km/h
871 08-07-2019 00:55:00 12.6 C 8.63 g/m*3 12.6 C 0 km/h
872 08-07-2019 01:00:00 12.5 C 8.69 g/m*3 12.5 C 0 km/h
873 08-07-2019 01:05:00 12.4 C 8.63 g/m*3 12.4 C 0 km/h
874 08-07-2019 01:10:00 12.3 C 8.69 g/m*3 12.3 C 0 km/h
875 08-07-2019 01:15:00 12.2 C 8.63 g/m*3 12.2 C 0 km/h
Sensor: Nr:Datum:Temp:Abs-Feuchte:Windchill:Wind:
Aussen-T/F 876 08-07-2019 01:20:00 12.1 C 8.69 g/m*3 12.1 C 0 km/h
877 08-07-2019 01:25:00 11.9 C 8.68 g/m*3 11.9 C 0 km/h
878 08-07-2019 01:30:00 11.8 C 8.63 g/m*3 11.8 C 0 km/h
879 08-07-2019 01:35:00 11.7 C 8.58 g/m*3 11.7 C 0 km/h
880 08-07-2019 01:40:00 11.6 C 8.52 g/m*3 11.6 C 0 km/h
881 08-07-2019 01:45:00 11.5 C 8.47 g/m*3 11.5 C 0 km/h
882 08-07-2019 01:50:00 11.4 C 8.52 g/m*3 11.4 C 0 km/h
883 08-07-2019 01:55:00 11.3 C 8.47 g/m*3 11.3 C 0 km/h
884 08-07-2019 02:00:00 11.3 C 8.57 g/m*3 11.3 C 0 km/h
885 08-07-2019 02:05:00 11.2 C 8.51 g/m*3 11.2 C 0 km/h
886 08-07-2019 02:10:00 11.1 C 8.36 g/m*3 11.1 C 0 km/h
887 08-07-2019 02:15:00 11 C 8.41 g/m*3 11 C 0 km/h
888 08-07-2019 02:20:00 10.9 C 8.36 g/m*3 10.9 C 0 km/h
889 08-07-2019 02:25:00 10.8 C 8.3 g/m*3 10.8 C 0 km/h
890 08-07-2019 02:30:00 10.9 C 8.36 g/m*3 10.9 C 0 km/h
891 08-07-2019 02:35:00 10.9 C 8.36 g/m*3 10.9 C 0 km/h
892 08-07-2019 02:40:00 11 C 8.41 g/m*3 11 C 0 km/h
893 08-07-2019 02:45:00 11.1 C 8.46 g/m*3 11.1 C 0 km/h
894 08-07-2019 02:50:00 11.2 C 8.41 g/m*3 11.2 C 0 km/h
895 08-07-2019 02:55:00 11.2 C 8.41 g/m*3 11.2 C 0 km/h
896 08-07-2019 03:00:00 11.1 C 8.36 g/m*3 11.1 C 0 km/h
897 08-07-2019 03:05:00 11.1 C 8.36 g/m*3 11.1 C 0 km/h
898 08-07-2019 03:10:00 11 C 8.21 g/m*3 11 C 0 km/h
899 08-07-2019 03:15:00 11 C 8.31 g/m*3 11 C 0 km/h
900 08-07-2019 03:20:00 10.9 C 8.26 g/m*3 10.9 C 0 km/h
Sensor: Nr:Datum:Temp:Abs-Feuchte:Windchill:Wind:
Aussen-T/F 901 08-07-2019 03:25:00 10.9 C 8.36 g/m*3 10.9 C 0 km/h
902 08-07-2019 03:30:00 10.9 C 8.36 g/m*3 10.9 C 0 km/h
903 08-07-2019 03:35:00 10.8 C 8.3 g/m*3 10.8 C 0 km/h
904 08-07-2019 03:40:00 10.8 C 8.3 g/m*3 10.8 C 1.6 km/h
905 08-07-2019 03:45:00 10.9 C 8.36 g/m*3 10.9 C 1.6 km/h
906 08-07-2019 03:50:00 10.9 C 8.36 g/m*3 10.9 C 0 km/h
907 08-07-2019 03:55:00 11 C 8.41 g/m*3 11 C 0 km/h
908 08-07-2019 04:00:00 11.1 C 8.36 g/m*3 11.1 C 3.2 km/h
909 08-07-2019 04:05:00 11.1 C 8.36 g/m*3 11.1 C 3.2 km/h
910 08-07-2019 04:10:00 11 C 8.31 g/m*3 11 C 0 km/h
911 08-07-2019 04:15:00 10.9 C 8.26 g/m*3 10.9 C 0 km/h
912 08-07-2019 04:20:00 10.9 C 8.36 g/m*3 10.9 C 0 km/h
913 08-07-2019 04:25:00 10.8 C 8.3 g/m*3 10.8 C 0 km/h
914 08-07-2019 04:30:00 10.8 C 8.3 g/m*3 10.8 C 0 km/h
915 08-07-2019 04:35:00 10.7 C 8.25 g/m*3 10.7 C 0 km/h
916 08-07-2019 04:40:00 10.6 C 8.2 g/m*3 10.6 C 0 km/h
917 08-07-2019 04:45:00 10.6 C 8.3 g/m*3 10.6 C 0 km/h
918 08-07-2019 04:50:00 10.5 C 8.24 g/m*3 10.5 C 0 km/h
919 08-07-2019 04:55:00 10.4 C 8.19 g/m*3 10.4 C 0 km/h
920 08-07-2019 05:00:00 10.3 C 8.14 g/m*3 10.3 C 0 km/h
921 08-07-2019 05:05:00 10.2 C 8.18 g/m*3 10.2 C 0 km/h
922 08-07-2019 05:10:00 10.1 C 8.13 g/m*3 10.1 C 0 km/h
923 08-07-2019 05:15:00 10.1 C 8.13 g/m*3 10.1 C 0 km/h
924 08-07-2019 05:20:00 9.9 C 8.03 g/m*3 9.9 C 0 km/h
925 08-07-2019 05:25:00 9.9 C 8.12 g/m*3 9.9 C 0 km/h
Sensor: Nr:Datum:Temp:Abs-Feuchte:Windchill:Wind:
Aussen-T/F 926 08-07-2019 05:30:00 9.8 C 8.07 g/m*3 9.8 C 0 km/h
927 08-07-2019 05:35:00 9.8 C 8.07 g/m*3 9.8 C 0 km/h
928 08-07-2019 05:40:00 9.7 C 8.02 g/m*3 9.7 C 0 km/h
929 08-07-2019 05:45:00 9.7 C 8.11 g/m*3 9.7 C 0 km/h
930 08-07-2019 05:50:00 9.6 C 8.06 g/m*3 9.6 C 0 km/h
931 08-07-2019 05:55:00 9.6 C 8.06 g/m*3 9.6 C 0 km/h
932 08-07-2019 06:00:00 9.5 C 8.01 g/m*3 9.5 C 0 km/h
933 08-07-2019 06:05:00 9.4 C 8.05 g/m*3 9.4 C 0 km/h
934 08-07-2019 06:10:00 9.4 C 8.05 g/m*3 9.4 C 0 km/h
935 08-07-2019 06:15:00 9.5 C 8.1 g/m*3 9.5 C 0 km/h
936 08-07-2019 06:20:00 9.5 C 8.19 g/m*3 9.5 C 0 km/h
937 08-07-2019 06:25:00 9.6 C 8.24 g/m*3 9.6 C 0 km/h
938 08-07-2019 06:30:00 9.6 C 8.24 g/m*3 9.6 C 0 km/h
939 08-07-2019 06:35:00 9.6 C 8.24 g/m*3 9.6 C 0 km/h
940 08-07-2019 06:40:00 9.6 C 8.24 g/m*3 9.6 C 0 km/h
941 08-07-2019 06:45:00 9.6 C 8.24 g/m*3 9.6 C 0 km/h
942 08-07-2019 06:50:00 9.7 C 8.3 g/m*3 9.7 C 0 km/h
943 08-07-2019 06:55:00 9.7 C 8.3 g/m*3 9.7 C 0 km/h
944 08-07-2019 07:00:00 9.7 C 8.39 g/m*3 9.7 C 0 km/h
945 08-07-2019 07:05:00 9.8 C 8.44 g/m*3 9.8 C 0 km/h
946 08-07-2019 07:10:00 9.8 C 8.44 g/m*3 9.8 C 0 km/h
947 08-07-2019 07:15:00 9.8 C 8.44 g/m*3 9.8 C 0 km/h
948 08-07-2019 07:20:00 9.8 C 8.44 g/m*3 9.8 C 0 km/h
949 08-07-2019 07:25:00 9.9 C 8.5 g/m*3 9.9 C 0 km/h
950 08-07-2019 07:30:00 10 C 8.55 g/m*3 10 C 0 km/h
Sensor: Nr:Datum:Temp:Abs-Feuchte:Windchill:Wind:
Aussen-T/F 951 08-07-2019 07:35:00 10.1 C 8.61 g/m*3 10.1 C 0 km/h
952 08-07-2019 07:40:00 10.1 C 8.61 g/m*3 10.1 C 0 km/h
953 08-07-2019 07:45:00 10.2 C 8.66 g/m*3 10.2 C 0 km/h
954 08-07-2019 07:50:00 10.2 C 8.66 g/m*3 10.2 C 0 km/h
955 08-07-2019 07:55:00 10.3 C 8.71 g/m*3 10.3 C 0 km/h
956 08-07-2019 08:00:00 10.4 C 8.77 g/m*3 10.4 C 0 km/h
957 08-07-2019 08:05:00 10.4 C 8.77 g/m*3 10.4 C 0 km/h
958 08-07-2019 08:10:00 10.6 C 8.88 g/m*3 10.6 C 0 km/h
959 08-07-2019 08:15:00 10.7 C 8.94 g/m*3 10.7 C 0 km/h
960 08-07-2019 08:20:00 10.8 C 9.09 g/m*3 10.8 C 0 km/h
961 08-07-2019 08:25:00 10.9 C 9.05 g/m*3 10.9 C 0 km/h
962 08-07-2019 08:30:00 11.2 C 9.12 g/m*3 11.2 C 1.6 km/h
963 08-07-2019 08:35:00 11.4 C 9.24 g/m*3 11.4 C 1.6 km/h
964 08-07-2019 08:40:00 11.7 C 9.41 g/m*3 11.7 C 0 km/h
965 08-07-2019 08:45:00 12 C 9.59 g/m*3 12 C 0 km/h
966 08-07-2019 08:50:00 12.2 C 9.5 g/m*3 12.2 C 0 km/h
967 08-07-2019 08:55:00 12.4 C 9.4 g/m*3 12.4 C 3.2 km/h
968 08-07-2019 09:00:00 12.6 C 9.4 g/m*3 12.6 C 3.2 km/h
969 08-07-2019 09:05:00 12.8 C 9.18 g/m*3 12.8 C 3.2 km/h
970 08-07-2019 09:10:00 13.1 C 9.13 g/m*3 13.1 C 4.8 km/h
971 08-07-2019 09:15:00 13.3 C 9.13 g/m*3 13.3 C 9.7 km/h
972 08-07-2019 09:20:00 13.8 C 9.17 g/m*3 13.8 C 9.7 km/h
973 08-07-2019 09:25:00 14.4 C 9.15 g/m*3 14.4 C 12.9 km/h
974 08-07-2019 09:30:00 14.7 C 9.07 g/m*3 14.7 C 6.4 km/h
975 08-07-2019 09:35:00 14.8 C 8.99 g/m*3 14.8 C 11.3 km/h
Sensor: Nr:Datum:Temp:Abs-Feuchte:Windchill:Wind:
Aussen-T/F 976 08-07-2019 09:40:00 14.9 C 8.92 g/m*3 14.9 C 4.8 km/h
977 08-07-2019 09:45:00 15.1 C 8.77 g/m*3 15.1 C 6.4 km/h
978 08-07-2019 09:50:00 15.3 C 8.36 g/m*3 15.3 C 11.3 km/h
979 08-07-2019 09:55:00 15.4 C 8.41 g/m*3 15.4 C 17.7 km/h
980 08-07-2019 10:00:00 15.6 C 8.11 g/m*3 15.6 C 11.3 km/h
981 08-07-2019 10:05:00 15.6 C 8.11 g/m*3 15.6 C 8.1 km/h
982 08-07-2019 10:10:00 15.7 C 8.16 g/m*3 15.7 C 6.4 km/h
983 08-07-2019 10:15:00 15.7 C 8.16 g/m*3 15.7 C 8.1 km/h
984 08-07-2019 10:20:00 15.7 C 8.3 g/m*3 15.7 C 9.7 km/h
985 08-07-2019 10:25:00 15.7 C 8.43 g/m*3 15.7 C 12.9 km/h
986 08-07-2019 10:30:00 15.6 C 8.51 g/m*3 15.6 C 9.7 km/h
987 08-07-2019 10:35:00 15.6 C 8.51 g/m*3 15.6 C 9.7 km/h
988 08-07-2019 10:40:00 15.6 C 8.51 g/m*3 15.6 C 11.3 km/h
989 08-07-2019 10:45:00 15.6 C 8.51 g/m*3 15.6 C 4.8 km/h
990 08-07-2019 10:50:00 15.7 C 8.56 g/m*3 15.7 C 9.7 km/h
991 08-07-2019 10:55:00 15.8 C 8.48 g/m*3 15.8 C 9.7 km/h
992 08-07-2019 11:00:00 15.8 C 8.35 g/m*3 15.8 C 11.3 km/h
993 08-07-2019 11:05:00 15.9 C 8.4 g/m*3 15.9 C 8.1 km/h
994 08-07-2019 11:10:00 16.1 C 8.64 g/m*3 16.1 C 11.3 km/h
995 08-07-2019 11:15:00 16.3 C 8.88 g/m*3 16.3 C 8.1 km/h
996 08-07-2019 11:20:00 16.4 C 8.79 g/m*3 16.4 C 9.7 km/h
997 08-07-2019 11:25:00 16.3 C 8.46 g/m*3 16.3 C 11.3 km/h
998 08-07-2019 11:30:00 16.2 C 8.41 g/m*3 16.2 C 9.7 km/h
999 08-07-2019 11:35:00 16.2 C 8.55 g/m*3 16.2 C 12.9 km/h
1000 08-07-2019 11:40:00 16.1 C 8.36 g/m*3 16.1 C 9.7 km/h
Sensor: Nr:Datum:Temp:Abs-Feuchte:Windchill:Wind:
Aussen-T/F 1001 08-07-2019 11:45:00 16.1 C 8.36 g/m*3 16.1 C 11.3 km/h
1002 08-07-2019 11:50:00 16.1 C 8.5 g/m*3 16.1 C 9.7 km/h
1003 08-07-2019 11:55:00 16.2 C 8.27 g/m*3 16.2 C 11.3 km/h
1004 08-07-2019 12:00:00 16.3 C 8.19 g/m*3 16.3 C 12.9 km/h
1005 08-07-2019 12:05:00 16.4 C 8.1 g/m*3 16.4 C 14.5 km/h
1006 08-07-2019 12:10:00 16.5 C 8.43 g/m*3 16.5 C 16.1 km/h
1007 08-07-2019 12:15:00 16.6 C 8.48 g/m*3 16.6 C 12.9 km/h
1008 08-07-2019 12:20:00 16.7 C 8.67 g/m*3 16.7 C 8.1 km/h
1009 08-07-2019 12:25:00 16.7 C 8.53 g/m*3 16.7 C 9.7 km/h
1010 08-07-2019 12:30:00 16.8 C 8.58 g/m*3 16.8 C 9.7 km/h
1011 08-07-2019 12:35:00 16.9 C 8.63 g/m*3 16.9 C 11.3 km/h
1012 08-07-2019 12:40:00 16.9 C 8.49 g/m*3 16.9 C 9.7 km/h
1013 08-07-2019 12:45:00 16.8 C 8.44 g/m*3 16.8 C 9.7 km/h
1014 08-07-2019 12:50:00 16.8 C 8.44 g/m*3 16.8 C 12.9 km/h
1015 08-07-2019 12:55:00 16.8 C 8.58 g/m*3 16.8 C 9.7 km/h
1016 08-07-2019 13:00:00 16.8 C 8.58 g/m*3 16.8 C 9.7 km/h
1017 08-07-2019 13:05:00 16.9 C 8.49 g/m*3 16.9 C 12.9 km/h
1018 08-07-2019 13:10:00 17.1 C 8.59 g/m*3 17.1 C 9.7 km/h
1019 08-07-2019 13:15:00 17.1 C 8.3 g/m*3 17.1 C 8.1 km/h
1020 08-07-2019 13:20:00 17 C 8.39 g/m*3 17 C 9.7 km/h
1021 08-07-2019 13:25:00 17 C 8.39 g/m*3 17 C 11.3 km/h
1022 08-07-2019 13:30:00 17.1 C 8.44 g/m*3 17.1 C 9.7 km/h
1023 08-07-2019 13:35:00 17.2 C 8.35 g/m*3 17.2 C 9.7 km/h
1024 08-07-2019 13:40:00 17.2 C 8.35 g/m*3 17.2 C 11.3 km/h
1025 08-07-2019 13:45:00 17.1 C 8.44 g/m*3 17.1 C 9.7 km/h
Sensor: Nr:Datum:Temp:Abs-Feuchte:Windchill:Wind:
Aussen-T/F 1026 08-07-2019 13:50:00 17.1 C 8.44 g/m*3 17.1 C 8.1 km/h
1027 08-07-2019 13:55:00 17.1 C 8.59 g/m*3 17.1 C 6.4 km/h
1028 08-07-2019 14:00:00 17.1 C 8.59 g/m*3 17.1 C 8.1 km/h
1029 08-07-2019 14:05:00 17.2 C 8.35 g/m*3 17.2 C 9.7 km/h
1030 08-07-2019 14:10:00 17.2 C 8.49 g/m*3 17.2 C 12.9 km/h
1031 08-07-2019 14:15:00 17.3 C 8.4 g/m*3 17.3 C 4.8 km/h
1032 08-07-2019 14:20:00 17.5 C 8.65 g/m*3 17.5 C 8.1 km/h
1033 08-07-2019 14:25:00 17.6 C 8.55 g/m*3 17.6 C 6.4 km/h
1034 08-07-2019 14:30:00 17.6 C 8.55 g/m*3 17.6 C 4.8 km/h
1035 08-07-2019 14:35:00 17.4 C 8.45 g/m*3 17.4 C 4.8 km/h
1036 08-07-2019 14:40:00 17.3 C 8.25 g/m*3 17.3 C 11.3 km/h
1037 08-07-2019 14:45:00 17.3 C 8.54 g/m*3 17.3 C 9.7 km/h
1038 08-07-2019 14:50:00 17.2 C 8.64 g/m*3 17.2 C 8.1 km/h
1039 08-07-2019 14:55:00 17.3 C 8.69 g/m*3 17.3 C 11.3 km/h
1040 08-07-2019 15:00:00 17.2 C 8.64 g/m*3 17.2 C 9.7 km/h
1041 08-07-2019 15:05:00 17.2 C 8.64 g/m*3 17.2 C 9.7 km/h
1042 08-07-2019 15:10:00 17.2 C 8.64 g/m*3 17.2 C 9.7 km/h
1043 08-07-2019 15:15:00 17.3 C 8.84 g/m*3 17.3 C 8.1 km/h
1044 08-07-2019 15:20:00 17.5 C 8.8 g/m*3 17.5 C 8.1 km/h
1045 08-07-2019 15:25:00 17.7 C 8.75 g/m*3 17.7 C 12.9 km/h
1046 08-07-2019 15:30:00 17.7 C 8.6 g/m*3 17.7 C 16.1 km/h
1047 08-07-2019 15:35:00 17.7 C 8.6 g/m*3 17.7 C 11.3 km/h
1048 08-07-2019 15:40:00 17.6 C 8.55 g/m*3 17.6 C 8.1 km/h
1049 08-07-2019 15:45:00 17.6 C 8.55 g/m*3 17.6 C 9.7 km/h
1050 08-07-2019 15:50:00 17.6 C 8.4 g/m*3 17.6 C 11.3 km/h
Sensor: Nr:Datum:Temp:Abs-Feuchte:Windchill:Wind:
Aussen-T/F 1051 08-07-2019 15:55:00 17.6 C 8.4 g/m*3 17.6 C 9.7 km/h
1052 08-07-2019 16:00:00 17.6 C 8.4 g/m*3 17.6 C 4.8 km/h
1053 08-07-2019 16:05:00 17.7 C 8.75 g/m*3 17.7 C 8.1 km/h
1054 08-07-2019 16:10:00 17.8 C 8.8 g/m*3 17.8 C 12.9 km/h
1055 08-07-2019 16:15:00 17.9 C 8.86 g/m*3 17.9 C 9.7 km/h
1056 08-07-2019 16:20:00 17.9 C 8.86 g/m*3 17.9 C 11.3 km/h
1057 08-07-2019 16:25:00 18 C 8.75 g/m*3 18 C 11.3 km/h
1058 08-07-2019 16:30:00 18 C 8.75 g/m*3 18 C 11.3 km/h
1059 08-07-2019 16:35:00 18.2 C 8.86 g/m*3 18.2 C 9.7 km/h
1060 08-07-2019 16:40:00 18.4 C 8.97 g/m*3 18.4 C 11.3 km/h
1061 08-07-2019 16:45:00 18.3 C 8.6 g/m*3 18.3 C 8.1 km/h
1062 08-07-2019 16:50:00 18.3 C 8.76 g/m*3 18.3 C 9.7 km/h
1063 08-07-2019 16:55:00 18.2 C 8.86 g/m*3 18.2 C 9.7 km/h
1064 08-07-2019 17:00:00 18.2 C 8.7 g/m*3 18.2 C 9.7 km/h
1065 08-07-2019 17:05:00 18.2 C 8.86 g/m*3 18.2 C 11.3 km/h
1066 08-07-2019 17:10:00 18.2 C 8.7 g/m*3 18.2 C 11.3 km/h
1067 08-07-2019 17:15:00 18.2 C 8.86 g/m*3 18.2 C 8.1 km/h
1068 08-07-2019 17:20:00 18.2 C 8.86 g/m*3 18.2 C 8.1 km/h
1069 08-07-2019 17:25:00 18.2 C 8.86 g/m*3 18.2 C 8.1 km/h
1070 08-07-2019 17:30:00 18.2 C 8.86 g/m*3 18.2 C 8.1 km/h
1071 08-07-2019 17:35:00 18.1 C 8.81 g/m*3 18.1 C 19.3 km/h
1072 08-07-2019 17:40:00 18 C 8.91 g/m*3 18 C 11.3 km/h
1073 08-07-2019 17:45:00 18.1 C 9.27 g/m*3 18.1 C 8.1 km/h
1074 08-07-2019 17:50:00 18.2 C 8.86 g/m*3 18.2 C 9.7 km/h
1075 08-07-2019 17:55:00 18.2 C 8.86 g/m*3 18.2 C 11.3 km/h
Sensor: Nr:Datum:Temp:Abs-Feuchte:Windchill:Wind:
Aussen-T/F 1076 08-07-2019 18:00:00 18.2 C 8.7 g/m*3 18.2 C 11.3 km/h
1077 08-07-2019 18:05:00 18.2 C 8.55 g/m*3 18.2 C 9.7 km/h
1078 08-07-2019 18:10:00 18.2 C 8.86 g/m*3 18.2 C 6.4 km/h
1079 08-07-2019 18:15:00 18.2 C 8.7 g/m*3 18.2 C 6.4 km/h
1080 08-07-2019 18:20:00 18.2 C 8.86 g/m*3 18.2 C 11.3 km/h
1081 08-07-2019 18:25:00 18.1 C 8.96 g/m*3 18.1 C 11.3 km/h
1082 08-07-2019 18:30:00 18 C 8.91 g/m*3 18 C 8.1 km/h
1083 08-07-2019 18:35:00 17.9 C 8.86 g/m*3 17.9 C 9.7 km/h
1084 08-07-2019 18:40:00 17.9 C 8.86 g/m*3 17.9 C 9.7 km/h
1085 08-07-2019 18:45:00 17.8 C 8.8 g/m*3 17.8 C 9.7 km/h
1086 08-07-2019 18:50:00 17.9 C 8.86 g/m*3 17.9 C 9.7 km/h
1087 08-07-2019 18:55:00 17.9 C 8.86 g/m*3 17.9 C 12.9 km/h
1088 08-07-2019 19:00:00 17.8 C 8.8 g/m*3 17.8 C 11.3 km/h
1089 08-07-2019 19:05:00 17.8 C 8.65 g/m*3 17.8 C 8.1 km/h
1090 08-07-2019 19:10:00 17.7 C 8.6 g/m*3 17.7 C 8.1 km/h
1091 08-07-2019 19:15:00 17.6 C 8.7 g/m*3 17.6 C 8.1 km/h
1092 08-07-2019 19:20:00 17.6 C 8.7 g/m*3 17.6 C 4.8 km/h
1093 08-07-2019 19:25:00 17.6 C 8.7 g/m*3 17.6 C 8.1 km/h
1094 08-07-2019 19:30:00 17.7 C 8.75 g/m*3 17.7 C 6.4 km/h
1095 08-07-2019 19:35:00 17.8 C 8.8 g/m*3 17.8 C 4.8 km/h
1096 08-07-2019 19:40:00 17.8 C 8.8 g/m*3 17.8 C 9.7 km/h
1097 08-07-2019 19:45:00 17.9 C 9.01 g/m*3 17.9 C 8.1 km/h
1098 08-07-2019 19:50:00 17.9 C 9.01 g/m*3 17.9 C 8.1 km/h
1099 08-07-2019 19:55:00 17.9 C 9.01 g/m*3 17.9 C 9.7 km/h
1100 08-07-2019 20:00:00 17.9 C 9.01 g/m*3 17.9 C 6.4 km/h
Sensor: Nr:Datum:Temp:Abs-Feuchte:Windchill:Wind:
Aussen-T/F 1101 08-07-2019 20:05:00 18 C 8.75 g/m*3 18 C 6.4 km/h
1102 08-07-2019 20:10:00 18.1 C 8.81 g/m*3 18.1 C 6.4 km/h
1103 08-07-2019 20:15:00 18.1 C 8.81 g/m*3 18.1 C 8.1 km/h
1104 08-07-2019 20:20:00 17.9 C 8.86 g/m*3 17.9 C 8.1 km/h
1105 08-07-2019 20:25:00 17.8 C 8.8 g/m*3 17.8 C 3.2 km/h
1106 08-07-2019 20:30:00 17.6 C 8.85 g/m*3 17.6 C 3.2 km/h
1107 08-07-2019 20:35:00 17.4 C 8.74 g/m*3 17.4 C 6.4 km/h
1108 08-07-2019 20:40:00 17.3 C 8.69 g/m*3 17.3 C 6.4 km/h
1109 08-07-2019 20:45:00 17.4 C 8.89 g/m*3 17.4 C 8.1 km/h
1110 08-07-2019 20:50:00 17.4 C 8.74 g/m*3 17.4 C 6.4 km/h
1111 08-07-2019 20:55:00 17.4 C 8.89 g/m*3 17.4 C 3.2 km/h
1112 08-07-2019 21:00:00 17.3 C 8.84 g/m*3 17.3 C 6.4 km/h
1113 08-07-2019 21:05:00 17.2 C 8.93 g/m*3 17.2 C 6.4 km/h
1114 08-07-2019 21:10:00 17.1 C 8.88 g/m*3 17.1 C 3.2 km/h
1115 08-07-2019 21:15:00 16.9 C 8.92 g/m*3 16.9 C 4.8 km/h
1116 08-07-2019 21:20:00 16.8 C 8.86 g/m*3 16.8 C 3.2 km/h
1117 08-07-2019 21:25:00 16.7 C 9.1 g/m*3 16.7 C 4.8 km/h
1118 08-07-2019 21:30:00 16.4 C 8.93 g/m*3 16.4 C 4.8 km/h
1119 08-07-2019 21:35:00 16.1 C 9.18 g/m*3 16.1 C 0 km/h
1120 08-07-2019 21:40:00 15.7 C 9.1 g/m*3 15.7 C 0 km/h
1121 08-07-2019 21:45:00 15.3 C 9.01 g/m*3 15.3 C 0 km/h
1122 08-07-2019 21:50:00 15 C 9.1 g/m*3 15 C 0 km/h
1123 08-07-2019 21:55:00 14.7 C 9.07 g/m*3 14.7 C 0 km/h
1124 08-07-2019 22:00:00 14.4 C 9.02 g/m*3 14.4 C 0 km/h
1125 08-07-2019 22:05:00 14.2 C 8.91 g/m*3 14.2 C 0 km/h
Sensor: Nr:Datum:Temp:Abs-Feuchte:Windchill:Wind:
Aussen-T/F 1126 08-07-2019 22:10:00 14.1 C 8.98 g/m*3 14.1 C 0 km/h
1127 08-07-2019 22:15:00 13.9 C 8.87 g/m*3 13.9 C 0 km/h
1128 08-07-2019 22:20:00 13.8 C 8.94 g/m*3 13.8 C 0 km/h
1129 08-07-2019 22:25:00 13.8 C 8.94 g/m*3 13.8 C 0 km/h
1130 08-07-2019 22:30:00 13.8 C 9.06 g/m*3 13.8 C 0 km/h
1131 08-07-2019 22:35:00 13.8 C 9.06 g/m*3 13.8 C 0 km/h
1132 08-07-2019 22:40:00 13.9 C 9.11 g/m*3 13.9 C 0 km/h
1133 08-07-2019 22:45:00 13.9 C 9.11 g/m*3 13.9 C 0 km/h
1134 08-07-2019 22:50:00 14 C 9.05 g/m*3 14 C 0 km/h
1135 08-07-2019 22:55:00 14.1 C 9.1 g/m*3 14.1 C 0 km/h
1136 08-07-2019 23:00:00 14.2 C 9.16 g/m*3 14.2 C 0 km/h
1137 08-07-2019 23:05:00 14.3 C 9.34 g/m*3 14.3 C 0 km/h
1138 08-07-2019 23:10:00 14.3 C 9.21 g/m*3 14.3 C 0 km/h
1139 08-07-2019 23:15:00 14.3 C 9.21 g/m*3 14.3 C 0 km/h
1140 08-07-2019 23:20:00 14.3 C 9.21 g/m*3 14.3 C 0 km/h
1141 08-07-2019 23:25:00 14.3 C 9.21 g/m*3 14.3 C 0 km/h
1142 08-07-2019 23:30:00 14.2 C 9.16 g/m*3 14.2 C 3.2 km/h
1143 08-07-2019 23:35:00 14.1 C 9.1 g/m*3 14.1 C 1.6 km/h
1144 08-07-2019 23:40:00 14 C 9.05 g/m*3 14 C 0 km/h
1145 08-07-2019 23:45:00 13.9 C 9.11 g/m*3 13.9 C 1.6 km/h
1146 08-07-2019 23:50:00 13.8 C 9.06 g/m*3 13.8 C 0 km/h
1147 08-07-2019 23:55:00 13.7 C 9.12 g/m*3 13.7 C 0 km/h
1148 09-07-2019 00:00:00 13.6 C 9.06 g/m*3 13.6 C 0 km/h
1149 09-07-2019 00:05:00 13.5 C 9.12 g/m*3 13.5 C 0 km/h
1150 09-07-2019 00:10:00 13.4 C 9.07 g/m*3 13.4 C 0 km/h
Sensor: Nr:Datum:Temp:Abs-Feuchte:Windchill:Wind:
Aussen-T/F 1151 09-07-2019 00:15:00 13.3 C 9.01 g/m*3 13.3 C 0 km/h
1152 09-07-2019 00:20:00 13.3 C 9.13 g/m*3 13.3 C 1.6 km/h
1153 09-07-2019 00:25:00 13.2 C 9.07 g/m*3 13.2 C 0 km/h
1154 09-07-2019 00:30:00 13.2 C 9.19 g/m*3 13.2 C 0 km/h
1155 09-07-2019 00:35:00 13.2 C 9.19 g/m*3 13.2 C 0 km/h
1156 09-07-2019 00:40:00 13.2 C 9.3 g/m*3 13.2 C 0 km/h
1157 09-07-2019 00:45:00 13.2 C 9.3 g/m*3 13.2 C 0 km/h
1158 09-07-2019 00:50:00 13.2 C 9.3 g/m*3 13.2 C 0 km/h
1159 09-07-2019 00:55:00 13.2 C 9.19 g/m*3 13.2 C 0 km/h
1160 09-07-2019 01:00:00 13.1 C 9.13 g/m*3 13.1 C 0 km/h
1161 09-07-2019 01:05:00 13 C 9.07 g/m*3 13 C 0 km/h
1162 09-07-2019 01:10:00 12.9 C 9.02 g/m*3 12.9 C 0 km/h
1163 09-07-2019 01:15:00 12.8 C 9.07 g/m*3 12.8 C 0 km/h
1164 09-07-2019 01:20:00 12.7 C 9.02 g/m*3 12.7 C 0 km/h
1165 09-07-2019 01:25:00 12.7 C 9.02 g/m*3 12.7 C 0 km/h
1166 09-07-2019 01:30:00 12.7 C 9.13 g/m*3 12.7 C 0 km/h
1167 09-07-2019 01:35:00 12.6 C 9.07 g/m*3 12.6 C 0 km/h
1168 09-07-2019 01:40:00 12.6 C 9.07 g/m*3 12.6 C 0 km/h
1169 09-07-2019 01:45:00 12.5 C 9.02 g/m*3 12.5 C 0 km/h
1170 09-07-2019 01:50:00 12.4 C 9.07 g/m*3 12.4 C 0 km/h
1171 09-07-2019 01:55:00 12.4 C 9.07 g/m*3 12.4 C 0 km/h
1172 09-07-2019 02:00:00 12.3 C 9.01 g/m*3 12.3 C 0 km/h
1173 09-07-2019 02:05:00 12.3 C 9.01 g/m*3 12.3 C 0 km/h
1174 09-07-2019 02:10:00 12.2 C 8.96 g/m*3 12.2 C 0 km/h
1175 09-07-2019 02:15:00 12.2 C 8.96 g/m*3 12.2 C 0 km/h
Sensor: Nr:Datum:Temp:Abs-Feuchte:Windchill:Wind:
Aussen-T/F 1176 09-07-2019 02:20:00 12 C 8.85 g/m*3 12 C 0 km/h
1177 09-07-2019 02:25:00 11.9 C 8.79 g/m*3 11.9 C 0 km/h
1178 09-07-2019 02:30:00 11.8 C 8.84 g/m*3 11.8 C 0 km/h
1179 09-07-2019 02:35:00 11.8 C 8.84 g/m*3 11.8 C 0 km/h
1180 09-07-2019 02:40:00 11.8 C 8.95 g/m*3 11.8 C 0 km/h
1181 09-07-2019 02:45:00 11.6 C 8.73 g/m*3 11.6 C 0 km/h
1182 09-07-2019 02:50:00 11.4 C 8.72 g/m*3 11.4 C 0 km/h
1183 09-07-2019 02:55:00 11.3 C 8.77 g/m*3 11.3 C 0 km/h
1184 09-07-2019 03:00:00 11.3 C 8.77 g/m*3 11.3 C 0 km/h
1185 09-07-2019 03:05:00 11.3 C 8.87 g/m*3 11.3 C 0 km/h
1186 09-07-2019 03:10:00 11.3 C 8.87 g/m*3 11.3 C 0 km/h
1187 09-07-2019 03:15:00 11.2 C 8.82 g/m*3 11.2 C 0 km/h
1188 09-07-2019 03:20:00 11.2 C 8.82 g/m*3 11.2 C 0 km/h
1189 09-07-2019 03:25:00 11.2 C 8.82 g/m*3 11.2 C 0 km/h
1190 09-07-2019 03:30:00 11.1 C 8.76 g/m*3 11.1 C 0 km/h
1191 09-07-2019 03:35:00 11.1 C 8.76 g/m*3 11.1 C 0 km/h
1192 09-07-2019 03:40:00 11 C 8.71 g/m*3 11 C 0 km/h
1193 09-07-2019 03:45:00 10.9 C 8.75 g/m*3 10.9 C 0 km/h
1194 09-07-2019 03:50:00 10.9 C 8.75 g/m*3 10.9 C 0 km/h
1195 09-07-2019 03:55:00 10.9 C 8.75 g/m*3 10.9 C 0 km/h
1196 09-07-2019 04:00:00 10.8 C 8.7 g/m*3 10.8 C 0 km/h
1197 09-07-2019 04:05:00 10.8 C 8.7 g/m*3 10.8 C 0 km/h
1198 09-07-2019 04:10:00 10.7 C 8.64 g/m*3 10.7 C 0 km/h
1199 09-07-2019 04:15:00 10.7 C 8.64 g/m*3 10.7 C 0 km/h
1200 09-07-2019 04:20:00 10.6 C 8.59 g/m*3 10.6 C 0 km/h
Sensor: Nr:Datum:Temp:Abs-Feuchte:Windchill:Wind:
Aussen-T/F 1201 09-07-2019 04:25:00 10.5 C 8.53 g/m*3 10.5 C 0 km/h
1202 09-07-2019 04:30:00 10.4 C 8.48 g/m*3 10.4 C 0 km/h
1203 09-07-2019 04:35:00 10.3 C 8.43 g/m*3 10.3 C 0 km/h
1204 09-07-2019 04:40:00 10.2 C 8.47 g/m*3 10.2 C 0 km/h
1205 09-07-2019 04:45:00 10.2 C 8.47 g/m*3 10.2 C 0 km/h
1206 09-07-2019 04:50:00 10.1 C 8.42 g/m*3 10.1 C 0 km/h
1207 09-07-2019 04:55:00 9.9 C 8.31 g/m*3 9.9 C 0 km/h
1208 09-07-2019 05:00:00 9.9 C 8.31 g/m*3 9.9 C 0 km/h
1209 09-07-2019 05:05:00 9.8 C 8.35 g/m*3 9.8 C 0 km/h
1210 09-07-2019 05:10:00 9.9 C 8.4 g/m*3 9.9 C 0 km/h
1211 09-07-2019 05:15:00 9.9 C 8.4 g/m*3 9.9 C 0 km/h
1212 09-07-2019 05:20:00 9.9 C 8.4 g/m*3 9.9 C 0 km/h
1213 09-07-2019 05:25:00 9.8 C 8.35 g/m*3 9.8 C 0 km/h
1214 09-07-2019 05:30:00 9.8 C 8.35 g/m*3 9.8 C 0 km/h
1215 09-07-2019 05:35:00 9.8 C 8.35 g/m*3 9.8 C 0 km/h
1216 09-07-2019 05:40:00 9.8 C 8.35 g/m*3 9.8 C 0 km/h
1217 09-07-2019 05:45:00 9.7 C 8.39 g/m*3 9.7 C 0 km/h
1218 09-07-2019 05:50:00 9.7 C 8.39 g/m*3 9.7 C 0 km/h
1219 09-07-2019 05:55:00 9.7 C 8.39 g/m*3 9.7 C 0 km/h
1220 09-07-2019 06:00:00 9.7 C 8.39 g/m*3 9.7 C 0 km/h
1221 09-07-2019 06:05:00 9.7 C 8.39 g/m*3 9.7 C 0 km/h
1222 09-07-2019 06:10:00 9.7 C 8.39 g/m*3 9.7 C 0 km/h
1223 09-07-2019 06:15:00 9.7 C 8.39 g/m*3 9.7 C 0 km/h
1224 09-07-2019 06:20:00 9.7 C 8.39 g/m*3 9.7 C 0 km/h
1225 09-07-2019 06:25:00 9.7 C 8.39 g/m*3 9.7 C 0 km/h
Sensor: Nr:Datum:Temp:Abs-Feuchte:Windchill:Wind:
Aussen-T/F 1226 09-07-2019 06:30:00 9.7 C 8.39 g/m*3 9.7 C 0 km/h
1227 09-07-2019 06:35:00 9.7 C 8.39 g/m*3 9.7 C 0 km/h
1228 09-07-2019 06:40:00 9.7 C 8.39 g/m*3 9.7 C 0 km/h
1229 09-07-2019 06:45:00 9.7 C 8.48 g/m*3 9.7 C 0 km/h
1230 09-07-2019 06:50:00 9.8 C 8.54 g/m*3 9.8 C 0 km/h
1231 09-07-2019 06:55:00 9.9 C 8.59 g/m*3 9.9 C 0 km/h
1232 09-07-2019 07:00:00 10.1 C 8.7 g/m*3 10.1 C 0 km/h
1233 09-07-2019 07:05:00 10.2 C 8.76 g/m*3 10.2 C 0 km/h
1234 09-07-2019 07:10:00 10.3 C 8.81 g/m*3 10.3 C 0 km/h
1235 09-07-2019 07:15:00 10.4 C 8.87 g/m*3 10.4 C 0 km/h
1236 09-07-2019 07:20:00 10.5 C 8.92 g/m*3 10.5 C 0 km/h
1237 09-07-2019 07:25:00 10.6 C 8.98 g/m*3 10.6 C 0 km/h
1238 09-07-2019 07:30:00 10.8 C 9.09 g/m*3 10.8 C 0 km/h
1239 09-07-2019 07:35:00 11.1 C 9.27 g/m*3 11.1 C 0 km/h
1240 09-07-2019 07:40:00 11.4 C 9.34 g/m*3 11.4 C 3.2 km/h
1241 09-07-2019 07:45:00 11.7 C 9.2 g/m*3 11.7 C 3.2 km/h
1242 09-07-2019 07:50:00 11.8 C 9.16 g/m*3 11.8 C 1.6 km/h
1243 09-07-2019 07:55:00 12.1 C 9.22 g/m*3 12.1 C 1.6 km/h
1244 09-07-2019 08:00:00 12.3 C 9.23 g/m*3 12.3 C 0 km/h
1245 09-07-2019 08:05:00 12.4 C 9.18 g/m*3 12.4 C 1.6 km/h
1246 09-07-2019 08:10:00 12.6 C 9.18 g/m*3 12.6 C 0 km/h
1247 09-07-2019 08:15:00 12.7 C 9.24 g/m*3 12.7 C 0 km/h
1248 09-07-2019 08:20:00 12.8 C 9.18 g/m*3 12.8 C 0 km/h
1249 09-07-2019 08:25:00 12.9 C 9.13 g/m*3 12.9 C 3.2 km/h
1250 09-07-2019 08:30:00 13.1 C 9.24 g/m*3 13.1 C 0 km/h
Sensor: Nr:Datum:Temp:Abs-Feuchte:Windchill:Wind:
Aussen-T/F 1251 09-07-2019 08:35:00 13.2 C 9.19 g/m*3 13.2 C 3.2 km/h
1252 09-07-2019 08:40:00 13.3 C 9.24 g/m*3 13.3 C 3.2 km/h
1253 09-07-2019 08:45:00 13.4 C 9.3 g/m*3 13.4 C 3.2 km/h
1254 09-07-2019 08:50:00 13.5 C 9.24 g/m*3 13.5 C 3.2 km/h
1255 09-07-2019 08:55:00 13.6 C 9.3 g/m*3 13.6 C 1.6 km/h
1256 09-07-2019 09:00:00 13.8 C 9.29 g/m*3 13.8 C 4.8 km/h
1257 09-07-2019 09:05:00 13.9 C 9.35 g/m*3 13.9 C 3.2 km/h
1258 09-07-2019 09:10:00 14 C 9.17 g/m*3 14 C 4.8 km/h
1259 09-07-2019 09:15:00 14 C 9.17 g/m*3 14 C 8.1 km/h
1260 09-07-2019 09:20:00 14 C 9.17 g/m*3 14 C 6.4 km/h
1261 09-07-2019 09:25:00 14 C 9.17 g/m*3 14 C 1.6 km/h
1262 09-07-2019 09:30:00 14.1 C 9.34 g/m*3 14.1 C 1.6 km/h
1263 09-07-2019 09:35:00 14.2 C 9.28 g/m*3 14.2 C 3.2 km/h
1264 09-07-2019 09:40:00 14.4 C 9.27 g/m*3 14.4 C 1.6 km/h
1265 09-07-2019 09:45:00 14.6 C 9.39 g/m*3 14.6 C 4.8 km/h
1266 09-07-2019 09:50:00 14.7 C 9.44 g/m*3 14.7 C 1.6 km/h
1267 09-07-2019 09:55:00 14.7 C 9.07 g/m*3 14.7 C 0 km/h
1268 09-07-2019 10:00:00 14.7 C 9.07 g/m*3 14.7 C 6.4 km/h
1269 09-07-2019 10:05:00 14.7 C 9.07 g/m*3 14.7 C 4.8 km/h
1270 09-07-2019 10:10:00 14.7 C 8.94 g/m*3 14.7 C 4.8 km/h
1271 09-07-2019 10:15:00 14.8 C 8.99 g/m*3 14.8 C 6.4 km/h
1272 09-07-2019 10:20:00 14.8 C 9.12 g/m*3 14.8 C 1.6 km/h
1273 09-07-2019 10:25:00 14.8 C 8.87 g/m*3 14.8 C 4.8 km/h
1274 09-07-2019 10:30:00 14.8 C 8.99 g/m*3 14.8 C 4.8 km/h
1275 09-07-2019 10:35:00 14.9 C 9.18 g/m*3 14.9 C 4.8 km/h
Sensor: Nr:Datum:Temp:Abs-Feuchte:Windchill:Wind:
Aussen-T/F 1276 09-07-2019 10:40:00 14.9 C 8.92 g/m*3 14.9 C 4.8 km/h
1277 09-07-2019 10:45:00 15.1 C 9.03 g/m*3 15.1 C 1.6 km/h
1278 09-07-2019 10:50:00 15.2 C 8.96 g/m*3 15.2 C 1.6 km/h
1279 09-07-2019 10:55:00 15.4 C 8.93 g/m*3 15.4 C 6.4 km/h
1280 09-07-2019 11:00:00 15.6 C 8.78 g/m*3 15.6 C 8.1 km/h
1281 09-07-2019 11:05:00 15.6 C 8.51 g/m*3 15.6 C 6.4 km/h
1282 09-07-2019 11:10:00 15.7 C 8.43 g/m*3 15.7 C 8.1 km/h
1283 09-07-2019 11:15:00 15.8 C 8.21 g/m*3 15.8 C 12.9 km/h
1284 09-07-2019 11:20:00 15.8 C 8.35 g/m*3 15.8 C 8.1 km/h
1285 09-07-2019 11:25:00 15.9 C 8.13 g/m*3 15.9 C 12.9 km/h
1286 09-07-2019 11:30:00 16.1 C 8.09 g/m*3 16.1 C 9.7 km/h
1287 09-07-2019 11:35:00 16.3 C 8.19 g/m*3 16.3 C 6.4 km/h
1288 09-07-2019 11:40:00 16.5 C 8.14 g/m*3 16.5 C 11.3 km/h
1289 09-07-2019 11:45:00 16.6 C 8.05 g/m*3 16.6 C 8.1 km/h
1290 09-07-2019 11:50:00 16.6 C 8.19 g/m*3 16.6 C 14.5 km/h
1291 09-07-2019 11:55:00 16.6 C 8.19 g/m*3 16.6 C 12.9 km/h
1292 09-07-2019 12:00:00 16.6 C 8.19 g/m*3 16.6 C 11.3 km/h
1293 09-07-2019 12:05:00 16.6 C 8.19 g/m*3 16.6 C 8.1 km/h
1294 09-07-2019 12:10:00 16.7 C 8.24 g/m*3 16.7 C 11.3 km/h
1295 09-07-2019 12:15:00 16.8 C 8.01 g/m*3 16.8 C 12.9 km/h
1296 09-07-2019 12:20:00 16.8 C 8.15 g/m*3 16.8 C 9.7 km/h
1297 09-07-2019 12:25:00 16.8 C 8.01 g/m*3 16.8 C 8.1 km/h
1298 09-07-2019 12:30:00 16.9 C 8.2 g/m*3 16.9 C 12.9 km/h
1299 09-07-2019 12:35:00 16.9 C 8.05 g/m*3 16.9 C 11.3 km/h
1300 09-07-2019 12:40:00 16.9 C 8.05 g/m*3 16.9 C 6.4 km/h
Sensor: Nr:Datum:Temp:Abs-Feuchte:Windchill:Wind:
Aussen-T/F 1301 09-07-2019 12:45:00 16.9 C 8.2 g/m*3 16.9 C 1.6 km/h
1302 09-07-2019 12:50:00 17.2 C 8.2 g/m*3 17.2 C 11.3 km/h
1303 09-07-2019 12:55:00 17.3 C 8.1 g/m*3 17.3 C 9.7 km/h
1304 09-07-2019 13:00:00 17.3 C 7.96 g/m*3 17.3 C 9.7 km/h
1305 09-07-2019 13:05:00 17.3 C 7.96 g/m*3 17.3 C 12.9 km/h
1306 09-07-2019 13:10:00 17.2 C 7.91 g/m*3 17.2 C 9.7 km/h
1307 09-07-2019 13:15:00 17.3 C 7.96 g/m*3 17.3 C 9.7 km/h
1308 09-07-2019 13:20:00 17.5 C 7.75 g/m*3 17.5 C 12.9 km/h
1309 09-07-2019 13:25:00 17.7 C 8.15 g/m*3 17.7 C 8.1 km/h
1310 09-07-2019 13:30:00 17.8 C 7.89 g/m*3 17.8 C 12.9 km/h
1311 09-07-2019 13:35:00 17.8 C 8.04 g/m*3 17.8 C 9.7 km/h
1312 09-07-2019 13:40:00 17.9 C 7.79 g/m*3 17.9 C 8.1 km/h
1313 09-07-2019 13:45:00 17.9 C 7.79 g/m*3 17.9 C 11.3 km/h
1314 09-07-2019 13:50:00 18.2 C 7.77 g/m*3 18.2 C 11.3 km/h
1315 09-07-2019 13:55:00 18.3 C 7.82 g/m*3 18.3 C 17.7 km/h
1316 09-07-2019 14:00:00 18.4 C 7.86 g/m*3 18.4 C 12.9 km/h
1317 09-07-2019 14:05:00 18.5 C 7.91 g/m*3 18.5 C 11.3 km/h
1318 09-07-2019 14:10:00 18.4 C 7.86 g/m*3 18.4 C 12.9 km/h
1319 09-07-2019 14:15:00 18.4 C 7.86 g/m*3 18.4 C 12.9 km/h
1320 09-07-2019 14:20:00 18.4 C 7.86 g/m*3 18.4 C 12.9 km/h
1321 09-07-2019 14:25:00 18.4 C 7.86 g/m*3 18.4 C 3.2 km/h
1322 09-07-2019 14:30:00 18.7 C 7.68 g/m*3 18.7 C 11.3 km/h
1323 09-07-2019 14:35:00 18.9 C 7.94 g/m*3 18.9 C 12.9 km/h
1324 09-07-2019 14:40:00 18.9 C 7.78 g/m*3 18.9 C 14.5 km/h
1325 09-07-2019 14:45:00 18.8 C 7.89 g/m*3 18.8 C 12.9 km/h
Sensor: Nr:Datum:Temp:Abs-Feuchte:Windchill:Wind:
Aussen-T/F 1326 09-07-2019 14:50:00 18.7 C 7.68 g/m*3 18.7 C 14.5 km/h
1327 09-07-2019 14:55:00 18.7 C 7.68 g/m*3 18.7 C 8.1 km/h
1328 09-07-2019 15:00:00 18.8 C 7.89 g/m*3 18.8 C 9.7 km/h
1329 09-07-2019 15:05:00 19.2 C 7.91 g/m*3 19.2 C 6.4 km/h
1330 09-07-2019 15:10:00 19.7 C 7.64 g/m*3 19.7 C 20.9 km/h
1331 09-07-2019 15:15:00 19.4 C 7.51 g/m*3 19.4 C 12.9 km/h
1332 09-07-2019 15:20:00 19.3 C 7.63 g/m*3 19.3 C 11.3 km/h
1333 09-07-2019 15:25:00 19.5 C 7.89 g/m*3 19.5 C 12.9 km/h
1334 09-07-2019 15:30:00 19.9 C 8.08 g/m*3 19.9 C 9.7 km/h
1335 09-07-2019 15:35:00 20 C 7.6 g/m*3 20 C 12.9 km/h
1336 09-07-2019 15:40:00 20.1 C 7.82 g/m*3 20.1 C 16.1 km/h
1337 09-07-2019 15:45:00 20.3 C 7.91 g/m*3 20.3 C 12.9 km/h
1338 09-07-2019 15:50:00 20.4 C 7.78 g/m*3 20.4 C 12.9 km/h
1339 09-07-2019 15:55:00 20.2 C 8.04 g/m*3 20.2 C 8.1 km/h
1340 09-07-2019 16:00:00 20.2 C 7.87 g/m*3 20.2 C 12.9 km/h
1341 09-07-2019 16:05:00 20.1 C 7.82 g/m*3 20.1 C 11.3 km/h
1342 09-07-2019 16:10:00 20.3 C 7.74 g/m*3 20.3 C 11.3 km/h
1343 09-07-2019 16:15:00 20.3 C 7.91 g/m*3 20.3 C 12.9 km/h
1344 09-07-2019 16:20:00 20.4 C 7.78 g/m*3 20.4 C 9.7 km/h
1345 09-07-2019 16:25:00 20.3 C 7.74 g/m*3 20.3 C 12.9 km/h
1346 09-07-2019 16:30:00 20 C 7.78 g/m*3 20 C 8.1 km/h
1347 09-07-2019 16:35:00 20.1 C 7.82 g/m*3 20.1 C 8.1 km/h
1348 09-07-2019 16:40:00 20.7 C 7.92 g/m*3 20.7 C 9.7 km/h
1349 09-07-2019 16:45:00 20.9 C 7.65 g/m*3 20.9 C 11.3 km/h
1350 09-07-2019 16:50:00 21.1 C 7.55 g/m*3 21.1 C 9.7 km/h
Sensor: Nr:Datum:Temp:Abs-Feuchte:Windchill:Wind:
Aussen-T/F 1351 09-07-2019 16:55:00 21.3 C 7.64 g/m*3 21.3 C 12.9 km/h
1352 09-07-2019 17:00:00 21.4 C 7.69 g/m*3 21.4 C 8.1 km/h
1353 09-07-2019 17:05:00 21.4 C 7.5 g/m*3 21.4 C 12.9 km/h
1354 09-07-2019 17:10:00 21.3 C 7.46 g/m*3 21.3 C 12.9 km/h
1355 09-07-2019 17:15:00 21.3 C 7.46 g/m*3 21.3 C 11.3 km/h
1356 09-07-2019 17:20:00 21.3 C 7.64 g/m*3 21.3 C 14.5 km/h
1357 09-07-2019 17:25:00 21.7 C 7.63 g/m*3 21.7 C 12.9 km/h
1358 09-07-2019 17:30:00 22 C 7.57 g/m*3 22 C 12.9 km/h
1359 09-07-2019 17:35:00 22 C 7.38 g/m*3 22 C 11.3 km/h
1360 09-07-2019 17:40:00 21.9 C 7.53 g/m*3 21.9 C 11.3 km/h
1361 09-07-2019 17:45:00 21.9 C 7.53 g/m*3 21.9 C 9.7 km/h
1362 09-07-2019 17:50:00 22.3 C 7.5 g/m*3 22.3 C 12.9 km/h
1363 09-07-2019 17:55:00 22.2 C 7.66 g/m*3 22.2 C 17.7 km/h
1364 09-07-2019 18:00:00 21.9 C 7.53 g/m*3 21.9 C 14.5 km/h
1365 09-07-2019 18:05:00 21.7 C 7.25 g/m*3 21.7 C 14.5 km/h
1366 09-07-2019 18:10:00 21.5 C 7.35 g/m*3 21.5 C 11.3 km/h
1367 09-07-2019 18:15:00 21 C 7.33 g/m*3 21 C 11.3 km/h
1368 09-07-2019 18:20:00 20.7 C 7.2 g/m*3 20.7 C 8.1 km/h
1369 09-07-2019 18:25:00 20.4 C 7.08 g/m*3 20.4 C 8.1 km/h
1370 09-07-2019 18:30:00 20.2 C 7.17 g/m*3 20.2 C 12.9 km/h
1371 09-07-2019 18:35:00 20.5 C 7.47 g/m*3 20.5 C 9.7 km/h
1372 09-07-2019 18:40:00 20.9 C 7.29 g/m*3 20.9 C 9.7 km/h
1373 09-07-2019 18:45:00 21.2 C 7.41 g/m*3 21.2 C 16.1 km/h
1374 09-07-2019 18:50:00 21.4 C 7.31 g/m*3 21.4 C 11.3 km/h
1375 09-07-2019 18:55:00 21.4 C 7.31 g/m*3 21.4 C 11.3 km/h
Sensor: Nr:Datum:Temp:Abs-Feuchte:Windchill:Wind:
Aussen-T/F 1376 09-07-2019 19:00:00 21.2 C 7.41 g/m*3 21.2 C 19.3 km/h
1377 09-07-2019 19:05:00 21.1 C 7.37 g/m*3 21.1 C 8.1 km/h
1378 09-07-2019 19:10:00 21.2 C 7.6 g/m*3 21.2 C 11.3 km/h
1379 09-07-2019 19:15:00 21.4 C 7.5 g/m*3 21.4 C 8.1 km/h
1380 09-07-2019 19:20:00 21.5 C 7.35 g/m*3 21.5 C 11.3 km/h
1381 09-07-2019 19:25:00 21.5 C 7.54 g/m*3 21.5 C 8.1 km/h
1382 09-07-2019 19:30:00 21.2 C 7.6 g/m*3 21.2 C 9.7 km/h
1383 09-07-2019 19:35:00 21 C 7.51 g/m*3 21 C 9.7 km/h
1384 09-07-2019 19:40:00 20.8 C 7.42 g/m*3 20.8 C 9.7 km/h
1385 09-07-2019 19:45:00 20.5 C 7.47 g/m*3 20.5 C 8.1 km/h
1386 09-07-2019 19:50:00 20.2 C 7.34 g/m*3 20.2 C 8.1 km/h
1387 09-07-2019 19:55:00 20.2 C 7.34 g/m*3 20.2 C 6.4 km/h
1388 09-07-2019 20:00:00 20.2 C 7.34 g/m*3 20.2 C 6.4 km/h
1389 09-07-2019 20:05:00 19.9 C 7.39 g/m*3 19.9 C 6.4 km/h
1390 09-07-2019 20:10:00 19.8 C 7.52 g/m*3 19.8 C 6.4 km/h
1391 09-07-2019 20:15:00 19.6 C 7.6 g/m*3 19.6 C 1.6 km/h
1392 09-07-2019 20:20:00 19.6 C 7.6 g/m*3 19.6 C 3.2 km/h
1393 09-07-2019 20:25:00 19.5 C 7.89 g/m*3 19.5 C 4.8 km/h
1394 09-07-2019 20:30:00 19.4 C 7.67 g/m*3 19.4 C 4.8 km/h
1395 09-07-2019 20:35:00 19.4 C 7.51 g/m*3 19.4 C 1.6 km/h
1396 09-07-2019 20:40:00 19.4 C 8.01 g/m*3 19.4 C 0 km/h
1397 09-07-2019 20:45:00 19.4 C 8.51 g/m*3 19.4 C 0 km/h
1398 09-07-2019 20:50:00 19.2 C 8.41 g/m*3 19.2 C 1.6 km/h
1399 09-07-2019 20:55:00 18.9 C 8.26 g/m*3 18.9 C 0 km/h
1400 09-07-2019 21:00:00 18.6 C 8.44 g/m*3 18.6 C 0 km/h
Sensor: Nr:Datum:Temp:Abs-Feuchte:Windchill:Wind:
Aussen-T/F 1401 09-07-2019 21:05:00 18.2 C 8.24 g/m*3 18.2 C 0 km/h
1402 09-07-2019 21:10:00 17.8 C 8.2 g/m*3 17.8 C 0 km/h
1403 09-07-2019 21:15:00 17.5 C 8.35 g/m*3 17.5 C 0 km/h
1404 09-07-2019 21:20:00 17.3 C 8.4 g/m*3 17.3 C 0 km/h
1405 09-07-2019 21:25:00 17.1 C 8.44 g/m*3 17.1 C 0 km/h
1406 09-07-2019 21:30:00 16.8 C 8.29 g/m*3 16.8 C 0 km/h
1407 09-07-2019 21:35:00 16.6 C 8.19 g/m*3 16.6 C 0 km/h
1408 09-07-2019 21:40:00 16.4 C 8.1 g/m*3 16.4 C 1.6 km/h
1409 09-07-2019 21:45:00 16.2 C 8.14 g/m*3 16.2 C 0 km/h
1410 09-07-2019 21:50:00 16.1 C 8.09 g/m*3 16.1 C 0 km/h
1411 09-07-2019 21:55:00 15.9 C 7.99 g/m*3 15.9 C 1.6 km/h
1412 09-07-2019 22:00:00 15.7 C 7.89 g/m*3 15.7 C 1.6 km/h
1413 09-07-2019 22:05:00 15.6 C 7.98 g/m*3 15.6 C 1.6 km/h
1414 09-07-2019 22:10:00 15.4 C 7.75 g/m*3 15.4 C 0 km/h
1415 09-07-2019 22:15:00 15.3 C 7.84 g/m*3 15.3 C 0 km/h
1416 09-07-2019 22:20:00 15.2 C 7.79 g/m*3 15.2 C 0 km/h
1417 09-07-2019 22:25:00 15.1 C 8 g/m*3 15.1 C 0 km/h
1418 09-07-2019 22:30:00 14.9 C 8.03 g/m*3 14.9 C 0 km/h
1419 09-07-2019 22:35:00 14.8 C 8.11 g/m*3 14.8 C 0 km/h
1420 09-07-2019 22:40:00 14.6 C 8.13 g/m*3 14.6 C 0 km/h
1421 09-07-2019 22:45:00 14.4 C 8.03 g/m*3 14.4 C 0 km/h
1422 09-07-2019 22:50:00 14.3 C 8.11 g/m*3 14.3 C 0 km/h
1423 09-07-2019 22:55:00 14.1 C 8.13 g/m*3 14.1 C 0 km/h
1424 09-07-2019 23:00:00 13.9 C 8.15 g/m*3 13.9 C 0 km/h
1425 09-07-2019 23:05:00 13.7 C 8.17 g/m*3 13.7 C 0 km/h
Sensor: Nr:Datum:Temp:Abs-Feuchte:Windchill:Wind:
Aussen-T/F 1426 09-07-2019 23:10:00 13.4 C 8.14 g/m*3 13.4 C 0 km/h
1427 09-07-2019 23:15:00 13.3 C 8.2 g/m*3 13.3 C 0 km/h
1428 09-07-2019 23:20:00 13.1 C 8.22 g/m*3 13.1 C 0 km/h
1429 09-07-2019 23:25:00 12.9 C 8.23 g/m*3 12.9 C 0 km/h
1430 09-07-2019 23:30:00 12.8 C 8.18 g/m*3 12.8 C 0 km/h
1431 09-07-2019 23:35:00 12.8 C 8.18 g/m*3 12.8 C 0 km/h
1432 09-07-2019 23:40:00 12.8 C 8.18 g/m*3 12.8 C 0 km/h
1433 09-07-2019 23:45:00 12.9 C 8.23 g/m*3 12.9 C 0 km/h
1434 09-07-2019 23:50:00 12.9 C 8.23 g/m*3 12.9 C 0 km/h
1435 09-07-2019 23:55:00 12.8 C 8.29 g/m*3 12.8 C 0 km/h
1436 10-07-2019 00:00:00 12.7 C 8.24 g/m*3 12.7 C 0 km/h
1437 10-07-2019 00:05:00 12.6 C 8.19 g/m*3 12.6 C 0 km/h
1438 10-07-2019 00:10:00 12.5 C 8.14 g/m*3 12.5 C 0 km/h
1439 10-07-2019 00:15:00 12.4 C 8.09 g/m*3 12.4 C 0 km/h
1440 10-07-2019 00:20:00 12.3 C 8.14 g/m*3 12.3 C 0 km/h
1441 10-07-2019 00:25:00 12.2 C 8.09 g/m*3 12.2 C 0 km/h
1442 10-07-2019 00:30:00 11.9 C 7.94 g/m*3 11.9 C 0 km/h
1443 10-07-2019 00:35:00 11.8 C 7.89 g/m*3 11.8 C 0 km/h
1444 10-07-2019 00:40:00 11.7 C 7.95 g/m*3 11.7 C 0 km/h
1445 10-07-2019 00:45:00 11.6 C 7.9 g/m*3 11.6 C 0 km/h
1446 10-07-2019 00:50:00 11.5 C 7.85 g/m*3 11.5 C 0 km/h
1447 10-07-2019 00:55:00 11.4 C 7.9 g/m*3 11.4 C 0 km/h
1448 10-07-2019 01:00:00 11.3 C 7.85 g/m*3 11.3 C 0 km/h
1449 10-07-2019 01:05:00 11.3 C 7.85 g/m*3 11.3 C 0 km/h
1450 10-07-2019 01:10:00 11.2 C 7.8 g/m*3 11.2 C 0 km/h
Sensor: Nr:Datum:Temp:Abs-Feuchte:Windchill:Wind:
Aussen-T/F 1451 10-07-2019 01:15:00 11.2 C 7.8 g/m*3 11.2 C 0 km/h
1452 10-07-2019 01:20:00 11.2 C 7.91 g/m*3 11.2 C 0 km/h
1453 10-07-2019 01:25:00 11.1 C 7.86 g/m*3 11.1 C 0 km/h
1454 10-07-2019 01:30:00 11 C 7.81 g/m*3 11 C 0 km/h
1455 10-07-2019 01:35:00 10.9 C 7.76 g/m*3 10.9 C 0 km/h
1456 10-07-2019 01:40:00 10.9 C 7.86 g/m*3 10.9 C 0 km/h
1457 10-07-2019 01:45:00 10.8 C 7.81 g/m*3 10.8 C 0 km/h
1458 10-07-2019 01:50:00 10.7 C 7.76 g/m*3 10.7 C 0 km/h
1459 10-07-2019 01:55:00 10.6 C 7.71 g/m*3 10.6 C 0 km/h
1460 10-07-2019 02:00:00 10.6 C 7.71 g/m*3 10.6 C 0 km/h
1461 10-07-2019 02:05:00 10.4 C 7.71 g/m*3 10.4 C 0 km/h
1462 10-07-2019 02:10:00 10.3 C 7.66 g/m*3 10.3 C 0 km/h
1463 10-07-2019 02:15:00 10.3 C 7.66 g/m*3 10.3 C 0 km/h
1464 10-07-2019 02:20:00 10.2 C 7.71 g/m*3 10.2 C 0 km/h
1465 10-07-2019 02:25:00 10.1 C 7.66 g/m*3 10.1 C 0 km/h
1466 10-07-2019 02:30:00 9.9 C 7.56 g/m*3 9.9 C 0 km/h
1467 10-07-2019 02:35:00 9.8 C 7.61 g/m*3 9.8 C 0 km/h
1468 10-07-2019 02:40:00 9.8 C 7.61 g/m*3 9.8 C 0 km/h
1469 10-07-2019 02:45:00 9.7 C 7.56 g/m*3 9.7 C 0 km/h
1470 10-07-2019 02:50:00 9.6 C 7.6 g/m*3 9.6 C 0 km/h
1471 10-07-2019 02:55:00 9.5 C 7.55 g/m*3 9.5 C 0 km/h
1472 10-07-2019 03:00:00 9.4 C 7.51 g/m*3 9.4 C 0 km/h
1473 10-07-2019 03:05:00 9.3 C 7.46 g/m*3 9.3 C 0 km/h
1474 10-07-2019 03:10:00 9.3 C 7.55 g/m*3 9.3 C 0 km/h
1475 10-07-2019 03:15:00 9.2 C 7.5 g/m*3 9.2 C 0 km/h
Sensor: Nr:Datum:Temp:Abs-Feuchte:Windchill:Wind:
Aussen-T/F 1476 10-07-2019 03:20:00 9.1 C 7.45 g/m*3 9.1 C 0 km/h
1477 10-07-2019 03:25:00 9.1 C 7.54 g/m*3 9.1 C 0 km/h
1478 10-07-2019 03:30:00 9 C 7.49 g/m*3 9 C 0 km/h
1479 10-07-2019 03:35:00 8.9 C 7.45 g/m*3 8.9 C 0 km/h
1480 10-07-2019 03:40:00 8.9 C 7.45 g/m*3 8.9 C 0 km/h
1481 10-07-2019 03:45:00 8.8 C 7.49 g/m*3 8.8 C 0 km/h
1482 10-07-2019 03:50:00 8.8 C 7.49 g/m*3 8.8 C 0 km/h
1483 10-07-2019 03:55:00 8.8 C 7.49 g/m*3 8.8 C 0 km/h
1484 10-07-2019 04:00:00 8.7 C 7.44 g/m*3 8.7 C 0 km/h
1485 10-07-2019 04:05:00 8.7 C 7.44 g/m*3 8.7 C 0 km/h
1486 10-07-2019 04:10:00 8.6 C 7.39 g/m*3 8.6 C 0 km/h
1487 10-07-2019 04:15:00 8.5 C 7.34 g/m*3 8.5 C 0 km/h
1488 10-07-2019 04:20:00 8.5 C 7.43 g/m*3 8.5 C 0 km/h
1489 10-07-2019 04:25:00 8.5 C 7.43 g/m*3 8.5 C 0 km/h
1490 10-07-2019 04:30:00 8.5 C 7.43 g/m*3 8.5 C 0 km/h
1491 10-07-2019 04:35:00 8.4 C 7.38 g/m*3 8.4 C 0 km/h
1492 10-07-2019 04:40:00 8.4 C 7.47 g/m*3 8.4 C 0 km/h
1493 10-07-2019 04:45:00 8.4 C 7.47 g/m*3 8.4 C 0 km/h
1494 10-07-2019 04:50:00 8.4 C 7.47 g/m*3 8.4 C 0 km/h
1495 10-07-2019 04:55:00 8.4 C 7.47 g/m*3 8.4 C 0 km/h
1496 10-07-2019 05:00:00 8.4 C 7.47 g/m*3 8.4 C 0 km/h
1497 10-07-2019 05:05:00 8.3 C 7.42 g/m*3 8.3 C 0 km/h
1498 10-07-2019 05:10:00 8.3 C 7.42 g/m*3 8.3 C 0 km/h
1499 10-07-2019 05:15:00 8.3 C 7.42 g/m*3 8.3 C 0 km/h
1500 10-07-2019 05:20:00 8.3 C 7.42 g/m*3 8.3 C 0 km/h
Sensor: Nr:Datum:Temp:Abs-Feuchte:Windchill:Wind:
Aussen-T/F 1501 10-07-2019 05:25:00 8.2 C 7.45 g/m*3 8.2 C 0 km/h
1502 10-07-2019 05:30:00 8.2 C 7.45 g/m*3 8.2 C 0 km/h
1503 10-07-2019 05:35:00 8.2 C 7.45 g/m*3 8.2 C 0 km/h
1504 10-07-2019 05:40:00 8.2 C 7.45 g/m*3 8.2 C 0 km/h
1505 10-07-2019 05:45:00 8.2 C 7.45 g/m*3 8.2 C 0 km/h
1506 10-07-2019 05:50:00 8.1 C 7.41 g/m*3 8.1 C 0 km/h
1507 10-07-2019 05:55:00 8.1 C 7.41 g/m*3 8.1 C 0 km/h
1508 10-07-2019 06:00:00 8.1 C 7.41 g/m*3 8.1 C 0 km/h
1509 10-07-2019 06:05:00 8.1 C 7.41 g/m*3 8.1 C 0 km/h
1510 10-07-2019 06:10:00 8.1 C 7.41 g/m*3 8.1 C 0 km/h
1511 10-07-2019 06:15:00 8.1 C 7.49 g/m*3 8.1 C 0 km/h
1512 10-07-2019 06:20:00 8.1 C 7.49 g/m*3 8.1 C 0 km/h
1513 10-07-2019 06:25:00 8.1 C 7.49 g/m*3 8.1 C 0 km/h
1514 10-07-2019 06:30:00 8.1 C 7.49 g/m*3 8.1 C 0 km/h
1515 10-07-2019 06:35:00 8.1 C 7.49 g/m*3 8.1 C 0 km/h
1516 10-07-2019 06:40:00 8.1 C 7.49 g/m*3 8.1 C 0 km/h
1517 10-07-2019 06:45:00 8.1 C 7.49 g/m*3 8.1 C 0 km/h
1518 10-07-2019 06:50:00 8.1 C 7.49 g/m*3 8.1 C 0 km/h
1519 10-07-2019 06:55:00 8.2 C 7.54 g/m*3 8.2 C 0 km/h
1520 10-07-2019 07:00:00 8.2 C 7.54 g/m*3 8.2 C 0 km/h
1521 10-07-2019 07:05:00 8.2 C 7.54 g/m*3 8.2 C 0 km/h
1522 10-07-2019 07:10:00 8.3 C 7.59 g/m*3 8.3 C 0 km/h
1523 10-07-2019 07:15:00 8.3 C 7.59 g/m*3 8.3 C 0 km/h
1524 10-07-2019 07:20:00 8.3 C 7.59 g/m*3 8.3 C 0 km/h
1525 10-07-2019 07:25:00 8.4 C 7.72 g/m*3 8.4 C 0 km/h
Sensor: Nr:Datum:Temp:Abs-Feuchte:Windchill:Wind:
Aussen-T/F 1526 10-07-2019 07:30:00 8.4 C 7.72 g/m*3 8.4 C 0 km/h
1527 10-07-2019 07:35:00 8.5 C 7.77 g/m*3 8.5 C 0 km/h
1528 10-07-2019 07:40:00 8.6 C 7.82 g/m*3 8.6 C 0 km/h
1529 10-07-2019 07:45:00 8.7 C 7.87 g/m*3 8.7 C 0 km/h
1530 10-07-2019 07:50:00 8.8 C 7.92 g/m*3 8.8 C 0 km/h
1531 10-07-2019 07:55:00 8.9 C 7.97 g/m*3 8.9 C 0 km/h
1532 10-07-2019 08:00:00 9.1 C 8.07 g/m*3 9.1 C 0 km/h
1533 10-07-2019 08:05:00 9.2 C 8.13 g/m*3 9.2 C 0 km/h
1534 10-07-2019 08:10:00 9.3 C 8.18 g/m*3 9.3 C 0 km/h
1535 10-07-2019 08:15:00 9.6 C 8.34 g/m*3 9.6 C 0 km/h
1536 10-07-2019 08:20:00 9.7 C 8.39 g/m*3 9.7 C 0 km/h
1537 10-07-2019 08:25:00 9.9 C 8.5 g/m*3 9.9 C 0 km/h
1538 10-07-2019 08:30:00 10.1 C 8.51 g/m*3 10.1 C 0 km/h
1539 10-07-2019 08:35:00 10.3 C 8.62 g/m*3 10.3 C 0 km/h
1540 10-07-2019 08:40:00 10.4 C 8.67 g/m*3 10.4 C 0 km/h
1541 10-07-2019 08:45:00 10.7 C 8.74 g/m*3 10.7 C 0 km/h
1542 10-07-2019 08:50:00 10.8 C 8.8 g/m*3 10.8 C 0 km/h
1543 10-07-2019 08:55:00 10.9 C 8.75 g/m*3 10.9 C 0 km/h
1544 10-07-2019 09:00:00 11.1 C 8.76 g/m*3 11.1 C 0 km/h
1545 10-07-2019 09:05:00 11.3 C 8.87 g/m*3 11.3 C 0 km/h
1546 10-07-2019 09:10:00 11.6 C 8.94 g/m*3 11.6 C 0 km/h
1547 10-07-2019 09:15:00 11.7 C 8.89 g/m*3 11.7 C 0 km/h
1548 10-07-2019 09:20:00 11.9 C 8.79 g/m*3 11.9 C 0 km/h
1549 10-07-2019 09:25:00 12.2 C 9.06 g/m*3 12.2 C 0 km/h
1550 10-07-2019 09:30:00 12.4 C 8.96 g/m*3 12.4 C 0 km/h
Sensor: Nr:Datum:Temp:Abs-Feuchte:Windchill:Wind:
Aussen-T/F 1551 10-07-2019 09:35:00 12.8 C 9.07 g/m*3 12.8 C 0 km/h
1552 10-07-2019 09:40:00 13.2 C 9.07 g/m*3 13.2 C 6.4 km/h
1553 10-07-2019 09:45:00 13.6 C 9.06 g/m*3 13.6 C 4.8 km/h
1554 10-07-2019 09:50:00 13.9 C 8.99 g/m*3 13.9 C 4.8 km/h
1555 10-07-2019 09:55:00 14.2 C 9.28 g/m*3 14.2 C 0 km/h
1556 10-07-2019 10:00:00 14.4 C 9.39 g/m*3 14.4 C 0 km/h
1557 10-07-2019 10:05:00 14.7 C 9.44 g/m*3 14.7 C 0 km/h
1558 10-07-2019 10:10:00 14.9 C 9.43 g/m*3 14.9 C 0 km/h
1559 10-07-2019 10:15:00 15.2 C 9.22 g/m*3 15.2 C 1.6 km/h
1560 10-07-2019 10:20:00 15.5 C 9.39 g/m*3 15.5 C 3.2 km/h
1561 10-07-2019 10:25:00 15.9 C 9.21 g/m*3 15.9 C 4.8 km/h
1562 10-07-2019 10:30:00 16.3 C 9.3 g/m*3 16.3 C 3.2 km/h
1563 10-07-2019 10:35:00 16.7 C 9.52 g/m*3 16.7 C 0 km/h
1564 10-07-2019 10:40:00 16.9 C 9.49 g/m*3 16.9 C 3.2 km/h
1565 10-07-2019 10:45:00 17.3 C 9.58 g/m*3 17.3 C 3.2 km/h
1566 10-07-2019 10:50:00 17.6 C 9.3 g/m*3 17.6 C 4.8 km/h
1567 10-07-2019 10:55:00 17.7 C 9.05 g/m*3 17.7 C 6.4 km/h
1568 10-07-2019 11:00:00 17.8 C 9.26 g/m*3 17.8 C 4.8 km/h
1569 10-07-2019 11:05:00 17.9 C 9.01 g/m*3 17.9 C 8.1 km/h
1570 10-07-2019 11:10:00 18 C 9.06 g/m*3 18 C 4.8 km/h
1571 10-07-2019 11:15:00 18.2 C 8.86 g/m*3 18.2 C 3.2 km/h
1572 10-07-2019 11:20:00 18.3 C 8.76 g/m*3 18.3 C 6.4 km/h
1573 10-07-2019 11:25:00 18.4 C 8.81 g/m*3 18.4 C 4.8 km/h
1574 10-07-2019 11:30:00 18.4 C 8.49 g/m*3 18.4 C 3.2 km/h
1575 10-07-2019 11:35:00 18.4 C 8.34 g/m*3 18.4 C 4.8 km/h
Sensor: Nr:Datum:Temp:Abs-Feuchte:Windchill:Wind:
Aussen-T/F 1576 10-07-2019 11:40:00 18.6 C 8.12 g/m*3 18.6 C 4.8 km/h
1577 10-07-2019 11:45:00 18.8 C 7.89 g/m*3 18.8 C 8.1 km/h
1578 10-07-2019 11:50:00 19 C 8.15 g/m*3 19 C 3.2 km/h
1579 10-07-2019 11:55:00 19.1 C 8.2 g/m*3 19.1 C 9.7 km/h
1580 10-07-2019 12:00:00 19.2 C 8.41 g/m*3 19.2 C 9.7 km/h
1581 10-07-2019 12:05:00 19.3 C 8.13 g/m*3 19.3 C 4.8 km/h
1582 10-07-2019 12:10:00 19.3 C 7.96 g/m*3 19.3 C 1.6 km/h
1583 10-07-2019 12:15:00 19.4 C 8.01 g/m*3 19.4 C 9.7 km/h
1584 10-07-2019 12:20:00 19.6 C 7.43 g/m*3 19.6 C 9.7 km/h
1585 10-07-2019 12:25:00 19.7 C 7.64 g/m*3 19.7 C 6.4 km/h
1586 10-07-2019 12:30:00 19.9 C 7.56 g/m*3 19.9 C 8.1 km/h
1587 10-07-2019 12:35:00 20 C 6.74 g/m*3 20 C 4.8 km/h
1588 10-07-2019 12:40:00 20.2 C 6.64 g/m*3 20.2 C 8.1 km/h
1589 10-07-2019 12:45:00 20.3 C 6.16 g/m*3 20.3 C 11.3 km/h
1590 10-07-2019 12:50:00 20.4 C 6.19 g/m*3 20.4 C 4.8 km/h
1591 10-07-2019 12:55:00 20.4 C 6.37 g/m*3 20.4 C 8.1 km/h
1592 10-07-2019 13:00:00 20.6 C 6.62 g/m*3 20.6 C 1.6 km/h
1593 10-07-2019 13:05:00 20.7 C 6.48 g/m*3 20.7 C 8.1 km/h
1594 10-07-2019 13:10:00 20.8 C 6.52 g/m*3 20.8 C 9.7 km/h
1595 10-07-2019 13:15:00 20.9 C 6.56 g/m*3 20.9 C 9.7 km/h
1596 10-07-2019 13:20:00 21 C 6.59 g/m*3 21 C 8.1 km/h
1597 10-07-2019 13:25:00 21.2 C 6.67 g/m*3 21.2 C 6.4 km/h
1598 10-07-2019 13:30:00 21.3 C 6.52 g/m*3 21.3 C 11.3 km/h
1599 10-07-2019 13:35:00 21.3 C 6.52 g/m*3 21.3 C 9.7 km/h
1600 10-07-2019 13:40:00 21.4 C 6.56 g/m*3 21.4 C 8.1 km/h
Sensor: Nr:Datum:Temp:Abs-Feuchte:Windchill:Wind:
Aussen-T/F 1601 10-07-2019 13:45:00 21.5 C 6.79 g/m*3 21.5 C 8.1 km/h
1602 10-07-2019 13:50:00 21.5 C 6.41 g/m*3 21.5 C 12.9 km/h
1603 10-07-2019 13:55:00 21.7 C 6.29 g/m*3 21.7 C 16.1 km/h
1604 10-07-2019 14:00:00 21.8 C 6.14 g/m*3 21.8 C 9.7 km/h
1605 10-07-2019 14:05:00 22.1 C 6.25 g/m*3 22.1 C 12.9 km/h
1606 10-07-2019 14:10:00 22.3 C 6.32 g/m*3 22.3 C 9.7 km/h
1607 10-07-2019 14:15:00 22.5 C 6.19 g/m*3 22.5 C 9.7 km/h
1608 10-07-2019 14:20:00 22.6 C 6.23 g/m*3 22.6 C 12.9 km/h
1609 10-07-2019 14:25:00 22.7 C 6.47 g/m*3 22.7 C 4.8 km/h
1610 10-07-2019 14:30:00 22.8 C 6.91 g/m*3 22.8 C 8.1 km/h
1611 10-07-2019 14:35:00 23 C 6.37 g/m*3 23 C 8.1 km/h
1612 10-07-2019 14:40:00 23.1 C 6.2 g/m*3 23.1 C 14.5 km/h
1613 10-07-2019 14:45:00 23.2 C 6.03 g/m*3 23.2 C 12.9 km/h
1614 10-07-2019 14:50:00 23.2 C 6.03 g/m*3 23.2 C 6.4 km/h
1615 10-07-2019 14:55:00 23.2 C 5.61 g/m*3 23.2 C 11.3 km/h
1616 10-07-2019 15:00:00 23.3 C 6.06 g/m*3 23.3 C 8.1 km/h
1617 10-07-2019 15:05:00 23.6 C 6.38 g/m*3 23.6 C 9.7 km/h
1618 10-07-2019 15:10:00 23.8 C 6.24 g/m*3 23.8 C 8.1 km/h
1619 10-07-2019 15:15:00 23.9 C 6.27 g/m*3 23.9 C 9.7 km/h
1620 10-07-2019 15:20:00 24.1 C 6.35 g/m*3 24.1 C 11.3 km/h
1621 10-07-2019 15:25:00 24.2 C 5.94 g/m*3 24.2 C 9.7 km/h
1622 10-07-2019 15:30:00 24.4 C 6.45 g/m*3 24.4 C 9.7 km/h
1623 10-07-2019 15:35:00 24.8 C 6.37 g/m*3 24.8 C 9.7 km/h
1624 10-07-2019 15:40:00 25.2 C 6.75 g/m*3 25.2 C 6.4 km/h
1625 10-07-2019 15:45:00 25.2 C 6.29 g/m*3 25.2 C 11.3 km/h
Sensor: Nr:Datum:Temp:Abs-Feuchte:Windchill:Wind:
Aussen-T/F 1626 10-07-2019 15:50:00 25.2 C 6.05 g/m*3 25.2 C 9.7 km/h
1627 10-07-2019 15:55:00 25.3 C 6.32 g/m*3 25.3 C 4.8 km/h
1628 10-07-2019 16:00:00 25.7 C 5.99 g/m*3 25.7 C 11.3 km/h
1629 10-07-2019 16:05:00 25.4 C 6.12 g/m*3 25.4 C 9.7 km/h
1630 10-07-2019 16:10:00 25.2 C 6.05 g/m*3 25.2 C 9.7 km/h
1631 10-07-2019 16:15:00 25.3 C 6.32 g/m*3 25.3 C 8.1 km/h
1632 10-07-2019 16:20:00 25.2 C 6.29 g/m*3 25.2 C 8.1 km/h
1633 10-07-2019 16:25:00 25.3 C 6.79 g/m*3 25.3 C 6.4 km/h
1634 10-07-2019 16:30:00 25.7 C 6.22 g/m*3 25.7 C 16.1 km/h
1635 10-07-2019 16:35:00 25.6 C 6.19 g/m*3 25.6 C 9.7 km/h
1636 10-07-2019 16:40:00 25.7 C 6.46 g/m*3 25.7 C 8.1 km/h
1637 10-07-2019 16:45:00 25.9 C 6.54 g/m*3 25.9 C 16.1 km/h
1638 10-07-2019 16:50:00 26.4 C 6.72 g/m*3 26.4 C 11.3 km/h
1639 10-07-2019 16:55:00 26.6 C 6.8 g/m*3 26.6 C 9.7 km/h
1640 10-07-2019 17:00:00 26.7 C 6.58 g/m*3 26.7 C 6.4 km/h
1641 10-07-2019 17:05:00 26.6 C 6.54 g/m*3 26.6 C 9.7 km/h
1642 10-07-2019 17:10:00 26.7 C 6.33 g/m*3 26.7 C 11.3 km/h
1643 10-07-2019 17:15:00 26.8 C 6.62 g/m*3 26.8 C 11.3 km/h
1644 10-07-2019 17:20:00 26.8 C 6.36 g/m*3 26.8 C 8.1 km/h
1645 10-07-2019 17:25:00 26.9 C 6.4 g/m*3 26.9 C 11.3 km/h
1646 10-07-2019 17:30:00 26.9 C 6.4 g/m*3 26.9 C 14.5 km/h
1647 10-07-2019 17:35:00 26.7 C 6.58 g/m*3 26.7 C 6.4 km/h
1648 10-07-2019 17:40:00 26.5 C 6.26 g/m*3 26.5 C 8.1 km/h
1649 10-07-2019 17:45:00 26.3 C 6.19 g/m*3 26.3 C 9.7 km/h
1650 10-07-2019 17:50:00 26.3 C 6.44 g/m*3 26.3 C 11.3 km/h
Sensor: Nr:Datum:Temp:Abs-Feuchte:Windchill:Wind:
Aussen-T/F 1651 10-07-2019 17:55:00 26.4 C 6.22 g/m*3 26.4 C 4.8 km/h
1652 10-07-2019 18:00:00 26.5 C 6.51 g/m*3 26.5 C 11.3 km/h
1653 10-07-2019 18:05:00 26.9 C 6.65 g/m*3 26.9 C 6.4 km/h
1654 10-07-2019 18:10:00 27.2 C 6.51 g/m*3 27.2 C 9.7 km/h
1655 10-07-2019 18:15:00 27.2 C 6.51 g/m*3 27.2 C 12.9 km/h
1656 10-07-2019 18:20:00 27.2 C 6.51 g/m*3 27.2 C 4.8 km/h
1657 10-07-2019 18:25:00 26.9 C 6.4 g/m*3 26.9 C 9.7 km/h
1658 10-07-2019 18:30:00 26.6 C 6.29 g/m*3 26.6 C 3.2 km/h
1659 10-07-2019 18:35:00 26.6 C 6.8 g/m*3 26.6 C 9.7 km/h
1660 10-07-2019 18:40:00 26.9 C 6.65 g/m*3 26.9 C 9.7 km/h
1661 10-07-2019 18:45:00 26.8 C 6.62 g/m*3 26.8 C 12.9 km/h
1662 10-07-2019 18:50:00 26.3 C 6.44 g/m*3 26.3 C 11.3 km/h
1663 10-07-2019 18:55:00 26.1 C 6.61 g/m*3 26.1 C 12.9 km/h
1664 10-07-2019 19:00:00 26.2 C 6.65 g/m*3 26.2 C 12.9 km/h
1665 10-07-2019 19:05:00 26.2 C 6.89 g/m*3 26.2 C 6.4 km/h
1666 10-07-2019 19:10:00 26.4 C 6.72 g/m*3 26.4 C 9.7 km/h
1667 10-07-2019 19:15:00 26.4 C 6.72 g/m*3 26.4 C 11.3 km/h
1668 10-07-2019 19:20:00 26.4 C 6.72 g/m*3 26.4 C 9.7 km/h
1669 10-07-2019 19:25:00 26.4 C 6.72 g/m*3 26.4 C 8.1 km/h
1670 10-07-2019 19:30:00 26.2 C 6.89 g/m*3 26.2 C 9.7 km/h
1671 10-07-2019 19:35:00 25.6 C 6.67 g/m*3 25.6 C 9.7 km/h
1672 10-07-2019 19:40:00 25.2 C 6.75 g/m*3 25.2 C 4.8 km/h
1673 10-07-2019 19:45:00 24.8 C 6.6 g/m*3 24.8 C 12.9 km/h
1674 10-07-2019 19:50:00 24.6 C 6.75 g/m*3 24.6 C 11.3 km/h
1675 10-07-2019 19:55:00 24.6 C 6.75 g/m*3 24.6 C 9.7 km/h
Sensor: Nr:Datum:Temp:Abs-Feuchte:Windchill:Wind:
Aussen-T/F 1676 10-07-2019 20:00:00 24.5 C 6.71 g/m*3 24.5 C 11.3 km/h
1677 10-07-2019 20:05:00 24.3 C 6.86 g/m*3 24.3 C 9.7 km/h
1678 10-07-2019 20:10:00 24.1 C 7 g/m*3 24.1 C 8.1 km/h
1679 10-07-2019 20:15:00 23.9 C 6.92 g/m*3 23.9 C 6.4 km/h
1680 10-07-2019 20:20:00 23.8 C 6.88 g/m*3 23.8 C 8.1 km/h
1681 10-07-2019 20:25:00 23.6 C 7.66 g/m*3 23.6 C 6.4 km/h
1682 10-07-2019 20:30:00 23.3 C 7.11 g/m*3 23.3 C 3.2 km/h
1683 10-07-2019 20:35:00 23.2 C 7.07 g/m*3 23.2 C 6.4 km/h
1684 10-07-2019 20:40:00 23.1 C 6.82 g/m*3 23.1 C 4.8 km/h
1685 10-07-2019 20:45:00 22.9 C 6.95 g/m*3 22.9 C 1.6 km/h
1686 10-07-2019 20:50:00 22.8 C 7.32 g/m*3 22.8 C 1.6 km/h
1687 10-07-2019 20:55:00 22.8 C 8.13 g/m*3 22.8 C 0 km/h
1688 10-07-2019 21:00:00 22.4 C 7.55 g/m*3 22.4 C 0 km/h
1689 10-07-2019 21:05:00 22 C 7.57 g/m*3 22 C 0 km/h
1690 10-07-2019 21:10:00 21.4 C 7.69 g/m*3 21.4 C 1.6 km/h
1691 10-07-2019 21:15:00 21.1 C 7.55 g/m*3 21.1 C 0 km/h
1692 10-07-2019 21:20:00 20.7 C 7.92 g/m*3 20.7 C 0 km/h
1693 10-07-2019 21:25:00 20.5 C 7.65 g/m*3 20.5 C 0 km/h
1694 10-07-2019 21:30:00 20.4 C 8.14 g/m*3 20.4 C 0 km/h
1695 10-07-2019 21:35:00 20.3 C 8.27 g/m*3 20.3 C 0 km/h
1696 10-07-2019 21:40:00 20.2 C 7.87 g/m*3 20.2 C 0 km/h
1697 10-07-2019 21:45:00 20.1 C 7.82 g/m*3 20.1 C 0 km/h
1698 10-07-2019 21:50:00 19.9 C 7.9 g/m*3 19.9 C 0 km/h
1699 10-07-2019 21:55:00 19.9 C 7.73 g/m*3 19.9 C 0 km/h
1700 10-07-2019 22:00:00 19.8 C 7.86 g/m*3 19.8 C 0 km/h
Sensor: Nr:Datum:Temp:Abs-Feuchte:Windchill:Wind:
Aussen-T/F 1701 10-07-2019 22:05:00 19.7 C 7.98 g/m*3 19.7 C 0 km/h
1702 10-07-2019 22:10:00 19.7 C 7.81 g/m*3 19.7 C 0 km/h
1703 10-07-2019 22:15:00 19.6 C 7.93 g/m*3 19.6 C 0 km/h
1704 10-07-2019 22:20:00 19.4 C 8.01 g/m*3 19.4 C 0 km/h
1705 10-07-2019 22:25:00 19.3 C 7.96 g/m*3 19.3 C 0 km/h
1706 10-07-2019 22:30:00 19.2 C 7.91 g/m*3 19.2 C 0 km/h
1707 10-07-2019 22:35:00 18.9 C 7.94 g/m*3 18.9 C 0 km/h
1708 10-07-2019 22:40:00 18.8 C 7.89 g/m*3 18.8 C 0 km/h
1709 10-07-2019 22:45:00 18.8 C 7.89 g/m*3 18.8 C 0 km/h
1710 10-07-2019 22:50:00 18.7 C 8.17 g/m*3 18.7 C 0 km/h
1711 10-07-2019 22:55:00 18.7 C 8.17 g/m*3 18.7 C 0 km/h
1712 10-07-2019 23:00:00 18.7 C 8.17 g/m*3 18.7 C 0 km/h
1713 10-07-2019 23:05:00 18.7 C 8.17 g/m*3 18.7 C 0 km/h
1714 10-07-2019 23:10:00 18.7 C 8.33 g/m*3 18.7 C 0 km/h
1715 10-07-2019 23:15:00 18.7 C 8.49 g/m*3 18.7 C 0 km/h
1716 10-07-2019 23:20:00 18.7 C 8.33 g/m*3 18.7 C 0 km/h
1717 10-07-2019 23:25:00 18.7 C 8.49 g/m*3 18.7 C 0 km/h
1718 10-07-2019 23:30:00 18.8 C 8.54 g/m*3 18.8 C 0 km/h
1719 10-07-2019 23:35:00 18.8 C 8.86 g/m*3 18.8 C 0 km/h
1720 10-07-2019 23:40:00 18.8 C 8.86 g/m*3 18.8 C 6.4 km/h
1721 10-07-2019 23:45:00 19.1 C 8.36 g/m*3 19.1 C 9.7 km/h
1722 10-07-2019 23:50:00 19.4 C 8.18 g/m*3 19.4 C 8.1 km/h
1723 10-07-2019 23:55:00 19.7 C 8.32 g/m*3 19.7 C 6.4 km/h
1724 11-07-2019 00:00:00 19.7 C 8.32 g/m*3 19.7 C 4.8 km/h
1725 11-07-2019 00:05:00 19.7 C 8.66 g/m*3 19.7 C 4.8 km/h
Sensor: Nr:Datum:Temp:Abs-Feuchte:Windchill:Wind:
Aussen-T/F 1726 11-07-2019 00:10:00 19.6 C 8.95 g/m*3 19.6 C 0 km/h
1727 11-07-2019 00:15:00 19.5 C 9.06 g/m*3 19.5 C 0 km/h
1728 11-07-2019 00:20:00 19.3 C 8.79 g/m*3 19.3 C 0 km/h
1729 11-07-2019 00:25:00 19.2 C 8.9 g/m*3 19.2 C 0 km/h
1730 11-07-2019 00:30:00 19 C 8.47 g/m*3 19 C 3.2 km/h
1731 11-07-2019 00:35:00 18.9 C 9.23 g/m*3 18.9 C 1.6 km/h
1732 11-07-2019 00:40:00 18.8 C 9.18 g/m*3 18.8 C 0 km/h
1733 11-07-2019 00:45:00 18.7 C 9.13 g/m*3 18.7 C 0 km/h
1734 11-07-2019 00:50:00 18.5 C 9.18 g/m*3 18.5 C 0 km/h
1735 11-07-2019 00:55:00 18.4 C 9.12 g/m*3 18.4 C 0 km/h
1736 11-07-2019 01:00:00 18.2 C 8.86 g/m*3 18.2 C 0 km/h
1737 11-07-2019 01:05:00 18.2 C 9.17 g/m*3 18.2 C 0 km/h
1738 11-07-2019 01:10:00 18.1 C 9.27 g/m*3 18.1 C 0 km/h
1739 11-07-2019 01:15:00 17.9 C 9.01 g/m*3 17.9 C 0 km/h
1740 11-07-2019 01:20:00 17.9 C 9.31 g/m*3 17.9 C 0 km/h
1741 11-07-2019 01:25:00 17.8 C 9.26 g/m*3 17.8 C 0 km/h
1742 11-07-2019 01:30:00 17.8 C 9.41 g/m*3 17.8 C 0 km/h
1743 11-07-2019 01:35:00 17.7 C 9.35 g/m*3 17.7 C 0 km/h
1744 11-07-2019 01:40:00 17.6 C 9.3 g/m*3 17.6 C 0 km/h
1745 11-07-2019 01:45:00 17.6 C 9.45 g/m*3 17.6 C 0 km/h
1746 11-07-2019 01:50:00 17.4 C 9.34 g/m*3 17.4 C 0 km/h
1747 11-07-2019 01:55:00 17.4 C 9.48 g/m*3 17.4 C 0 km/h
1748 11-07-2019 02:00:00 17.3 C 9.58 g/m*3 17.3 C 0 km/h
1749 11-07-2019 02:05:00 17.3 C 9.58 g/m*3 17.3 C 0 km/h
1750 11-07-2019 02:10:00 17.2 C 9.52 g/m*3 17.2 C 0 km/h
Sensor: Nr:Datum:Temp:Abs-Feuchte:Windchill:Wind:
Aussen-T/F 1751 11-07-2019 02:15:00 17.2 C 9.52 g/m*3 17.2 C 0 km/h
1752 11-07-2019 02:20:00 17.2 C 9.52 g/m*3 17.2 C 0 km/h
1753 11-07-2019 02:25:00 17.2 C 9.52 g/m*3 17.2 C 0 km/h
1754 11-07-2019 02:30:00 17.2 C 9.67 g/m*3 17.2 C 0 km/h
1755 11-07-2019 02:35:00 17.1 C 9.75 g/m*3 17.1 C 0 km/h
1756 11-07-2019 02:40:00 17.1 C 9.61 g/m*3 17.1 C 0 km/h
1757 11-07-2019 02:45:00 17.1 C 9.75 g/m*3 17.1 C 0 km/h
1758 11-07-2019 02:50:00 17.1 C 9.75 g/m*3 17.1 C 0 km/h
1759 11-07-2019 02:55:00 17.1 C 9.75 g/m*3 17.1 C 0 km/h
1760 11-07-2019 03:00:00 17 C 9.84 g/m*3 17 C 0 km/h
1761 11-07-2019 03:05:00 17 C 9.98 g/m*3 17 C 0 km/h
1762 11-07-2019 03:10:00 17 C 9.84 g/m*3 17 C 0 km/h
1763 11-07-2019 03:15:00 16.9 C 9.92 g/m*3 16.9 C 0 km/h
1764 11-07-2019 03:20:00 16.9 C 10.07 g/m*3 16.9 C 0 km/h
1765 11-07-2019 03:25:00 16.9 C 10.07 g/m*3 16.9 C 0 km/h
1766 11-07-2019 03:30:00 16.9 C 10.07 g/m*3 16.9 C 0 km/h
1767 11-07-2019 03:35:00 16.8 C 10.15 g/m*3 16.8 C 0 km/h
1768 11-07-2019 03:40:00 16.8 C 10.15 g/m*3 16.8 C 0 km/h
1769 11-07-2019 03:45:00 16.8 C 10.29 g/m*3 16.8 C 0 km/h
1770 11-07-2019 03:50:00 16.8 C 10.29 g/m*3 16.8 C 0 km/h
1771 11-07-2019 03:55:00 16.7 C 10.23 g/m*3 16.7 C 0 km/h
1772 11-07-2019 04:00:00 16.7 C 10.23 g/m*3 16.7 C 0 km/h
1773 11-07-2019 04:05:00 16.7 C 10.23 g/m*3 16.7 C 0 km/h
1774 11-07-2019 04:10:00 16.7 C 10.23 g/m*3 16.7 C 0 km/h
1775 11-07-2019 04:15:00 16.7 C 10.23 g/m*3 16.7 C 0 km/h
Sensor: Nr:Datum:Temp:Abs-Feuchte:Windchill:Wind:
Aussen-T/F 1776 11-07-2019 04:20:00 16.7 C 10.37 g/m*3 16.7 C 0 km/h
1777 11-07-2019 04:25:00 16.6 C 10.31 g/m*3 16.6 C 0 km/h
1778 11-07-2019 04:30:00 16.6 C 10.31 g/m*3 16.6 C 0 km/h
1779 11-07-2019 04:35:00 16.6 C 10.31 g/m*3 16.6 C 0 km/h
1780 11-07-2019 04:40:00 16.5 C 10.25 g/m*3 16.5 C 0 km/h
1781 11-07-2019 04:45:00 16.5 C 10.39 g/m*3 16.5 C 0 km/h
1782 11-07-2019 04:50:00 16.4 C 10.19 g/m*3 16.4 C 0 km/h
1783 11-07-2019 04:55:00 16.4 C 10.05 g/m*3 16.4 C 0 km/h
1784 11-07-2019 05:00:00 16.4 C 10.19 g/m*3 16.4 C 0 km/h
1785 11-07-2019 05:05:00 16.4 C 10.19 g/m*3 16.4 C 0 km/h
1786 11-07-2019 05:10:00 16.4 C 10.19 g/m*3 16.4 C 0 km/h
1787 11-07-2019 05:15:00 16.4 C 10.19 g/m*3 16.4 C 0 km/h
1788 11-07-2019 05:20:00 16.4 C 10.33 g/m*3 16.4 C 0 km/h
1789 11-07-2019 05:25:00 16.3 C 10.13 g/m*3 16.3 C 0 km/h
1790 11-07-2019 05:30:00 16.3 C 9.99 g/m*3 16.3 C 0 km/h
1791 11-07-2019 05:35:00 16.3 C 10.13 g/m*3 16.3 C 0 km/h
1792 11-07-2019 05:40:00 16.3 C 10.27 g/m*3 16.3 C 0 km/h
1793 11-07-2019 05:45:00 16.3 C 10.13 g/m*3 16.3 C 0 km/h
1794 11-07-2019 05:50:00 16.3 C 10.13 g/m*3 16.3 C 0 km/h
1795 11-07-2019 05:55:00 16.3 C 10.27 g/m*3 16.3 C 0 km/h
1796 11-07-2019 06:00:00 16.2 C 10.07 g/m*3 16.2 C 0 km/h
1797 11-07-2019 06:05:00 16.2 C 10.2 g/m*3 16.2 C 0 km/h
1798 11-07-2019 06:10:00 16.3 C 10.41 g/m*3 16.3 C 0 km/h
1799 11-07-2019 06:15:00 16.2 C 10.07 g/m*3 16.2 C 0 km/h
1800 11-07-2019 06:20:00 16.3 C 10.27 g/m*3 16.3 C 0 km/h
Sensor: Nr:Datum:Temp:Abs-Feuchte:Windchill:Wind:
Aussen-T/F 1801 11-07-2019 06:25:00 16.3 C 10.41 g/m*3 16.3 C 0 km/h
1802 11-07-2019 06:30:00 16.3 C 10.27 g/m*3 16.3 C 0 km/h
1803 11-07-2019 06:35:00 16.4 C 10.33 g/m*3 16.4 C 0 km/h
1804 11-07-2019 06:40:00 16.5 C 10.39 g/m*3 16.5 C 0 km/h
1805 11-07-2019 06:45:00 16.6 C 10.59 g/m*3 16.6 C 0 km/h
1806 11-07-2019 06:50:00 16.7 C 10.66 g/m*3 16.7 C 0 km/h
1807 11-07-2019 06:55:00 16.7 C 10.66 g/m*3 16.7 C 0 km/h
1808 11-07-2019 07:00:00 16.8 C 10.72 g/m*3 16.8 C 0 km/h
1809 11-07-2019 07:05:00 16.8 C 10.72 g/m*3 16.8 C 0 km/h
1810 11-07-2019 07:10:00 16.9 C 10.79 g/m*3 16.9 C 0 km/h
1811 11-07-2019 07:15:00 17 C 10.56 g/m*3 17 C 0 km/h
1812 11-07-2019 07:20:00 17.1 C 10.34 g/m*3 17.1 C 1.6 km/h
1813 11-07-2019 07:25:00 17.2 C 10.4 g/m*3 17.2 C 0 km/h
1814 11-07-2019 07:30:00 17.3 C 10.61 g/m*3 17.3 C 0 km/h
1815 11-07-2019 07:35:00 17.4 C 10.52 g/m*3 17.4 C 0 km/h
1816 11-07-2019 07:40:00 17.5 C 10.44 g/m*3 17.5 C 0 km/h
1817 11-07-2019 07:45:00 17.6 C 10.5 g/m*3 17.6 C 0 km/h
1818 11-07-2019 07:50:00 17.6 C 10.35 g/m*3 17.6 C 0 km/h
1819 11-07-2019 07:55:00 17.6 C 10.35 g/m*3 17.6 C 0 km/h
1820 11-07-2019 08:00:00 17.7 C 10.26 g/m*3 17.7 C 0 km/h
1821 11-07-2019 08:05:00 17.7 C 10.41 g/m*3 17.7 C 0 km/h
1822 11-07-2019 08:10:00 17.7 C 10.26 g/m*3 17.7 C 0 km/h
1823 11-07-2019 08:15:00 17.7 C 10.41 g/m*3 17.7 C 0 km/h
1824 11-07-2019 08:20:00 17.7 C 10.41 g/m*3 17.7 C 0 km/h
1825 11-07-2019 08:25:00 17.7 C 10.41 g/m*3 17.7 C 0 km/h
Sensor: Nr:Datum:Temp:Abs-Feuchte:Windchill:Wind:
Aussen-T/F 1826 11-07-2019 08:30:00 17.8 C 10.47 g/m*3 17.8 C 0 km/h
1827 11-07-2019 08:35:00 17.8 C 10.78 g/m*3 17.8 C 0 km/h
1828 11-07-2019 08:40:00 17.9 C 10.54 g/m*3 17.9 C 0 km/h
1829 11-07-2019 08:45:00 18.1 C 10.66 g/m*3 18.1 C 0 km/h
1830 11-07-2019 08:50:00 18.2 C 10.72 g/m*3 18.2 C 3.2 km/h
1831 11-07-2019 08:55:00 18.3 C 10.79 g/m*3 18.3 C 1.6 km/h
1832 11-07-2019 09:00:00 18.3 C 10.63 g/m*3 18.3 C 0 km/h
1833 11-07-2019 09:05:00 18.5 C 10.76 g/m*3 18.5 C 3.2 km/h
1834 11-07-2019 09:10:00 18.6 C 10.82 g/m*3 18.6 C 1.6 km/h
1835 11-07-2019 09:15:00 18.7 C 10.73 g/m*3 18.7 C 1.6 km/h
1836 11-07-2019 09:20:00 18.7 C 10.89 g/m*3 18.7 C 0 km/h
1837 11-07-2019 09:25:00 18.7 C 10.73 g/m*3 18.7 C 1.6 km/h
1838 11-07-2019 09:30:00 18.7 C 10.73 g/m*3 18.7 C 0 km/h
1839 11-07-2019 09:35:00 18.7 C 10.89 g/m*3 18.7 C 0 km/h
1840 11-07-2019 09:40:00 18.8 C 11.27 g/m*3 18.8 C 0 km/h
1841 11-07-2019 09:45:00 18.8 C 11.27 g/m*3 18.8 C 0 km/h
1842 11-07-2019 09:50:00 18.8 C 11.11 g/m*3 18.8 C 0 km/h
1843 11-07-2019 09:55:00 18.8 C 11.6 g/m*3 18.8 C 0 km/h
1844 11-07-2019 10:00:00 18.8 C 11.6 g/m*3 18.8 C 0 km/h
1845 11-07-2019 10:05:00 18.8 C 11.76 g/m*3 18.8 C 0 km/h
1846 11-07-2019 10:10:00 18.8 C 11.76 g/m*3 18.8 C 0 km/h
1847 11-07-2019 10:15:00 18.7 C 11.53 g/m*3 18.7 C 0 km/h
1848 11-07-2019 10:20:00 18.7 C 11.53 g/m*3 18.7 C 0 km/h
1849 11-07-2019 10:25:00 18.7 C 11.53 g/m*3 18.7 C 0 km/h
1850 11-07-2019 10:30:00 18.6 C 11.3 g/m*3 18.6 C 1.6 km/h
Sensor: Nr:Datum:Temp:Abs-Feuchte:Windchill:Wind:
Aussen-T/F 1851 11-07-2019 10:35:00 18.6 C 11.46 g/m*3 18.6 C 3.2 km/h
1852 11-07-2019 10:40:00 18.6 C 10.98 g/m*3 18.6 C 1.6 km/h
1853 11-07-2019 10:45:00 18.6 C 10.35 g/m*3 18.6 C 0 km/h
1854 11-07-2019 10:50:00 18.7 C 10.89 g/m*3 18.7 C 0 km/h
1855 11-07-2019 10:55:00 18.8 C 11.11 g/m*3 18.8 C 0 km/h
1856 11-07-2019 11:00:00 18.9 C 11.83 g/m*3 18.9 C 0 km/h
1857 11-07-2019 11:05:00 19 C 12.06 g/m*3 19 C 0 km/h
1858 11-07-2019 11:10:00 19 C 12.22 g/m*3 19 C 0 km/h
1859 11-07-2019 11:15:00 19 C 12.06 g/m*3 19 C 0 km/h
1860 11-07-2019 11:20:00 18.9 C 11.99 g/m*3 18.9 C 0 km/h
1861 11-07-2019 11:25:00 18.8 C 11.43 g/m*3 18.8 C 1.6 km/h
1862 11-07-2019 11:30:00 18.8 C 10.79 g/m*3 18.8 C 8.1 km/h
1863 11-07-2019 11:35:00 18.8 C 10.63 g/m*3 18.8 C 11.3 km/h
1864 11-07-2019 11:40:00 18.9 C 10.53 g/m*3 18.9 C 6.4 km/h
1865 11-07-2019 11:45:00 18.9 C 10.37 g/m*3 18.9 C 8.1 km/h
1866 11-07-2019 11:50:00 18.9 C 10.53 g/m*3 18.9 C 9.7 km/h
1867 11-07-2019 11:55:00 18.9 C 10.69 g/m*3 18.9 C 14.5 km/h
1868 11-07-2019 12:00:00 18.7 C 11.21 g/m*3 18.7 C 8.1 km/h
1869 11-07-2019 12:05:00 18.3 C 11.41 g/m*3 18.3 C 11.3 km/h
1870 11-07-2019 12:10:00 18.1 C 12.05 g/m*3 18.1 C 3.2 km/h
1871 11-07-2019 12:15:00 17.7 C 11.92 g/m*3 17.7 C 6.4 km/h
1872 11-07-2019 12:20:00 17.3 C 11.93 g/m*3 17.3 C 4.8 km/h
1873 11-07-2019 12:25:00 17.2 C 12.3 g/m*3 17.2 C 1.6 km/h
1874 11-07-2019 12:30:00 17.1 C 12.23 g/m*3 17.1 C 1.6 km/h
1875 11-07-2019 12:35:00 17 C 12.3 g/m*3 17 C 4.8 km/h
Sensor: Nr:Datum:Temp:Abs-Feuchte:Windchill:Wind:
Aussen-T/F 1876 11-07-2019 12:40:00 16.8 C 12.15 g/m*3 16.8 C 8.1 km/h
1877 11-07-2019 12:45:00 16.7 C 12.36 g/m*3 16.7 C 9.7 km/h
1878 11-07-2019 12:50:00 16.7 C 12.51 g/m*3 16.7 C 6.4 km/h
1879 11-07-2019 12:55:00 16.6 C 12.57 g/m*3 16.6 C 1.6 km/h
1880 11-07-2019 13:00:00 16.6 C 12.57 g/m*3 16.6 C 6.4 km/h
1881 11-07-2019 13:05:00 16.4 C 12.42 g/m*3 16.4 C 4.8 km/h
1882 11-07-2019 13:10:00 16.3 C 12.49 g/m*3 16.3 C 3.2 km/h
1883 11-07-2019 13:15:00 16.3 C 12.62 g/m*3 16.3 C 3.2 km/h
1884 11-07-2019 13:20:00 16.3 C 12.62 g/m*3 16.3 C 4.8 km/h
1885 11-07-2019 13:25:00 16.2 C 12.55 g/m*3 16.2 C 4.8 km/h
1886 11-07-2019 13:30:00 16.3 C 12.62 g/m*3 16.3 C 0 km/h
1887 11-07-2019 13:35:00 16.2 C 12.55 g/m*3 16.2 C 0 km/h
1888 11-07-2019 13:40:00 16.3 C 12.62 g/m*3 16.3 C 1.6 km/h
1889 11-07-2019 13:45:00 16.3 C 12.76 g/m*3 16.3 C 0 km/h
1890 11-07-2019 13:50:00 16.3 C 12.76 g/m*3 16.3 C 1.6 km/h
1891 11-07-2019 13:55:00 16.3 C 12.76 g/m*3 16.3 C 0 km/h
1892 11-07-2019 14:00:00 16.3 C 12.76 g/m*3 16.3 C 0 km/h
1893 11-07-2019 14:05:00 16.4 C 12.84 g/m*3 16.4 C 0 km/h
1894 11-07-2019 14:10:00 16.5 C 12.92 g/m*3 16.5 C 0 km/h
1895 11-07-2019 14:15:00 16.7 C 13.22 g/m*3 16.7 C 0 km/h
1896 11-07-2019 14:20:00 16.8 C 13.3 g/m*3 16.8 C 0 km/h
1897 11-07-2019 14:25:00 16.9 C 13.38 g/m*3 16.9 C 0 km/h
1898 11-07-2019 14:30:00 17 C 13.46 g/m*3 17 C 0 km/h
1899 11-07-2019 14:35:00 17.1 C 13.54 g/m*3 17.1 C 0 km/h
1900 11-07-2019 14:40:00 17 C 13.46 g/m*3 17 C 3.2 km/h
Sensor: Nr:Datum:Temp:Abs-Feuchte:Windchill:Wind:
Aussen-T/F 1901 11-07-2019 14:45:00 16.9 C 13.38 g/m*3 16.9 C 1.6 km/h
1902 11-07-2019 14:50:00 16.9 C 13.38 g/m*3 16.9 C 1.6 km/h
1903 11-07-2019 14:55:00 17 C 13.46 g/m*3 17 C 0 km/h
1904 11-07-2019 15:00:00 17.2 C 13.62 g/m*3 17.2 C 0 km/h
1905 11-07-2019 15:05:00 17.3 C 13.7 g/m*3 17.3 C 3.2 km/h
1906 11-07-2019 15:10:00 17.3 C 13.7 g/m*3 17.3 C 1.6 km/h
1907 11-07-2019 15:15:00 17.4 C 13.78 g/m*3 17.4 C 3.2 km/h
1908 11-07-2019 15:20:00 17.4 C 13.63 g/m*3 17.4 C 4.8 km/h
1909 11-07-2019 15:25:00 17.4 C 13.63 g/m*3 17.4 C 3.2 km/h
1910 11-07-2019 15:30:00 17.6 C 13.95 g/m*3 17.6 C 0 km/h
1911 11-07-2019 15:35:00 17.7 C 13.88 g/m*3 17.7 C 0 km/h
1912 11-07-2019 15:40:00 17.8 C 13.96 g/m*3 17.8 C 0 km/h
1913 11-07-2019 15:45:00 17.8 C 13.96 g/m*3 17.8 C 3.2 km/h
1914 11-07-2019 15:50:00 17.9 C 14.2 g/m*3 17.9 C 4.8 km/h
1915 11-07-2019 15:55:00 18.1 C 14.21 g/m*3 18.1 C 3.2 km/h
1916 11-07-2019 16:00:00 18.3 C 14.38 g/m*3 18.3 C 6.4 km/h
1917 11-07-2019 16:05:00 18.4 C 14.31 g/m*3 18.4 C 6.4 km/h
1918 11-07-2019 16:10:00 18.5 C 14.4 g/m*3 18.5 C 6.4 km/h
1919 11-07-2019 16:15:00 18.6 C 14.48 g/m*3 18.6 C 6.4 km/h
1920 11-07-2019 16:20:00 18.8 C 14.66 g/m*3 18.8 C 8.1 km/h
1921 11-07-2019 16:25:00 19 C 14.83 g/m*3 19 C 6.4 km/h
1922 11-07-2019 16:30:00 19.1 C 14.43 g/m*3 19.1 C 8.1 km/h
1923 11-07-2019 16:35:00 19.3 C 14.93 g/m*3 19.3 C 8.1 km/h
1924 11-07-2019 16:40:00 19.4 C 14.35 g/m*3 19.4 C 9.7 km/h
1925 11-07-2019 16:45:00 19.6 C 14.86 g/m*3 19.6 C 9.7 km/h
Sensor: Nr:Datum:Temp:Abs-Feuchte:Windchill:Wind:
Aussen-T/F 1926 11-07-2019 16:50:00 20 C 15.21 g/m*3 20 C 9.7 km/h
1927 11-07-2019 16:55:00 20.4 C 15.04 g/m*3 20.4 C 4.8 km/h
1928 11-07-2019 17:00:00 20.7 C 15.12 g/m*3 20.7 C 4.8 km/h
1929 11-07-2019 17:05:00 20.9 C 15.12 g/m*3 20.9 C 6.4 km/h
1930 11-07-2019 17:10:00 21.1 C 14.74 g/m*3 21.1 C 6.4 km/h
1931 11-07-2019 17:15:00 21.3 C 15.1 g/m*3 21.3 C 4.8 km/h
1932 11-07-2019 17:20:00 21.2 C 15.57 g/m*3 21.2 C 6.4 km/h
1933 11-07-2019 17:25:00 21 C 15.2 g/m*3 21 C 4.8 km/h
1934 11-07-2019 17:30:00 20.9 C 15.3 g/m*3 20.9 C 0 km/h
1935 11-07-2019 17:35:00 20.8 C 15.39 g/m*3 20.8 C 0 km/h
1936 11-07-2019 17:40:00 20.8 C 15.57 g/m*3 20.8 C 0 km/h
1937 11-07-2019 17:45:00 20.7 C 15.66 g/m*3 20.7 C 0 km/h
1938 11-07-2019 17:50:00 20.7 C 15.84 g/m*3 20.7 C 0 km/h
1939 11-07-2019 17:55:00 20.5 C 15.84 g/m*3 20.5 C 0 km/h
1940 11-07-2019 18:00:00 20.4 C 15.74 g/m*3 20.4 C 0 km/h
1941 11-07-2019 18:05:00 20.2 C 15.56 g/m*3 20.2 C 0 km/h
1942 11-07-2019 18:10:00 20.1 C 15.47 g/m*3 20.1 C 0 km/h
1943 11-07-2019 18:15:00 19.9 C 15.29 g/m*3 19.9 C 0 km/h
1944 11-07-2019 18:20:00 19.7 C 15.28 g/m*3 19.7 C 1.6 km/h
1945 11-07-2019 18:25:00 19.6 C 15.19 g/m*3 19.6 C 0 km/h
1946 11-07-2019 18:30:00 19.4 C 15.02 g/m*3 19.4 C 0 km/h
1947 11-07-2019 18:35:00 19.3 C 14.93 g/m*3 19.3 C 0 km/h
1948 11-07-2019 18:40:00 19.1 C 14.92 g/m*3 19.1 C 0 km/h
1949 11-07-2019 18:45:00 18.9 C 14.74 g/m*3 18.9 C 0 km/h
1950 11-07-2019 18:50:00 18.8 C 14.66 g/m*3 18.8 C 1.6 km/h
Sensor: Nr:Datum:Temp:Abs-Feuchte:Windchill:Wind:
Aussen-T/F 1951 11-07-2019 18:55:00 18.7 C 14.73 g/m*3 18.7 C 1.6 km/h
1952 11-07-2019 19:00:00 18.6 C 14.48 g/m*3 18.6 C 1.6 km/h
1953 11-07-2019 19:05:00 18.4 C 14.47 g/m*3 18.4 C 1.6 km/h
1954 11-07-2019 19:10:00 18.3 C 14.38 g/m*3 18.3 C 1.6 km/h
1955 11-07-2019 19:15:00 18.3 C 14.54 g/m*3 18.3 C 1.6 km/h
1956 11-07-2019 19:20:00 18.2 C 14.46 g/m*3 18.2 C 1.6 km/h
1957 11-07-2019 19:25:00 18.2 C 14.46 g/m*3 18.2 C 0 km/h
1958 11-07-2019 19:30:00 18.2 C 14.46 g/m*3 18.2 C 0 km/h
1959 11-07-2019 19:35:00 18.2 C 14.61 g/m*3 18.2 C 0 km/h
1960 11-07-2019 19:40:00 18.3 C 14.7 g/m*3 18.3 C 1.6 km/h
1961 11-07-2019 19:45:00 18.3 C 14.7 g/m*3 18.3 C 1.6 km/h
1962 11-07-2019 19:50:00 18.3 C 14.7 g/m*3 18.3 C 0 km/h
1963 11-07-2019 19:55:00 18.3 C 14.7 g/m*3 18.3 C 0 km/h
1964 11-07-2019 20:00:00 18.2 C 14.61 g/m*3 18.2 C 0 km/h
1965 11-07-2019 20:05:00 18.1 C 14.52 g/m*3 18.1 C 0 km/h
1966 11-07-2019 20:10:00 18.1 C 14.52 g/m*3 18.1 C 0 km/h
1967 11-07-2019 20:15:00 18 C 14.44 g/m*3 18 C 0 km/h
1968 11-07-2019 20:20:00 18 C 14.44 g/m*3 18 C 0 km/h
1969 11-07-2019 20:25:00 18 C 14.44 g/m*3 18 C 0 km/h
1970 11-07-2019 20:30:00 18 C 14.44 g/m*3 18 C 0 km/h
1971 11-07-2019 20:35:00 18.1 C 14.52 g/m*3 18.1 C 0 km/h
1972 11-07-2019 20:40:00 18.1 C 14.52 g/m*3 18.1 C 0 km/h
1973 11-07-2019 20:45:00 18 C 14.44 g/m*3 18 C 0 km/h
1974 11-07-2019 20:50:00 18 C 14.44 g/m*3 18 C 0 km/h
1975 11-07-2019 20:55:00 17.9 C 14.35 g/m*3 17.9 C 0 km/h
Sensor: Nr:Datum:Temp:Abs-Feuchte:Windchill:Wind:
Aussen-T/F 1976 11-07-2019 21:00:00 17.8 C 14.27 g/m*3 17.8 C 0 km/h
1977 11-07-2019 21:05:00 17.8 C 14.27 g/m*3 17.8 C 0 km/h
1978 11-07-2019 21:10:00 17.7 C 14.18 g/m*3 17.7 C 0 km/h
1979 11-07-2019 21:15:00 17.7 C 14.18 g/m*3 17.7 C 0 km/h
1980 11-07-2019 21:20:00 17.6 C 14.1 g/m*3 17.6 C 0 km/h
1981 11-07-2019 21:25:00 17.4 C 13.93 g/m*3 17.4 C 0 km/h
1982 11-07-2019 21:30:00 17.4 C 13.93 g/m*3 17.4 C 0 km/h
1983 11-07-2019 21:35:00 17.3 C 13.85 g/m*3 17.3 C 0 km/h
1984 11-07-2019 21:40:00 17.2 C 13.77 g/m*3 17.2 C 0 km/h
1985 11-07-2019 21:45:00 17.2 C 13.77 g/m*3 17.2 C 0 km/h
1986 11-07-2019 21:50:00 17.1 C 13.68 g/m*3 17.1 C 0 km/h
1987 11-07-2019 21:55:00 17.1 C 13.68 g/m*3 17.1 C 0 km/h
1988 11-07-2019 22:00:00 17.1 C 13.68 g/m*3 17.1 C 0 km/h
1989 11-07-2019 22:05:00 17.1 C 13.83 g/m*3 17.1 C 0 km/h
1990 11-07-2019 22:10:00 17 C 13.75 g/m*3 17 C 0 km/h
1991 11-07-2019 22:15:00 16.9 C 13.66 g/m*3 16.9 C 0 km/h
1992 11-07-2019 22:20:00 16.9 C 13.66 g/m*3 16.9 C 0 km/h
1993 11-07-2019 22:25:00 16.8 C 13.58 g/m*3 16.8 C 0 km/h
1994 11-07-2019 22:30:00 16.8 C 13.58 g/m*3 16.8 C 0 km/h
1995 11-07-2019 22:35:00 16.8 C 13.58 g/m*3 16.8 C 0 km/h
1996 11-07-2019 22:40:00 16.7 C 13.5 g/m*3 16.7 C 0 km/h
1997 11-07-2019 22:45:00 16.7 C 13.5 g/m*3 16.7 C 0 km/h
1998 11-07-2019 22:50:00 16.7 C 13.5 g/m*3 16.7 C 0 km/h
1999 11-07-2019 22:55:00 16.7 C 13.5 g/m*3 16.7 C 0 km/h
2000 11-07-2019 23:00:00 16.7 C 13.5 g/m*3 16.7 C 0 km/h
Sensor: Nr:Datum:Temp:Abs-Feuchte:Windchill:Wind:
Aussen-T/F 2001 11-07-2019 23:05:00 16.7 C 13.5 g/m*3 16.7 C 0 km/h
2002 11-07-2019 23:10:00 16.7 C 13.5 g/m*3 16.7 C 1.6 km/h
2003 11-07-2019 23:15:00 16.6 C 13.42 g/m*3 16.6 C 1.6 km/h
2004 11-07-2019 23:20:00 16.6 C 13.42 g/m*3 16.6 C 1.6 km/h
2005 11-07-2019 23:25:00 16.4 C 13.26 g/m*3 16.4 C 0 km/h
2006 11-07-2019 23:30:00 16.4 C 13.26 g/m*3 16.4 C 1.6 km/h
2007 11-07-2019 23:35:00 16.3 C 13.18 g/m*3 16.3 C 1.6 km/h
2008 11-07-2019 23:40:00 16.2 C 13.1 g/m*3 16.2 C 1.6 km/h
2009 11-07-2019 23:45:00 16.2 C 13.1 g/m*3 16.2 C 1.6 km/h
2010 11-07-2019 23:50:00 16.2 C 13.1 g/m*3 16.2 C 0 km/h
2011 11-07-2019 23:55:00 16.2 C 13.24 g/m*3 16.2 C 0 km/h
2012 12-07-2019 00:00:00 16.2 C 13.24 g/m*3 16.2 C 1.6 km/h
2013 12-07-2019 00:05:00 16.2 C 13.24 g/m*3 16.2 C 1.6 km/h
2014 12-07-2019 00:10:00 16.2 C 13.24 g/m*3 16.2 C 1.6 km/h
2015 12-07-2019 00:15:00 16.2 C 13.24 g/m*3 16.2 C 1.6 km/h
2016 12-07-2019 00:20:00 16.1 C 13.16 g/m*3 16.1 C 1.6 km/h
2017 12-07-2019 00:25:00 16.1 C 13.16 g/m*3 16.1 C 0 km/h
2018 12-07-2019 00:30:00 16 C 13.08 g/m*3 16 C 1.6 km/h
2019 12-07-2019 00:35:00 16 C 13.08 g/m*3 16 C 1.6 km/h
2020 12-07-2019 00:40:00 15.9 C 13 g/m*3 15.9 C 1.6 km/h
2021 12-07-2019 00:45:00 15.9 C 13 g/m*3 15.9 C 3.2 km/h
2022 12-07-2019 00:50:00 15.9 C 13 g/m*3 15.9 C 1.6 km/h
2023 12-07-2019 00:55:00 15.9 C 13 g/m*3 15.9 C 1.6 km/h
2024 12-07-2019 01:00:00 15.8 C 12.92 g/m*3 15.8 C 1.6 km/h
2025 12-07-2019 01:05:00 15.8 C 12.92 g/m*3 15.8 C 1.6 km/h
Sensor: Nr:Datum:Temp:Abs-Feuchte:Windchill:Wind:
Aussen-T/F 2026 12-07-2019 01:10:00 15.8 C 12.92 g/m*3 15.8 C 1.6 km/h
2027 12-07-2019 01:15:00 15.8 C 12.92 g/m*3 15.8 C 1.6 km/h
2028 12-07-2019 01:20:00 15.7 C 12.84 g/m*3 15.7 C 1.6 km/h
2029 12-07-2019 01:25:00 15.7 C 12.84 g/m*3 15.7 C 0 km/h
2030 12-07-2019 01:30:00 15.7 C 12.84 g/m*3 15.7 C 1.6 km/h
2031 12-07-2019 01:35:00 15.7 C 12.84 g/m*3 15.7 C 1.6 km/h
2032 12-07-2019 01:40:00 15.7 C 12.84 g/m*3 15.7 C 1.6 km/h
2033 12-07-2019 01:45:00 15.6 C 12.77 g/m*3 15.6 C 0 km/h
2034 12-07-2019 01:50:00 15.6 C 12.77 g/m*3 15.6 C 0 km/h
2035 12-07-2019 01:55:00 15.6 C 12.77 g/m*3 15.6 C 0 km/h
2036 12-07-2019 02:00:00 15.5 C 12.69 g/m*3 15.5 C 0 km/h
2037 12-07-2019 02:05:00 15.4 C 12.61 g/m*3 15.4 C 0 km/h
2038 12-07-2019 02:10:00 15.4 C 12.61 g/m*3 15.4 C 0 km/h
2039 12-07-2019 02:15:00 15.4 C 12.61 g/m*3 15.4 C 0 km/h
2040 12-07-2019 02:20:00 15.3 C 12.54 g/m*3 15.3 C 0 km/h
2041 12-07-2019 02:25:00 15.3 C 12.54 g/m*3 15.3 C 3.2 km/h
2042 12-07-2019 02:30:00 15.3 C 12.54 g/m*3 15.3 C 0 km/h
2043 12-07-2019 02:35:00 15.3 C 12.54 g/m*3 15.3 C 0 km/h
2044 12-07-2019 02:40:00 15.3 C 12.54 g/m*3 15.3 C 0 km/h
2045 12-07-2019 02:45:00 15.3 C 12.54 g/m*3 15.3 C 0 km/h
2046 12-07-2019 02:50:00 15.3 C 12.54 g/m*3 15.3 C 0 km/h
2047 12-07-2019 02:55:00 15.3 C 12.54 g/m*3 15.3 C 0 km/h
2048 12-07-2019 03:00:00 15.3 C 12.67 g/m*3 15.3 C 1.6 km/h
2049 12-07-2019 03:05:00 15.3 C 12.54 g/m*3 15.3 C 0 km/h
2050 12-07-2019 03:10:00 15.4 C 12.61 g/m*3 15.4 C 0 km/h
Sensor: Nr:Datum:Temp:Abs-Feuchte:Windchill:Wind:
Aussen-T/F 2051 12-07-2019 03:15:00 15.4 C 12.61 g/m*3 15.4 C 1.6 km/h
2052 12-07-2019 03:20:00 15.4 C 12.74 g/m*3 15.4 C 0 km/h
2053 12-07-2019 03:25:00 15.4 C 12.74 g/m*3 15.4 C 0 km/h
2054 12-07-2019 03:30:00 15.4 C 12.61 g/m*3 15.4 C 0 km/h
2055 12-07-2019 03:35:00 15.3 C 12.54 g/m*3 15.3 C 0 km/h
2056 12-07-2019 03:40:00 15.3 C 12.54 g/m*3 15.3 C 0 km/h
2057 12-07-2019 03:45:00 15.2 C 12.59 g/m*3 15.2 C 0 km/h
2058 12-07-2019 03:50:00 15.2 C 12.59 g/m*3 15.2 C 0 km/h
2059 12-07-2019 03:55:00 15.2 C 12.59 g/m*3 15.2 C 0 km/h
2060 12-07-2019 04:00:00 15.2 C 12.59 g/m*3 15.2 C 0 km/h
2061 12-07-2019 04:05:00 15.2 C 12.59 g/m*3 15.2 C 0 km/h
2062 12-07-2019 04:10:00 15.2 C 12.59 g/m*3 15.2 C 0 km/h
2063 12-07-2019 04:15:00 15.2 C 12.59 g/m*3 15.2 C 0 km/h
2064 12-07-2019 04:20:00 15.1 C 12.39 g/m*3 15.1 C 0 km/h
2065 12-07-2019 04:25:00 15 C 12.31 g/m*3 15 C 0 km/h
2066 12-07-2019 04:30:00 14.9 C 12.24 g/m*3 14.9 C 0 km/h
2067 12-07-2019 04:35:00 14.8 C 12.16 g/m*3 14.8 C 0 km/h
2068 12-07-2019 04:40:00 14.7 C 12.09 g/m*3 14.7 C 0 km/h
2069 12-07-2019 04:45:00 14.7 C 12.09 g/m*3 14.7 C 0 km/h
2070 12-07-2019 04:50:00 14.6 C 12.01 g/m*3 14.6 C 0 km/h
2071 12-07-2019 04:55:00 14.6 C 12.14 g/m*3 14.6 C 0 km/h
2072 12-07-2019 05:00:00 14.5 C 12.06 g/m*3 14.5 C 0 km/h
2073 12-07-2019 05:05:00 14.5 C 12.06 g/m*3 14.5 C 0 km/h
2074 12-07-2019 05:10:00 14.5 C 12.06 g/m*3 14.5 C 0 km/h
2075 12-07-2019 05:15:00 14.5 C 12.06 g/m*3 14.5 C 0 km/h
Sensor: Nr:Datum:Temp:Abs-Feuchte:Windchill:Wind:
Aussen-T/F 2076 12-07-2019 05:20:00 14.5 C 12.06 g/m*3 14.5 C 0 km/h
2077 12-07-2019 05:25:00 14.5 C 12.06 g/m*3 14.5 C 0 km/h
2078 12-07-2019 05:30:00 14.6 C 12.14 g/m*3 14.6 C 0 km/h
2079 12-07-2019 05:35:00 14.6 C 12.14 g/m*3 14.6 C 0 km/h
2080 12-07-2019 05:40:00 14.7 C 12.21 g/m*3 14.7 C 0 km/h
2081 12-07-2019 05:45:00 14.7 C 12.21 g/m*3 14.7 C 0 km/h
2082 12-07-2019 05:50:00 14.7 C 12.21 g/m*3 14.7 C 0 km/h
2083 12-07-2019 05:55:00 14.7 C 12.21 g/m*3 14.7 C 0 km/h
2084 12-07-2019 06:00:00 14.7 C 12.21 g/m*3 14.7 C 0 km/h
2085 12-07-2019 06:05:00 14.7 C 12.21 g/m*3 14.7 C 0 km/h
2086 12-07-2019 06:10:00 14.7 C 12.21 g/m*3 14.7 C 0 km/h
2087 12-07-2019 06:15:00 14.7 C 12.21 g/m*3 14.7 C 0 km/h
2088 12-07-2019 06:20:00 14.7 C 12.21 g/m*3 14.7 C 0 km/h
2089 12-07-2019 06:25:00 14.7 C 12.21 g/m*3 14.7 C 0 km/h
2090 12-07-2019 06:30:00 14.7 C 12.21 g/m*3 14.7 C 0 km/h
2091 12-07-2019 06:35:00 14.7 C 12.21 g/m*3 14.7 C 0 km/h
2092 12-07-2019 06:40:00 14.8 C 12.29 g/m*3 14.8 C 0 km/h
2093 12-07-2019 06:45:00 14.8 C 12.29 g/m*3 14.8 C 0 km/h
2094 12-07-2019 06:50:00 14.9 C 12.36 g/m*3 14.9 C 0 km/h
2095 12-07-2019 06:55:00 15 C 12.44 g/m*3 15 C 0 km/h
2096 12-07-2019 07:00:00 15.2 C 12.59 g/m*3 15.2 C 0 km/h
2097 12-07-2019 07:05:00 15.5 C 12.82 g/m*3 15.5 C 0 km/h
2098 12-07-2019 07:10:00 15.7 C 13.11 g/m*3 15.7 C 0 km/h
2099 12-07-2019 07:15:00 15.8 C 13.19 g/m*3 15.8 C 4.8 km/h
2100 12-07-2019 07:20:00 15.8 C 13.06 g/m*3 15.8 C 3.2 km/h
Sensor: Nr:Datum:Temp:Abs-Feuchte:Windchill:Wind:
Aussen-T/F 2101 12-07-2019 07:25:00 15.8 C 13.06 g/m*3 15.8 C 3.2 km/h
2102 12-07-2019 07:30:00 15.8 C 13.06 g/m*3 15.8 C 3.2 km/h
2103 12-07-2019 07:35:00 15.8 C 13.06 g/m*3 15.8 C 3.2 km/h
2104 12-07-2019 07:40:00 15.8 C 13.06 g/m*3 15.8 C 0 km/h
2105 12-07-2019 07:45:00 15.8 C 13.06 g/m*3 15.8 C 0 km/h
2106 12-07-2019 07:50:00 15.9 C 13.14 g/m*3 15.9 C 0 km/h
2107 12-07-2019 07:55:00 15.9 C 13.14 g/m*3 15.9 C 0 km/h
2108 12-07-2019 08:00:00 16 C 13.22 g/m*3 16 C 0 km/h
2109 12-07-2019 08:05:00 16.1 C 13.3 g/m*3 16.1 C 0 km/h
2110 12-07-2019 08:10:00 16.1 C 13.3 g/m*3 16.1 C 0 km/h
2111 12-07-2019 08:15:00 16.2 C 13.38 g/m*3 16.2 C 0 km/h
2112 12-07-2019 08:20:00 16.3 C 13.46 g/m*3 16.3 C 0 km/h
2113 12-07-2019 08:25:00 16.4 C 13.54 g/m*3 16.4 C 0 km/h
2114 12-07-2019 08:30:00 16.6 C 13.7 g/m*3 16.6 C 0 km/h
2115 12-07-2019 08:35:00 16.7 C 13.79 g/m*3 16.7 C 0 km/h
2116 12-07-2019 08:40:00 16.7 C 13.93 g/m*3 16.7 C 0 km/h
2117 12-07-2019 08:45:00 16.8 C 13.87 g/m*3 16.8 C 0 km/h
2118 12-07-2019 08:50:00 16.8 C 13.87 g/m*3 16.8 C 0 km/h
2119 12-07-2019 08:55:00 16.8 C 13.87 g/m*3 16.8 C 0 km/h
2120 12-07-2019 09:00:00 16.9 C 13.95 g/m*3 16.9 C 0 km/h
2121 12-07-2019 09:05:00 17.1 C 14.27 g/m*3 17.1 C 0 km/h
2122 12-07-2019 09:10:00 17.2 C 14.35 g/m*3 17.2 C 0 km/h
2123 12-07-2019 09:15:00 17.3 C 14.29 g/m*3 17.3 C 0 km/h
2124 12-07-2019 09:20:00 17.4 C 14.52 g/m*3 17.4 C 0 km/h
2125 12-07-2019 09:25:00 17.4 C 14.52 g/m*3 17.4 C 0 km/h
Sensor: Nr:Datum:Temp:Abs-Feuchte:Windchill:Wind:
Aussen-T/F 2126 12-07-2019 09:30:00 17.4 C 14.38 g/m*3 17.4 C 1.6 km/h
2127 12-07-2019 09:35:00 17.4 C 14.38 g/m*3 17.4 C 4.8 km/h
2128 12-07-2019 09:40:00 17.5 C 14.46 g/m*3 17.5 C 0 km/h
2129 12-07-2019 09:45:00 17.8 C 14.72 g/m*3 17.8 C 1.6 km/h
2130 12-07-2019 09:50:00 17.9 C 14.96 g/m*3 17.9 C 0 km/h
2131 12-07-2019 09:55:00 18.1 C 14.99 g/m*3 18.1 C 0 km/h
2132 12-07-2019 10:00:00 17.9 C 14.81 g/m*3 17.9 C 1.6 km/h
2133 12-07-2019 10:05:00 17.9 C 14.81 g/m*3 17.9 C 3.2 km/h
2134 12-07-2019 10:10:00 17.9 C 14.66 g/m*3 17.9 C 1.6 km/h
2135 12-07-2019 10:15:00 18 C 14.75 g/m*3 18 C 1.6 km/h
2136 12-07-2019 10:20:00 18.2 C 14.92 g/m*3 18.2 C 0 km/h
2137 12-07-2019 10:25:00 18.7 C 15.37 g/m*3 18.7 C 1.6 km/h
2138 12-07-2019 10:30:00 18.9 C 15.55 g/m*3 18.9 C 1.6 km/h
2139 12-07-2019 10:35:00 19.2 C 15.66 g/m*3 19.2 C 1.6 km/h
2140 12-07-2019 10:40:00 19.4 C 15.68 g/m*3 19.4 C 3.2 km/h
2141 12-07-2019 10:45:00 19.7 C 15.96 g/m*3 19.7 C 1.6 km/h
2142 12-07-2019 10:50:00 19.7 C 15.62 g/m*3 19.7 C 1.6 km/h
2143 12-07-2019 10:55:00 19.9 C 15.63 g/m*3 19.9 C 1.6 km/h
2144 12-07-2019 11:00:00 20 C 15.73 g/m*3 20 C 0 km/h
2145 12-07-2019 11:05:00 20.1 C 15.47 g/m*3 20.1 C 3.2 km/h
2146 12-07-2019 11:10:00 20.1 C 15.12 g/m*3 20.1 C 1.6 km/h
2147 12-07-2019 11:15:00 20.2 C 15.21 g/m*3 20.2 C 0 km/h
2148 12-07-2019 11:20:00 20.3 C 15.48 g/m*3 20.3 C 0 km/h
2149 12-07-2019 11:25:00 20.4 C 15.57 g/m*3 20.4 C 0 km/h
2150 12-07-2019 11:30:00 20.5 C 15.48 g/m*3 20.5 C 0 km/h
Sensor: Nr:Datum:Temp:Abs-Feuchte:Windchill:Wind:
Aussen-T/F 2151 12-07-2019 11:35:00 20.6 C 15.93 g/m*3 20.6 C 0 km/h
2152 12-07-2019 11:40:00 20.6 C 15.93 g/m*3 20.6 C 0 km/h
2153 12-07-2019 11:45:00 20.5 C 16.01 g/m*3 20.5 C 0 km/h
2154 12-07-2019 11:50:00 20.4 C 15.92 g/m*3 20.4 C 0 km/h
2155 12-07-2019 11:55:00 20.2 C 15.74 g/m*3 20.2 C 0 km/h
2156 12-07-2019 12:00:00 20 C 15.55 g/m*3 20 C 0 km/h
2157 12-07-2019 12:05:00 19.8 C 15.54 g/m*3 19.8 C 0 km/h
2158 12-07-2019 12:10:00 19.6 C 15.36 g/m*3 19.6 C 0 km/h
2159 12-07-2019 12:15:00 19.4 C 15.35 g/m*3 19.4 C 0 km/h
2160 12-07-2019 12:20:00 19.2 C 15.01 g/m*3 19.2 C 1.6 km/h
2161 12-07-2019 12:25:00 19 C 14.83 g/m*3 19 C 0 km/h
2162 12-07-2019 12:30:00 18.9 C 14.9 g/m*3 18.9 C 0 km/h
2163 12-07-2019 12:35:00 18.8 C 14.82 g/m*3 18.8 C 0 km/h
2164 12-07-2019 12:40:00 18.8 C 14.98 g/m*3 18.8 C 1.6 km/h
2165 12-07-2019 12:45:00 18.5 C 14.56 g/m*3 18.5 C 4.8 km/h
2166 12-07-2019 12:50:00 18.3 C 14.54 g/m*3 18.3 C 0 km/h
2167 12-07-2019 12:55:00 18.2 C 14.46 g/m*3 18.2 C 1.6 km/h
2168 12-07-2019 13:00:00 18.2 C 14.61 g/m*3 18.2 C 1.6 km/h
2169 12-07-2019 13:05:00 18.3 C 14.7 g/m*3 18.3 C 0 km/h
2170 12-07-2019 13:10:00 18.3 C 14.7 g/m*3 18.3 C 0 km/h
2171 12-07-2019 13:15:00 18.4 C 14.94 g/m*3 18.4 C 0 km/h
2172 12-07-2019 13:20:00 18.4 C 14.94 g/m*3 18.4 C 0 km/h
2173 12-07-2019 13:25:00 18.4 C 14.94 g/m*3 18.4 C 3.2 km/h
2174 12-07-2019 13:30:00 18.2 C 14.61 g/m*3 18.2 C 1.6 km/h
2175 12-07-2019 13:35:00 17.8 C 14.27 g/m*3 17.8 C 6.4 km/h
Sensor: Nr:Datum:Temp:Abs-Feuchte:Windchill:Wind:
Aussen-T/F 2176 12-07-2019 13:40:00 17.6 C 14.1 g/m*3 17.6 C 4.8 km/h
2177 12-07-2019 13:45:00 17.5 C 14.01 g/m*3 17.5 C 1.6 km/h
2178 12-07-2019 13:50:00 17.4 C 13.93 g/m*3 17.4 C 1.6 km/h
2179 12-07-2019 13:55:00 17.3 C 13.85 g/m*3 17.3 C 1.6 km/h
2180 12-07-2019 14:00:00 17.2 C 13.77 g/m*3 17.2 C 1.6 km/h
2181 12-07-2019 14:05:00 17.3 C 13.85 g/m*3 17.3 C 3.2 km/h
2182 12-07-2019 14:10:00 17.3 C 14 g/m*3 17.3 C 3.2 km/h
2183 12-07-2019 14:15:00 17.7 C 14.48 g/m*3 17.7 C 1.6 km/h
2184 12-07-2019 14:20:00 17.8 C 14.42 g/m*3 17.8 C 4.8 km/h
2185 12-07-2019 14:25:00 17.6 C 14.1 g/m*3 17.6 C 3.2 km/h
2186 12-07-2019 14:30:00 17.6 C 13.95 g/m*3 17.6 C 6.4 km/h
2187 12-07-2019 14:35:00 17.7 C 14.18 g/m*3 17.7 C 3.2 km/h
2188 12-07-2019 14:40:00 17.8 C 14.27 g/m*3 17.8 C 3.2 km/h
2189 12-07-2019 14:45:00 18 C 14.44 g/m*3 18 C 1.6 km/h
2190 12-07-2019 14:50:00 18.2 C 14.61 g/m*3 18.2 C 4.8 km/h
2191 12-07-2019 14:55:00 18.3 C 14.54 g/m*3 18.3 C 0 km/h
2192 12-07-2019 15:00:00 18.4 C 14.63 g/m*3 18.4 C 4.8 km/h
2193 12-07-2019 15:05:00 18.7 C 14.89 g/m*3 18.7 C 3.2 km/h
2194 12-07-2019 15:10:00 18.7 C 14.41 g/m*3 18.7 C 3.2 km/h
2195 12-07-2019 15:15:00 19.1 C 15.25 g/m*3 19.1 C 11.3 km/h
2196 12-07-2019 15:20:00 19.6 C 15.36 g/m*3 19.6 C 11.3 km/h
2197 12-07-2019 15:25:00 19.8 C 15.2 g/m*3 19.8 C 12.9 km/h
2198 12-07-2019 15:30:00 19.8 C 14.69 g/m*3 19.8 C 12.9 km/h
2199 12-07-2019 15:35:00 19.8 C 15.03 g/m*3 19.8 C 1.6 km/h
2200 12-07-2019 15:40:00 19.9 C 14.78 g/m*3 19.9 C 4.8 km/h
Sensor: Nr:Datum:Temp:Abs-Feuchte:Windchill:Wind:
Aussen-T/F 2201 12-07-2019 15:45:00 20.3 C 15.48 g/m*3 20.3 C 6.4 km/h
2202 12-07-2019 15:50:00 20.4 C 15.04 g/m*3 20.4 C 6.4 km/h
2203 12-07-2019 15:55:00 20.7 C 15.66 g/m*3 20.7 C 4.8 km/h
2204 12-07-2019 16:00:00 21.1 C 15.48 g/m*3 21.1 C 3.2 km/h
2205 12-07-2019 16:05:00 21 C 15.39 g/m*3 21 C 1.6 km/h
2206 12-07-2019 16:10:00 21 C 15.75 g/m*3 21 C 0 km/h
2207 12-07-2019 16:15:00 21 C 16.12 g/m*3 21 C 0 km/h
2208 12-07-2019 16:20:00 21 C 16.3 g/m*3 21 C 0 km/h
2209 12-07-2019 16:25:00 20.9 C 16.21 g/m*3 20.9 C 0 km/h
2210 12-07-2019 16:30:00 20.9 C 16.21 g/m*3 20.9 C 0 km/h
2211 12-07-2019 16:35:00 20.6 C 15.39 g/m*3 20.6 C 1.6 km/h
2212 12-07-2019 16:40:00 20.4 C 15.04 g/m*3 20.4 C 4.8 km/h
2213 12-07-2019 16:45:00 20.4 C 15.57 g/m*3 20.4 C 0 km/h
2214 12-07-2019 16:50:00 20.4 C 15.39 g/m*3 20.4 C 1.6 km/h
2215 12-07-2019 16:55:00 20.5 C 15.48 g/m*3 20.5 C 0 km/h
2216 12-07-2019 17:00:00 20.5 C 14.95 g/m*3 20.5 C 3.2 km/h
2217 12-07-2019 17:05:00 20.6 C 14.86 g/m*3 20.6 C 4.8 km/h
2218 12-07-2019 17:10:00 20.5 C 14.77 g/m*3 20.5 C 4.8 km/h
2219 12-07-2019 17:15:00 20.6 C 15.39 g/m*3 20.6 C 0 km/h
2220 12-07-2019 17:20:00 20.4 C 15.21 g/m*3 20.4 C 4.8 km/h
2221 12-07-2019 17:25:00 20 C 13.65 g/m*3 20 C 19.3 km/h
2222 12-07-2019 17:30:00 19.8 C 12.81 g/m*3 19.8 C 20.9 km/h
2223 12-07-2019 17:35:00 19.7 C 12.91 g/m*3 19.7 C 8.1 km/h
2224 12-07-2019 17:40:00 19.7 C 13.25 g/m*3 19.7 C 8.1 km/h
2225 12-07-2019 17:45:00 19.4 C 12.68 g/m*3 19.4 C 12.9 km/h
Sensor: Nr:Datum:Temp:Abs-Feuchte:Windchill:Wind:
Aussen-T/F 2226 12-07-2019 17:50:00 19.3 C 12.61 g/m*3 19.3 C 8.1 km/h
2227 12-07-2019 17:55:00 19.2 C 12.7 g/m*3 19.2 C 8.1 km/h
2228 12-07-2019 18:00:00 19.1 C 13.11 g/m*3 19.1 C 4.8 km/h
2229 12-07-2019 18:05:00 19 C 13.69 g/m*3 19 C 1.6 km/h
2230 12-07-2019 18:10:00 18.8 C 13.69 g/m*3 18.8 C 0 km/h
2231 12-07-2019 18:15:00 18.6 C 12.89 g/m*3 18.6 C 4.8 km/h
2232 12-07-2019 18:20:00 18.5 C 13.45 g/m*3 18.5 C 0 km/h
2233 12-07-2019 18:25:00 18.3 C 13.29 g/m*3 18.3 C 0 km/h
2234 12-07-2019 18:30:00 18.2 C 13.52 g/m*3 18.2 C 0 km/h
2235 12-07-2019 18:35:00 18.2 C 13.52 g/m*3 18.2 C 0 km/h
2236 12-07-2019 18:40:00 17.9 C 12.83 g/m*3 17.9 C 3.2 km/h
2237 12-07-2019 18:45:00 17.7 C 12.98 g/m*3 17.7 C 3.2 km/h
2238 12-07-2019 18:50:00 17.7 C 13.13 g/m*3 17.7 C 0 km/h
2239 12-07-2019 18:55:00 17.7 C 13.28 g/m*3 17.7 C 0 km/h
2240 12-07-2019 19:00:00 17.6 C 13.05 g/m*3 17.6 C 6.4 km/h
2241 12-07-2019 19:05:00 17.5 C 12.97 g/m*3 17.5 C 9.7 km/h
2242 12-07-2019 19:10:00 17.4 C 13.04 g/m*3 17.4 C 4.8 km/h
2243 12-07-2019 19:15:00 17.4 C 12.89 g/m*3 17.4 C 3.2 km/h
2244 12-07-2019 19:20:00 17.4 C 13.04 g/m*3 17.4 C 0 km/h
2245 12-07-2019 19:25:00 17.5 C 13.12 g/m*3 17.5 C 4.8 km/h
2246 12-07-2019 19:30:00 17.4 C 12.89 g/m*3 17.4 C 9.7 km/h
2247 12-07-2019 19:35:00 17.5 C 12.97 g/m*3 17.5 C 8.1 km/h
2248 12-07-2019 19:40:00 17.6 C 13.05 g/m*3 17.6 C 6.4 km/h
2249 12-07-2019 19:45:00 17.7 C 13.28 g/m*3 17.7 C 4.8 km/h
2250 12-07-2019 19:50:00 17.8 C 13.51 g/m*3 17.8 C 0 km/h
Sensor: Nr:Datum:Temp:Abs-Feuchte:Windchill:Wind:
Aussen-T/F 2251 12-07-2019 19:55:00 17.9 C 13.59 g/m*3 17.9 C 0 km/h
2252 12-07-2019 20:00:00 17.9 C 13.74 g/m*3 17.9 C 0 km/h
2253 12-07-2019 20:05:00 17.9 C 13.74 g/m*3 17.9 C 0 km/h
2254 12-07-2019 20:10:00 18 C 13.82 g/m*3 18 C 0 km/h
2255 12-07-2019 20:15:00 18 C 13.82 g/m*3 18 C 1.6 km/h
2256 12-07-2019 20:20:00 18.2 C 13.99 g/m*3 18.2 C 3.2 km/h
2257 12-07-2019 20:25:00 18.3 C 13.76 g/m*3 18.3 C 8.1 km/h
2258 12-07-2019 20:30:00 18.5 C 13.92 g/m*3 18.5 C 3.2 km/h
2259 12-07-2019 20:35:00 18.6 C 13.85 g/m*3 18.6 C 4.8 km/h
2260 12-07-2019 20:40:00 18.6 C 13.85 g/m*3 18.6 C 3.2 km/h
2261 12-07-2019 20:45:00 18.4 C 13.53 g/m*3 18.4 C 8.1 km/h
2262 12-07-2019 20:50:00 18.3 C 13.6 g/m*3 18.3 C 4.8 km/h
2263 12-07-2019 20:55:00 18.1 C 13.29 g/m*3 18.1 C 11.3 km/h
2264 12-07-2019 21:00:00 17.9 C 13.28 g/m*3 17.9 C 3.2 km/h
2265 12-07-2019 21:05:00 17.8 C 13.2 g/m*3 17.8 C 1.6 km/h
2266 12-07-2019 21:10:00 17.7 C 13.13 g/m*3 17.7 C 12.9 km/h
2267 12-07-2019 21:15:00 17.7 C 13.28 g/m*3 17.7 C 4.8 km/h
2268 12-07-2019 21:20:00 17.6 C 13.05 g/m*3 17.6 C 3.2 km/h
2269 12-07-2019 21:25:00 17.6 C 13.2 g/m*3 17.6 C 1.6 km/h
2270 12-07-2019 21:30:00 17.5 C 12.97 g/m*3 17.5 C 3.2 km/h
2271 12-07-2019 21:35:00 17.6 C 13.2 g/m*3 17.6 C 3.2 km/h
2272 12-07-2019 21:40:00 17.5 C 13.12 g/m*3 17.5 C 9.7 km/h
2273 12-07-2019 21:45:00 17.5 C 12.82 g/m*3 17.5 C 9.7 km/h
2274 12-07-2019 21:50:00 17.6 C 12.75 g/m*3 17.6 C 16.1 km/h
2275 12-07-2019 21:55:00 17.6 C 12.9 g/m*3 17.6 C 4.8 km/h
Sensor: Nr:Datum:Temp:Abs-Feuchte:Windchill:Wind:
Aussen-T/F 2276 12-07-2019 22:00:00 17.6 C 12.9 g/m*3 17.6 C 6.4 km/h
2277 12-07-2019 22:05:00 17.5 C 12.82 g/m*3 17.5 C 3.2 km/h
2278 12-07-2019 22:10:00 17.4 C 12.75 g/m*3 17.4 C 8.1 km/h
2279 12-07-2019 22:15:00 17.4 C 12.75 g/m*3 17.4 C 17.7 km/h
2280 12-07-2019 22:20:00 17.3 C 12.67 g/m*3 17.3 C 11.3 km/h
2281 12-07-2019 22:25:00 17.4 C 12.75 g/m*3 17.4 C 8.1 km/h
2282 12-07-2019 22:30:00 17.3 C 12.67 g/m*3 17.3 C 6.4 km/h
2283 12-07-2019 22:35:00 17.2 C 12.59 g/m*3 17.2 C 11.3 km/h
2284 12-07-2019 22:40:00 17.2 C 12.59 g/m*3 17.2 C 6.4 km/h
2285 12-07-2019 22:45:00 17.2 C 12.74 g/m*3 17.2 C 4.8 km/h
2286 12-07-2019 22:50:00 17.1 C 12.66 g/m*3 17.1 C 4.8 km/h
2287 12-07-2019 22:55:00 17 C 12.59 g/m*3 17 C 3.2 km/h
2288 12-07-2019 23:00:00 16.9 C 12.37 g/m*3 16.9 C 1.6 km/h
2289 12-07-2019 23:05:00 16.9 C 12.51 g/m*3 16.9 C 0 km/h
2290 12-07-2019 23:10:00 16.8 C 12.44 g/m*3 16.8 C 1.6 km/h
2291 12-07-2019 23:15:00 16.8 C 12.58 g/m*3 16.8 C 6.4 km/h
2292 12-07-2019 23:20:00 16.7 C 12.51 g/m*3 16.7 C 3.2 km/h
2293 12-07-2019 23:25:00 16.6 C 12.43 g/m*3 16.6 C 0 km/h
2294 12-07-2019 23:30:00 16.5 C 12.5 g/m*3 16.5 C 3.2 km/h
2295 12-07-2019 23:35:00 16.4 C 12.42 g/m*3 16.4 C 1.6 km/h
2296 12-07-2019 23:40:00 16.3 C 12.35 g/m*3 16.3 C 1.6 km/h
2297 12-07-2019 23:45:00 16.3 C 12.49 g/m*3 16.3 C 0 km/h
2298 12-07-2019 23:50:00 16.2 C 12.41 g/m*3 16.2 C 0 km/h
2299 12-07-2019 23:55:00 16.2 C 12.27 g/m*3 16.2 C 1.6 km/h
2300 13-07-2019 00:00:00 16.2 C 12.27 g/m*3 16.2 C 6.4 km/h
Sensor: Nr:Datum:Temp:Abs-Feuchte:Windchill:Wind:
Aussen-T/F 2301 13-07-2019 00:05:00 16.2 C 12.14 g/m*3 16.2 C 4.8 km/h
2302 13-07-2019 00:10:00 16.2 C 12.14 g/m*3 16.2 C 1.6 km/h
2303 13-07-2019 00:15:00 16.2 C 12 g/m*3 16.2 C 1.6 km/h
2304 13-07-2019 00:20:00 16.3 C 12.07 g/m*3 16.3 C 6.4 km/h
2305 13-07-2019 00:25:00 16.4 C 12 g/m*3 16.4 C 9.7 km/h
2306 13-07-2019 00:30:00 16.4 C 12 g/m*3 16.4 C 8.1 km/h
2307 13-07-2019 00:35:00 16.6 C 12.15 g/m*3 16.6 C 1.6 km/h
2308 13-07-2019 00:40:00 16.4 C 11.86 g/m*3 16.4 C 4.8 km/h
2309 13-07-2019 00:45:00 16.4 C 12 g/m*3 16.4 C 0 km/h
2310 13-07-2019 00:50:00 16.4 C 12 g/m*3 16.4 C 4.8 km/h
2311 13-07-2019 00:55:00 16.4 C 12 g/m*3 16.4 C 4.8 km/h
2312 13-07-2019 01:00:00 16.4 C 12 g/m*3 16.4 C 4.8 km/h
2313 13-07-2019 01:05:00 16.5 C 12.08 g/m*3 16.5 C 4.8 km/h
2314 13-07-2019 01:10:00 16.5 C 12.36 g/m*3 16.5 C 9.7 km/h
2315 13-07-2019 01:15:00 16.4 C 12.28 g/m*3 16.4 C 6.4 km/h
2316 13-07-2019 01:20:00 16.3 C 12.35 g/m*3 16.3 C 4.8 km/h
2317 13-07-2019 01:25:00 16.2 C 12.41 g/m*3 16.2 C 3.2 km/h
2318 13-07-2019 01:30:00 16.1 C 12.47 g/m*3 16.1 C 4.8 km/h
2319 13-07-2019 01:35:00 16 C 12.4 g/m*3 16 C 4.8 km/h
2320 13-07-2019 01:40:00 15.9 C 12.46 g/m*3 15.9 C 1.6 km/h
2321 13-07-2019 01:45:00 15.8 C 12.38 g/m*3 15.8 C 0 km/h
2322 13-07-2019 01:50:00 15.8 C 12.52 g/m*3 15.8 C 1.6 km/h
2323 13-07-2019 01:55:00 15.7 C 12.44 g/m*3 15.7 C 3.2 km/h
2324 13-07-2019 02:00:00 15.7 C 12.44 g/m*3 15.7 C 0 km/h
2325 13-07-2019 02:05:00 15.7 C 12.44 g/m*3 15.7 C 0 km/h
Sensor: Nr:Datum:Temp:Abs-Feuchte:Windchill:Wind:
Aussen-T/F 2326 13-07-2019 02:10:00 15.6 C 12.5 g/m*3 15.6 C 1.6 km/h
2327 13-07-2019 02:15:00 15.6 C 12.5 g/m*3 15.6 C 0 km/h
2328 13-07-2019 02:20:00 15.6 C 12.5 g/m*3 15.6 C 0 km/h
2329 13-07-2019 02:25:00 15.6 C 12.5 g/m*3 15.6 C 0 km/h
2330 13-07-2019 02:30:00 15.5 C 12.43 g/m*3 15.5 C 0 km/h
2331 13-07-2019 02:35:00 15.4 C 12.35 g/m*3 15.4 C 0 km/h
2332 13-07-2019 02:40:00 15.4 C 12.35 g/m*3 15.4 C 0 km/h
2333 13-07-2019 02:45:00 15.4 C 12.35 g/m*3 15.4 C 3.2 km/h
2334 13-07-2019 02:50:00 15.4 C 12.48 g/m*3 15.4 C 0 km/h
2335 13-07-2019 02:55:00 15.3 C 12.41 g/m*3 15.3 C 1.6 km/h
2336 13-07-2019 03:00:00 15.3 C 12.41 g/m*3 15.3 C 4.8 km/h
2337 13-07-2019 03:05:00 15.3 C 12.28 g/m*3 15.3 C 0 km/h
2338 13-07-2019 03:10:00 15.3 C 12.41 g/m*3 15.3 C 1.6 km/h
2339 13-07-2019 03:15:00 15.2 C 12.33 g/m*3 15.2 C 0 km/h
2340 13-07-2019 03:20:00 15.2 C 12.33 g/m*3 15.2 C 0 km/h
2341 13-07-2019 03:25:00 15.2 C 12.33 g/m*3 15.2 C 4.8 km/h
2342 13-07-2019 03:30:00 15.1 C 12.26 g/m*3 15.1 C 8.1 km/h
2343 13-07-2019 03:35:00 15.1 C 12.26 g/m*3 15.1 C 0 km/h
2344 13-07-2019 03:40:00 15.1 C 12.26 g/m*3 15.1 C 0 km/h
2345 13-07-2019 03:45:00 15.1 C 12.26 g/m*3 15.1 C 1.6 km/h
2346 13-07-2019 03:50:00 15.1 C 12.26 g/m*3 15.1 C 1.6 km/h
2347 13-07-2019 03:55:00 15.1 C 12.26 g/m*3 15.1 C 3.2 km/h
2348 13-07-2019 04:00:00 15.1 C 12.26 g/m*3 15.1 C 1.6 km/h
2349 13-07-2019 04:05:00 15.1 C 12.26 g/m*3 15.1 C 0 km/h
2350 13-07-2019 04:10:00 15.1 C 12.26 g/m*3 15.1 C 8.1 km/h
Sensor: Nr:Datum:Temp:Abs-Feuchte:Windchill:Wind:
Aussen-T/F 2351 13-07-2019 04:15:00 15 C 12.18 g/m*3 15 C 1.6 km/h
2352 13-07-2019 04:20:00 15 C 12.18 g/m*3 15 C 1.6 km/h
2353 13-07-2019 04:25:00 15 C 12.18 g/m*3 15 C 0 km/h
2354 13-07-2019 04:30:00 15 C 12.18 g/m*3 15 C 0 km/h
2355 13-07-2019 04:35:00 15 C 12.18 g/m*3 15 C 1.6 km/h
2356 13-07-2019 04:40:00 14.9 C 12.11 g/m*3 14.9 C 1.6 km/h
2357 13-07-2019 04:45:00 14.9 C 12.11 g/m*3 14.9 C 4.8 km/h
2358 13-07-2019 04:50:00 14.9 C 12.11 g/m*3 14.9 C 1.6 km/h
2359 13-07-2019 04:55:00 14.9 C 12.24 g/m*3 14.9 C 0 km/h
2360 13-07-2019 05:00:00 15 C 12.31 g/m*3 15 C 0 km/h
2361 13-07-2019 05:05:00 15 C 12.31 g/m*3 15 C 0 km/h
2362 13-07-2019 05:10:00 14.9 C 12.24 g/m*3 14.9 C 0 km/h
2363 13-07-2019 05:15:00 14.9 C 12.24 g/m*3 14.9 C 0 km/h
2364 13-07-2019 05:20:00 14.9 C 12.24 g/m*3 14.9 C 0 km/h
2365 13-07-2019 05:25:00 14.9 C 12.24 g/m*3 14.9 C 0 km/h
2366 13-07-2019 05:30:00 14.9 C 12.24 g/m*3 14.9 C 0 km/h
2367 13-07-2019 05:35:00 14.9 C 12.24 g/m*3 14.9 C 0 km/h
2368 13-07-2019 05:40:00 14.9 C 12.24 g/m*3 14.9 C 0 km/h
2369 13-07-2019 05:45:00 14.9 C 12.24 g/m*3 14.9 C 0 km/h
2370 13-07-2019 05:50:00 14.9 C 12.24 g/m*3 14.9 C 0 km/h
2371 13-07-2019 05:55:00 14.8 C 12.16 g/m*3 14.8 C 0 km/h
2372 13-07-2019 06:00:00 14.8 C 12.16 g/m*3 14.8 C 0 km/h
2373 13-07-2019 06:05:00 14.8 C 12.16 g/m*3 14.8 C 0 km/h
2374 13-07-2019 06:10:00 14.8 C 12.16 g/m*3 14.8 C 0 km/h
2375 13-07-2019 06:15:00 14.8 C 12.16 g/m*3 14.8 C 1.6 km/h
Sensor: Nr:Datum:Temp:Abs-Feuchte:Windchill:Wind:
Aussen-T/F 2376 13-07-2019 06:20:00 14.8 C 12.16 g/m*3 14.8 C 0 km/h
2377 13-07-2019 06:25:00 14.8 C 12.16 g/m*3 14.8 C 4.8 km/h
2378 13-07-2019 06:30:00 14.7 C 12.09 g/m*3 14.7 C 0 km/h
2379 13-07-2019 06:35:00 14.7 C 12.09 g/m*3 14.7 C 3.2 km/h
2380 13-07-2019 06:40:00 14.7 C 12.09 g/m*3 14.7 C 0 km/h
2381 13-07-2019 06:45:00 14.7 C 12.09 g/m*3 14.7 C 0 km/h
2382 13-07-2019 06:50:00 14.7 C 12.09 g/m*3 14.7 C 1.6 km/h
2383 13-07-2019 06:55:00 14.7 C 12.09 g/m*3 14.7 C 3.2 km/h
2384 13-07-2019 07:00:00 14.7 C 12.09 g/m*3 14.7 C 4.8 km/h
2385 13-07-2019 07:05:00 14.7 C 12.09 g/m*3 14.7 C 3.2 km/h
2386 13-07-2019 07:10:00 14.7 C 12.09 g/m*3 14.7 C 0 km/h
2387 13-07-2019 07:15:00 14.8 C 12.16 g/m*3 14.8 C 0 km/h
2388 13-07-2019 07:20:00 14.8 C 12.16 g/m*3 14.8 C 0 km/h
2389 13-07-2019 07:25:00 14.8 C 12.16 g/m*3 14.8 C 1.6 km/h
2390 13-07-2019 07:30:00 14.9 C 12.24 g/m*3 14.9 C 3.2 km/h
2391 13-07-2019 07:35:00 14.9 C 12.24 g/m*3 14.9 C 0 km/h
2392 13-07-2019 07:40:00 15.1 C 12.39 g/m*3 15.1 C 0 km/h
2393 13-07-2019 07:45:00 15.2 C 12.59 g/m*3 15.2 C 0 km/h
2394 13-07-2019 07:50:00 15.3 C 12.67 g/m*3 15.3 C 0 km/h
2395 13-07-2019 07:55:00 15.3 C 12.54 g/m*3 15.3 C 0 km/h
2396 13-07-2019 08:00:00 15.4 C 12.61 g/m*3 15.4 C 0 km/h
2397 13-07-2019 08:05:00 15.5 C 12.82 g/m*3 15.5 C 4.8 km/h
2398 13-07-2019 08:10:00 15.6 C 12.9 g/m*3 15.6 C 0 km/h
2399 13-07-2019 08:15:00 15.6 C 12.77 g/m*3 15.6 C 4.8 km/h
2400 13-07-2019 08:20:00 15.4 C 12.61 g/m*3 15.4 C 4.8 km/h
Sensor: Nr:Datum:Temp:Abs-Feuchte:Windchill:Wind:
Aussen-T/F 2401 13-07-2019 08:25:00 15.5 C 12.69 g/m*3 15.5 C 0 km/h
2402 13-07-2019 08:30:00 15.6 C 12.77 g/m*3 15.6 C 0 km/h
2403 13-07-2019 08:35:00 15.7 C 12.84 g/m*3 15.7 C 0 km/h
2404 13-07-2019 08:40:00 15.7 C 12.84 g/m*3 15.7 C 0 km/h
2405 13-07-2019 08:45:00 15.8 C 12.92 g/m*3 15.8 C 0 km/h
2406 13-07-2019 08:50:00 15.8 C 12.92 g/m*3 15.8 C 0 km/h
2407 13-07-2019 08:55:00 15.8 C 12.92 g/m*3 15.8 C 0 km/h
2408 13-07-2019 09:00:00 15.7 C 12.84 g/m*3 15.7 C 0 km/h
2409 13-07-2019 09:05:00 15.7 C 12.84 g/m*3 15.7 C 0 km/h
2410 13-07-2019 09:10:00 15.7 C 12.84 g/m*3 15.7 C 0 km/h
2411 13-07-2019 09:15:00 15.7 C 12.84 g/m*3 15.7 C 0 km/h
2412 13-07-2019 09:20:00 15.8 C 12.92 g/m*3 15.8 C 0 km/h
2413 13-07-2019 09:25:00 15.9 C 13 g/m*3 15.9 C 0 km/h
2414 13-07-2019 09:30:00 16 C 13.08 g/m*3 16 C 3.2 km/h
2415 13-07-2019 09:35:00 15.9 C 12.87 g/m*3 15.9 C 4.8 km/h
2416 13-07-2019 09:40:00 15.8 C 12.79 g/m*3 15.8 C 1.6 km/h
2417 13-07-2019 09:45:00 15.9 C 12.87 g/m*3 15.9 C 0 km/h
2418 13-07-2019 09:50:00 15.9 C 12.87 g/m*3 15.9 C 1.6 km/h
2419 13-07-2019 09:55:00 16 C 12.81 g/m*3 16 C 6.4 km/h
2420 13-07-2019 10:00:00 16.1 C 12.75 g/m*3 16.1 C 4.8 km/h
2421 13-07-2019 10:05:00 16.1 C 12.75 g/m*3 16.1 C 0 km/h
2422 13-07-2019 10:10:00 16.2 C 12.82 g/m*3 16.2 C 1.6 km/h
2423 13-07-2019 10:15:00 16.3 C 12.76 g/m*3 16.3 C 8.1 km/h
2424 13-07-2019 10:20:00 16.4 C 12.7 g/m*3 16.4 C 3.2 km/h
2425 13-07-2019 10:25:00 16.6 C 12.71 g/m*3 16.6 C 6.4 km/h
Sensor: Nr:Datum:Temp:Abs-Feuchte:Windchill:Wind:
Aussen-T/F 2426 13-07-2019 10:30:00 16.7 C 12.79 g/m*3 16.7 C 3.2 km/h
2427 13-07-2019 10:35:00 16.7 C 12.65 g/m*3 16.7 C 12.9 km/h
2428 13-07-2019 10:40:00 16.8 C 12.72 g/m*3 16.8 C 11.3 km/h
2429 13-07-2019 10:45:00 16.7 C 12.79 g/m*3 16.7 C 6.4 km/h
2430 13-07-2019 10:50:00 16.7 C 12.93 g/m*3 16.7 C 8.1 km/h
2431 13-07-2019 10:55:00 16.7 C 12.93 g/m*3 16.7 C 4.8 km/h
2432 13-07-2019 11:00:00 16.8 C 13.15 g/m*3 16.8 C 1.6 km/h
2433 13-07-2019 11:05:00 17 C 13.31 g/m*3 17 C 1.6 km/h
2434 13-07-2019 11:10:00 17 C 13.02 g/m*3 17 C 1.6 km/h
2435 13-07-2019 11:15:00 17.1 C 13.1 g/m*3 17.1 C 0 km/h
2436 13-07-2019 11:20:00 17.3 C 13.26 g/m*3 17.3 C 1.6 km/h
2437 13-07-2019 11:25:00 17.3 C 12.96 g/m*3 17.3 C 11.3 km/h
2438 13-07-2019 11:30:00 17.5 C 13.12 g/m*3 17.5 C 11.3 km/h
2439 13-07-2019 11:35:00 17.7 C 13.28 g/m*3 17.7 C 6.4 km/h
2440 13-07-2019 11:40:00 17.9 C 13.28 g/m*3 17.9 C 6.4 km/h
2441 13-07-2019 11:45:00 18.1 C 13.29 g/m*3 18.1 C 8.1 km/h
2442 13-07-2019 11:50:00 18.2 C 13.21 g/m*3 18.2 C 9.7 km/h
2443 13-07-2019 11:55:00 18.3 C 13.13 g/m*3 18.3 C 8.1 km/h
2444 13-07-2019 12:00:00 18.4 C 13.21 g/m*3 18.4 C 4.8 km/h
2445 13-07-2019 12:05:00 18.4 C 12.9 g/m*3 18.4 C 4.8 km/h
2446 13-07-2019 12:10:00 18.4 C 12.9 g/m*3 18.4 C 12.9 km/h
2447 13-07-2019 12:15:00 18.4 C 12.9 g/m*3 18.4 C 6.4 km/h
2448 13-07-2019 12:20:00 18.5 C 13.13 g/m*3 18.5 C 3.2 km/h
2449 13-07-2019 12:25:00 18.7 C 12.97 g/m*3 18.7 C 4.8 km/h
2450 13-07-2019 12:30:00 18.8 C 13.21 g/m*3 18.8 C 3.2 km/h
Sensor: Nr:Datum:Temp:Abs-Feuchte:Windchill:Wind:
Aussen-T/F 2451 13-07-2019 12:35:00 18.9 C 13.12 g/m*3 18.9 C 0 km/h
2452 13-07-2019 12:40:00 19 C 13.2 g/m*3 19 C 1.6 km/h
2453 13-07-2019 12:45:00 19.1 C 13.11 g/m*3 19.1 C 4.8 km/h
2454 13-07-2019 12:50:00 19.2 C 13.19 g/m*3 19.2 C 4.8 km/h
2455 13-07-2019 12:55:00 19.3 C 13.27 g/m*3 19.3 C 4.8 km/h
2456 13-07-2019 13:00:00 19.4 C 13.01 g/m*3 19.4 C 6.4 km/h
2457 13-07-2019 13:05:00 19.4 C 13.18 g/m*3 19.4 C 8.1 km/h
2458 13-07-2019 13:10:00 19.4 C 12.85 g/m*3 19.4 C 8.1 km/h
2459 13-07-2019 13:15:00 19.7 C 13.25 g/m*3 19.7 C 6.4 km/h
2460 13-07-2019 13:20:00 19.9 C 13.06 g/m*3 19.9 C 4.8 km/h
2461 13-07-2019 13:25:00 19.9 C 12.71 g/m*3 19.9 C 16.1 km/h
2462 13-07-2019 13:30:00 19.8 C 12.98 g/m*3 19.8 C 16.1 km/h
2463 13-07-2019 13:35:00 19.7 C 12.74 g/m*3 19.7 C 11.3 km/h
2464 13-07-2019 13:40:00 19.6 C 12.66 g/m*3 19.6 C 8.1 km/h
2465 13-07-2019 13:45:00 19.7 C 12.91 g/m*3 19.7 C 8.1 km/h
2466 13-07-2019 13:50:00 19.9 C 12.54 g/m*3 19.9 C 17.7 km/h
2467 13-07-2019 13:55:00 20.3 C 13.01 g/m*3 20.3 C 6.4 km/h
2468 13-07-2019 14:00:00 20.7 C 12.78 g/m*3 20.7 C 14.5 km/h
2469 13-07-2019 14:05:00 20.7 C 12.96 g/m*3 20.7 C 11.3 km/h
2470 13-07-2019 14:10:00 20.8 C 13.22 g/m*3 20.8 C 9.7 km/h
2471 13-07-2019 14:15:00 20.9 C 12.57 g/m*3 20.9 C 17.7 km/h
2472 13-07-2019 14:20:00 21.2 C 12.79 g/m*3 21.2 C 14.5 km/h
2473 13-07-2019 14:25:00 21.3 C 12.68 g/m*3 21.3 C 12.9 km/h
2474 13-07-2019 14:30:00 21.4 C 12.94 g/m*3 21.4 C 9.7 km/h
2475 13-07-2019 14:35:00 21.6 C 12.52 g/m*3 21.6 C 14.5 km/h
Sensor: Nr:Datum:Temp:Abs-Feuchte:Windchill:Wind:
Aussen-T/F 2476 13-07-2019 14:40:00 21.7 C 12.59 g/m*3 21.7 C 11.3 km/h
2477 13-07-2019 14:45:00 21.6 C 12.52 g/m*3 21.6 C 14.5 km/h
2478 13-07-2019 14:50:00 21.2 C 12.97 g/m*3 21.2 C 16.1 km/h
2479 13-07-2019 14:55:00 20.7 C 12.96 g/m*3 20.7 C 11.3 km/h
2480 13-07-2019 15:00:00 20.4 C 13.09 g/m*3 20.4 C 11.3 km/h
2481 13-07-2019 15:05:00 20.4 C 13.27 g/m*3 20.4 C 8.1 km/h
2482 13-07-2019 15:10:00 20.6 C 13.24 g/m*3 20.6 C 4.8 km/h
2483 13-07-2019 15:15:00 20.8 C 13.04 g/m*3 20.8 C 17.7 km/h
2484 13-07-2019 15:20:00 20.9 C 12.93 g/m*3 20.9 C 24.1 km/h
2485 13-07-2019 15:25:00 21 C 13.37 g/m*3 21 C 20.9 km/h
2486 13-07-2019 15:30:00 21.3 C 13.61 g/m*3 21.3 C 12.9 km/h
2487 13-07-2019 15:35:00 21.6 C 13.28 g/m*3 21.6 C 11.3 km/h
2488 13-07-2019 15:40:00 21.8 C 12.85 g/m*3 21.8 C 14.5 km/h
2489 13-07-2019 15:45:00 22 C 13.2 g/m*3 22 C 16.1 km/h
2490 13-07-2019 15:50:00 21.8 C 13.05 g/m*3 21.8 C 14.5 km/h
2491 13-07-2019 15:55:00 21.6 C 12.9 g/m*3 21.6 C 16.1 km/h
2492 13-07-2019 16:00:00 21.5 C 12.82 g/m*3 21.5 C 16.1 km/h
2493 13-07-2019 16:05:00 21.9 C 13.31 g/m*3 21.9 C 22.5 km/h
2494 13-07-2019 16:10:00 21.8 C 12.66 g/m*3 21.8 C 19.3 km/h
2495 13-07-2019 16:15:00 21.3 C 12.49 g/m*3 21.3 C 14.5 km/h
2496 13-07-2019 16:20:00 20.8 C 12.31 g/m*3 20.8 C 16.1 km/h
2497 13-07-2019 16:25:00 20.6 C 12.35 g/m*3 20.6 C 11.3 km/h
2498 13-07-2019 16:30:00 20.7 C 12.42 g/m*3 20.7 C 16.1 km/h
2499 13-07-2019 16:35:00 20.6 C 12.35 g/m*3 20.6 C 11.3 km/h
2500 13-07-2019 16:40:00 20.4 C 12.38 g/m*3 20.4 C 4.8 km/h
Sensor: Nr:Datum:Temp:Abs-Feuchte:Windchill:Wind:
Aussen-T/F 2501 13-07-2019 16:45:00 20.4 C 12.38 g/m*3 20.4 C 9.7 km/h
2502 13-07-2019 16:50:00 20.4 C 12.56 g/m*3 20.4 C 9.7 km/h
2503 13-07-2019 16:55:00 20.5 C 12.63 g/m*3 20.5 C 9.7 km/h
2504 13-07-2019 17:00:00 20.6 C 12.71 g/m*3 20.6 C 8.1 km/h
2505 13-07-2019 17:05:00 20.7 C 12.42 g/m*3 20.7 C 16.1 km/h
2506 13-07-2019 17:10:00 20.8 C 12.67 g/m*3 20.8 C 8.1 km/h
2507 13-07-2019 17:15:00 21 C 12.64 g/m*3 21 C 9.7 km/h
2508 13-07-2019 17:20:00 21.1 C 12.34 g/m*3 21.1 C 17.7 km/h
2509 13-07-2019 17:25:00 21.3 C 12.86 g/m*3 21.3 C 12.9 km/h
2510 13-07-2019 17:30:00 21.9 C 13.31 g/m*3 21.9 C 9.7 km/h
2511 13-07-2019 17:35:00 22.5 C 13.38 g/m*3 22.5 C 9.7 km/h
2512 13-07-2019 17:40:00 22.9 C 13.28 g/m*3 22.9 C 11.3 km/h
2513 13-07-2019 17:45:00 23.2 C 13.31 g/m*3 23.2 C 14.5 km/h
2514 13-07-2019 17:50:00 23.2 C 13.1 g/m*3 23.2 C 8.1 km/h
2515 13-07-2019 17:55:00 22.9 C 12.88 g/m*3 22.9 C 14.5 km/h
2516 13-07-2019 18:00:00 22.6 C 12.86 g/m*3 22.6 C 9.7 km/h
2517 13-07-2019 18:05:00 22.2 C 12.76 g/m*3 22.2 C 11.3 km/h
2518 13-07-2019 18:10:00 22.2 C 12.76 g/m*3 22.2 C 12.9 km/h
2519 13-07-2019 18:15:00 22.3 C 12.83 g/m*3 22.3 C 11.3 km/h
2520 13-07-2019 18:20:00 22.4 C 12.51 g/m*3 22.4 C 9.7 km/h
2521 13-07-2019 18:25:00 22.3 C 12.64 g/m*3 22.3 C 6.4 km/h
2522 13-07-2019 18:30:00 22.2 C 12.76 g/m*3 22.2 C 11.3 km/h
2523 13-07-2019 18:35:00 22.2 C 12.57 g/m*3 22.2 C 8.1 km/h
2524 13-07-2019 18:40:00 22.2 C 12.57 g/m*3 22.2 C 11.3 km/h
2525 13-07-2019 18:45:00 22.3 C 12.83 g/m*3 22.3 C 12.9 km/h
Sensor: Nr:Datum:Temp:Abs-Feuchte:Windchill:Wind:
Aussen-T/F 2526 13-07-2019 18:50:00 22.7 C 12.93 g/m*3 22.7 C 12.9 km/h
2527 13-07-2019 18:55:00 23 C 12.95 g/m*3 23 C 9.7 km/h
2528 13-07-2019 19:00:00 23.2 C 13.1 g/m*3 23.2 C 11.3 km/h
2529 13-07-2019 19:05:00 23.3 C 12.75 g/m*3 23.3 C 9.7 km/h
2530 13-07-2019 19:10:00 23.2 C 12.89 g/m*3 23.2 C 9.7 km/h
2531 13-07-2019 19:15:00 23.1 C 13.02 g/m*3 23.1 C 12.9 km/h
2532 13-07-2019 19:20:00 23 C 12.74 g/m*3 23 C 9.7 km/h
2533 13-07-2019 19:25:00 22.9 C 12.88 g/m*3 22.9 C 6.4 km/h
2534 13-07-2019 19:30:00 22.8 C 12.8 g/m*3 22.8 C 8.1 km/h
2535 13-07-2019 19:35:00 22.6 C 12.46 g/m*3 22.6 C 11.3 km/h
2536 13-07-2019 19:40:00 22.4 C 12.51 g/m*3 22.4 C 4.8 km/h
2537 13-07-2019 19:45:00 22.3 C 12.64 g/m*3 22.3 C 6.4 km/h
2538 13-07-2019 19:50:00 22 C 12.62 g/m*3 22 C 6.4 km/h
2539 13-07-2019 19:55:00 21.7 C 12.4 g/m*3 21.7 C 11.3 km/h
2540 13-07-2019 20:00:00 21.3 C 12.49 g/m*3 21.3 C 9.7 km/h
2541 13-07-2019 20:05:00 21.1 C 12.53 g/m*3 21.1 C 12.9 km/h
2542 13-07-2019 20:10:00 20.8 C 12.49 g/m*3 20.8 C 8.1 km/h
2543 13-07-2019 20:15:00 20.7 C 12.42 g/m*3 20.7 C 11.3 km/h
2544 13-07-2019 20:20:00 20.6 C 12.53 g/m*3 20.6 C 8.1 km/h
2545 13-07-2019 20:25:00 20.4 C 12.38 g/m*3 20.4 C 8.1 km/h
2546 13-07-2019 20:30:00 20.4 C 12.56 g/m*3 20.4 C 4.8 km/h
2547 13-07-2019 20:35:00 20.3 C 12.66 g/m*3 20.3 C 8.1 km/h
2548 13-07-2019 20:40:00 20.2 C 12.41 g/m*3 20.2 C 8.1 km/h
2549 13-07-2019 20:45:00 20 C 12.27 g/m*3 20 C 11.3 km/h
2550 13-07-2019 20:50:00 19.9 C 12.37 g/m*3 19.9 C 6.4 km/h
Sensor: Nr:Datum:Temp:Abs-Feuchte:Windchill:Wind:
Aussen-T/F 2551 13-07-2019 20:55:00 19.8 C 12.3 g/m*3 19.8 C 4.8 km/h
2552 13-07-2019 21:00:00 19.7 C 12.23 g/m*3 19.7 C 9.7 km/h
2553 13-07-2019 21:05:00 19.6 C 12.32 g/m*3 19.6 C 6.4 km/h
2554 13-07-2019 21:10:00 19.6 C 12.66 g/m*3 19.6 C 0 km/h
2555 13-07-2019 21:15:00 19.5 C 12.75 g/m*3 19.5 C 1.6 km/h
2556 13-07-2019 21:20:00 19.4 C 13.01 g/m*3 19.4 C 1.6 km/h
2557 13-07-2019 21:25:00 19.3 C 13.1 g/m*3 19.3 C 1.6 km/h
2558 13-07-2019 21:30:00 19.1 C 12.79 g/m*3 19.1 C 1.6 km/h
2559 13-07-2019 21:35:00 18.9 C 12.8 g/m*3 18.9 C 8.1 km/h
2560 13-07-2019 21:40:00 18.9 C 12.8 g/m*3 18.9 C 4.8 km/h
2561 13-07-2019 21:45:00 18.8 C 12.72 g/m*3 18.8 C 6.4 km/h
2562 13-07-2019 21:50:00 18.8 C 12.72 g/m*3 18.8 C 3.2 km/h
2563 13-07-2019 21:55:00 18.8 C 12.88 g/m*3 18.8 C 8.1 km/h
2564 13-07-2019 22:00:00 18.8 C 12.88 g/m*3 18.8 C 9.7 km/h
2565 13-07-2019 22:05:00 18.8 C 13.05 g/m*3 18.8 C 8.1 km/h
2566 13-07-2019 22:10:00 18.7 C 13.13 g/m*3 18.7 C 9.7 km/h
2567 13-07-2019 22:15:00 18.6 C 13.37 g/m*3 18.6 C 0 km/h
2568 13-07-2019 22:20:00 18.5 C 13.45 g/m*3 18.5 C 0 km/h
2569 13-07-2019 22:25:00 18.3 C 13.45 g/m*3 18.3 C 0 km/h
2570 13-07-2019 22:30:00 18.2 C 13.37 g/m*3 18.2 C 0 km/h
2571 13-07-2019 22:35:00 18 C 13.36 g/m*3 18 C 1.6 km/h
2572 13-07-2019 22:40:00 17.8 C 13.2 g/m*3 17.8 C 0 km/h
2573 13-07-2019 22:45:00 17.7 C 13.13 g/m*3 17.7 C 0 km/h
2574 13-07-2019 22:50:00 17.7 C 13.28 g/m*3 17.7 C 0 km/h
2575 13-07-2019 22:55:00 17.6 C 13.2 g/m*3 17.6 C 0 km/h
Sensor: Nr:Datum:Temp:Abs-Feuchte:Windchill:Wind:
Aussen-T/F 2576 13-07-2019 23:00:00 17.4 C 13.04 g/m*3 17.4 C 0 km/h
2577 13-07-2019 23:05:00 17.4 C 13.19 g/m*3 17.4 C 0 km/h
2578 13-07-2019 23:10:00 17.3 C 13.11 g/m*3 17.3 C 0 km/h
2579 13-07-2019 23:15:00 17.3 C 13.11 g/m*3 17.3 C 0 km/h
2580 13-07-2019 23:20:00 17.3 C 13.26 g/m*3 17.3 C 0 km/h
2581 13-07-2019 23:25:00 17.2 C 13.18 g/m*3 17.2 C 0 km/h
2582 13-07-2019 23:30:00 17.2 C 13.18 g/m*3 17.2 C 0 km/h
2583 13-07-2019 23:35:00 17.2 C 13.18 g/m*3 17.2 C 0 km/h
2584 13-07-2019 23:40:00 17.1 C 13.1 g/m*3 17.1 C 0 km/h
2585 13-07-2019 23:45:00 17.1 C 13.1 g/m*3 17.1 C 0 km/h
2586 13-07-2019 23:50:00 17.1 C 13.1 g/m*3 17.1 C 0 km/h
2587 13-07-2019 23:55:00 17 C 13.02 g/m*3 17 C 3.2 km/h
2588 14-07-2019 00:00:00 16.9 C 12.94 g/m*3 16.9 C 0 km/h
2589 14-07-2019 00:05:00 16.9 C 12.94 g/m*3 16.9 C 0 km/h
2590 14-07-2019 00:10:00 16.9 C 12.94 g/m*3 16.9 C 1.6 km/h
2591 14-07-2019 00:15:00 16.9 C 12.94 g/m*3 16.9 C 3.2 km/h
2592 14-07-2019 00:20:00 16.9 C 12.8 g/m*3 16.9 C 3.2 km/h
2593 14-07-2019 00:25:00 16.9 C 12.8 g/m*3 16.9 C 0 km/h
2594 14-07-2019 00:30:00 17 C 13.02 g/m*3 17 C 0 km/h
2595 14-07-2019 00:35:00 17 C 13.02 g/m*3 17 C 0 km/h
2596 14-07-2019 00:40:00 17 C 13.02 g/m*3 17 C 1.6 km/h
2597 14-07-2019 00:45:00 17 C 12.88 g/m*3 17 C 1.6 km/h
2598 14-07-2019 00:50:00 17 C 13.02 g/m*3 17 C 0 km/h
2599 14-07-2019 00:55:00 17 C 13.02 g/m*3 17 C 1.6 km/h
2600 14-07-2019 01:00:00 16.9 C 12.94 g/m*3 16.9 C 0 km/h
Sensor: Nr:Datum:Temp:Abs-Feuchte:Windchill:Wind:
Aussen-T/F 2601 14-07-2019 01:05:00 16.9 C 12.8 g/m*3 16.9 C 3.2 km/h
2602 14-07-2019 01:10:00 16.9 C 12.8 g/m*3 16.9 C 0 km/h
2603 14-07-2019 01:15:00 17 C 12.88 g/m*3 17 C 0 km/h
2604 14-07-2019 01:20:00 17 C 12.88 g/m*3 17 C 3.2 km/h
2605 14-07-2019 01:25:00 17 C 12.88 g/m*3 17 C 1.6 km/h
2606 14-07-2019 01:30:00 17 C 12.73 g/m*3 17 C 0 km/h
2607 14-07-2019 01:35:00 17.1 C 12.81 g/m*3 17.1 C 1.6 km/h
2608 14-07-2019 01:40:00 17 C 12.73 g/m*3 17 C 4.8 km/h
2609 14-07-2019 01:45:00 17 C 12.73 g/m*3 17 C 11.3 km/h
2610 14-07-2019 01:50:00 17 C 12.73 g/m*3 17 C 6.4 km/h
2611 14-07-2019 01:55:00 16.9 C 12.66 g/m*3 16.9 C 9.7 km/h
2612 14-07-2019 02:00:00 16.9 C 12.66 g/m*3 16.9 C 8.1 km/h
2613 14-07-2019 02:05:00 16.8 C 12.72 g/m*3 16.8 C 6.4 km/h
2614 14-07-2019 02:10:00 16.7 C 12.65 g/m*3 16.7 C 9.7 km/h
2615 14-07-2019 02:15:00 16.6 C 12.57 g/m*3 16.6 C 12.9 km/h
2616 14-07-2019 02:20:00 16.5 C 12.5 g/m*3 16.5 C 6.4 km/h
2617 14-07-2019 02:25:00 16.4 C 12.42 g/m*3 16.4 C 3.2 km/h
2618 14-07-2019 02:30:00 16.3 C 12.49 g/m*3 16.3 C 8.1 km/h
2619 14-07-2019 02:35:00 16.2 C 12.41 g/m*3 16.2 C 8.1 km/h
2620 14-07-2019 02:40:00 16.1 C 12.34 g/m*3 16.1 C 3.2 km/h
2621 14-07-2019 02:45:00 16.1 C 12.47 g/m*3 16.1 C 0 km/h
2622 14-07-2019 02:50:00 15.9 C 12.32 g/m*3 15.9 C 4.8 km/h
2623 14-07-2019 02:55:00 15.8 C 12.25 g/m*3 15.8 C 1.6 km/h
2624 14-07-2019 03:00:00 15.8 C 12.25 g/m*3 15.8 C 3.2 km/h
2625 14-07-2019 03:05:00 15.7 C 12.18 g/m*3 15.7 C 0 km/h
Sensor: Nr:Datum:Temp:Abs-Feuchte:Windchill:Wind:
Aussen-T/F 2626 14-07-2019 03:10:00 15.7 C 12.18 g/m*3 15.7 C 1.6 km/h
2627 14-07-2019 03:15:00 15.7 C 12.18 g/m*3 15.7 C 3.2 km/h
2628 14-07-2019 03:20:00 15.5 C 12.03 g/m*3 15.5 C 8.1 km/h
2629 14-07-2019 03:25:00 15.4 C 11.96 g/m*3 15.4 C 4.8 km/h
2630 14-07-2019 03:30:00 15.3 C 11.75 g/m*3 15.3 C 4.8 km/h
2631 14-07-2019 03:35:00 15.3 C 11.88 g/m*3 15.3 C 4.8 km/h
2632 14-07-2019 03:40:00 15.3 C 11.88 g/m*3 15.3 C 6.4 km/h
2633 14-07-2019 03:45:00 15.2 C 11.81 g/m*3 15.2 C 3.2 km/h
2634 14-07-2019 03:50:00 15.2 C 11.81 g/m*3 15.2 C 8.1 km/h
2635 14-07-2019 03:55:00 15.2 C 11.81 g/m*3 15.2 C 0 km/h
2636 14-07-2019 04:00:00 15.2 C 11.81 g/m*3 15.2 C 0 km/h
2637 14-07-2019 04:05:00 15.2 C 11.81 g/m*3 15.2 C 3.2 km/h
2638 14-07-2019 04:10:00 15.1 C 11.74 g/m*3 15.1 C 0 km/h
2639 14-07-2019 04:15:00 15.1 C 11.74 g/m*3 15.1 C 1.6 km/h
2640 14-07-2019 04:20:00 15.1 C 11.74 g/m*3 15.1 C 4.8 km/h
2641 14-07-2019 04:25:00 15.1 C 11.74 g/m*3 15.1 C 4.8 km/h
2642 14-07-2019 04:30:00 15.1 C 11.74 g/m*3 15.1 C 4.8 km/h
2643 14-07-2019 04:35:00 15.1 C 11.74 g/m*3 15.1 C 6.4 km/h
2644 14-07-2019 04:40:00 15.1 C 11.74 g/m*3 15.1 C 6.4 km/h
2645 14-07-2019 04:45:00 15.1 C 11.74 g/m*3 15.1 C 3.2 km/h
2646 14-07-2019 04:50:00 15.1 C 11.61 g/m*3 15.1 C 1.6 km/h
2647 14-07-2019 04:55:00 15.1 C 11.74 g/m*3 15.1 C 1.6 km/h
2648 14-07-2019 05:00:00 15 C 11.54 g/m*3 15 C 1.6 km/h
2649 14-07-2019 05:05:00 15 C 11.54 g/m*3 15 C 8.1 km/h
2650 14-07-2019 05:10:00 14.9 C 11.47 g/m*3 14.9 C 3.2 km/h
Sensor: Nr:Datum:Temp:Abs-Feuchte:Windchill:Wind:
Aussen-T/F 2651 14-07-2019 05:15:00 14.9 C 11.47 g/m*3 14.9 C 6.4 km/h
2652 14-07-2019 05:20:00 14.9 C 11.47 g/m*3 14.9 C 11.3 km/h
2653 14-07-2019 05:25:00 14.9 C 11.47 g/m*3 14.9 C 1.6 km/h
2654 14-07-2019 05:30:00 14.8 C 11.4 g/m*3 14.8 C 1.6 km/h
2655 14-07-2019 05:35:00 14.8 C 11.4 g/m*3 14.8 C 1.6 km/h
2656 14-07-2019 05:40:00 14.8 C 11.4 g/m*3 14.8 C 1.6 km/h
2657 14-07-2019 05:45:00 14.8 C 11.53 g/m*3 14.8 C 4.8 km/h
2658 14-07-2019 05:50:00 14.7 C 11.46 g/m*3 14.7 C 0 km/h
2659 14-07-2019 05:55:00 14.7 C 11.46 g/m*3 14.7 C 0 km/h
2660 14-07-2019 06:00:00 14.7 C 11.46 g/m*3 14.7 C 6.4 km/h
2661 14-07-2019 06:05:00 14.7 C 11.46 g/m*3 14.7 C 6.4 km/h
2662 14-07-2019 06:10:00 14.7 C 11.46 g/m*3 14.7 C 4.8 km/h
2663 14-07-2019 06:15:00 14.7 C 11.46 g/m*3 14.7 C 1.6 km/h
2664 14-07-2019 06:20:00 14.7 C 11.46 g/m*3 14.7 C 4.8 km/h
2665 14-07-2019 06:25:00 14.7 C 11.46 g/m*3 14.7 C 4.8 km/h
2666 14-07-2019 06:30:00 14.7 C 11.46 g/m*3 14.7 C 0 km/h
2667 14-07-2019 06:35:00 14.8 C 11.53 g/m*3 14.8 C 0 km/h
2668 14-07-2019 06:40:00 14.8 C 11.53 g/m*3 14.8 C 3.2 km/h
2669 14-07-2019 06:45:00 14.7 C 11.46 g/m*3 14.7 C 1.6 km/h
2670 14-07-2019 06:50:00 14.7 C 11.46 g/m*3 14.7 C 0 km/h
2671 14-07-2019 06:55:00 14.7 C 11.33 g/m*3 14.7 C 4.8 km/h
2672 14-07-2019 07:00:00 14.7 C 11.08 g/m*3 14.7 C 6.4 km/h
2673 14-07-2019 07:05:00 14.7 C 11.08 g/m*3 14.7 C 3.2 km/h
2674 14-07-2019 07:10:00 14.7 C 11.08 g/m*3 14.7 C 3.2 km/h
2675 14-07-2019 07:15:00 14.8 C 11.15 g/m*3 14.8 C 0 km/h
Sensor: Nr:Datum:Temp:Abs-Feuchte:Windchill:Wind:
Aussen-T/F 2676 14-07-2019 07:20:00 14.8 C 11.15 g/m*3 14.8 C 0 km/h
2677 14-07-2019 07:25:00 14.8 C 11.02 g/m*3 14.8 C 3.2 km/h
2678 14-07-2019 07:30:00 14.9 C 11.09 g/m*3 14.9 C 1.6 km/h
2679 14-07-2019 07:35:00 14.9 C 10.96 g/m*3 14.9 C 3.2 km/h
2680 14-07-2019 07:40:00 14.9 C 10.83 g/m*3 14.9 C 1.6 km/h
2681 14-07-2019 07:45:00 15 C 11.03 g/m*3 15 C 0 km/h
2682 14-07-2019 07:50:00 15.1 C 11.09 g/m*3 15.1 C 1.6 km/h
2683 14-07-2019 07:55:00 15.1 C 10.97 g/m*3 15.1 C 0 km/h
2684 14-07-2019 08:00:00 15.2 C 11.03 g/m*3 15.2 C 4.8 km/h
2685 14-07-2019 08:05:00 15.2 C 11.16 g/m*3 15.2 C 1.6 km/h
2686 14-07-2019 08:10:00 15.3 C 11.1 g/m*3 15.3 C 4.8 km/h
2687 14-07-2019 08:15:00 15.3 C 11.1 g/m*3 15.3 C 6.4 km/h
2688 14-07-2019 08:20:00 15.4 C 11.3 g/m*3 15.4 C 3.2 km/h
2689 14-07-2019 08:25:00 15.4 C 11.17 g/m*3 15.4 C 3.2 km/h
2690 14-07-2019 08:30:00 15.4 C 11.17 g/m*3 15.4 C 6.4 km/h
2691 14-07-2019 08:35:00 15.4 C 11.17 g/m*3 15.4 C 6.4 km/h
2692 14-07-2019 08:40:00 15.5 C 11.24 g/m*3 15.5 C 4.8 km/h
2693 14-07-2019 08:45:00 15.6 C 11.44 g/m*3 15.6 C 3.2 km/h
2694 14-07-2019 08:50:00 15.6 C 11.44 g/m*3 15.6 C 3.2 km/h
2695 14-07-2019 08:55:00 15.6 C 11.3 g/m*3 15.6 C 9.7 km/h
2696 14-07-2019 09:00:00 15.6 C 11.3 g/m*3 15.6 C 8.1 km/h
2697 14-07-2019 09:05:00 15.4 C 11.17 g/m*3 15.4 C 11.3 km/h
2698 14-07-2019 09:10:00 15.3 C 11.1 g/m*3 15.3 C 4.8 km/h
2699 14-07-2019 09:15:00 15.3 C 10.97 g/m*3 15.3 C 9.7 km/h
2700 14-07-2019 09:20:00 15.2 C 10.9 g/m*3 15.2 C 9.7 km/h
Sensor: Nr:Datum:Temp:Abs-Feuchte:Windchill:Wind:
Aussen-T/F 2701 14-07-2019 09:25:00 15.1 C 10.84 g/m*3 15.1 C 6.4 km/h
2702 14-07-2019 09:30:00 15.1 C 10.84 g/m*3 15.1 C 3.2 km/h
2703 14-07-2019 09:35:00 15.1 C 10.97 g/m*3 15.1 C 1.6 km/h
2704 14-07-2019 09:40:00 15.2 C 10.9 g/m*3 15.2 C 6.4 km/h
2705 14-07-2019 09:45:00 15.2 C 10.9 g/m*3 15.2 C 6.4 km/h
2706 14-07-2019 09:50:00 15.3 C 10.84 g/m*3 15.3 C 6.4 km/h
2707 14-07-2019 09:55:00 15.4 C 10.9 g/m*3 15.4 C 4.8 km/h
2708 14-07-2019 10:00:00 15.6 C 10.91 g/m*3 15.6 C 8.1 km/h
2709 14-07-2019 10:05:00 15.6 C 10.77 g/m*3 15.6 C 9.7 km/h
2710 14-07-2019 10:10:00 15.8 C 10.77 g/m*3 15.8 C 9.7 km/h
2711 14-07-2019 10:15:00 15.9 C 10.7 g/m*3 15.9 C 11.3 km/h
2712 14-07-2019 10:20:00 15.9 C 10.43 g/m*3 15.9 C 8.1 km/h
2713 14-07-2019 10:25:00 16 C 10.49 g/m*3 16 C 9.7 km/h
2714 14-07-2019 10:30:00 16.1 C 10.55 g/m*3 16.1 C 9.7 km/h
2715 14-07-2019 10:35:00 16.1 C 10.55 g/m*3 16.1 C 6.4 km/h
2716 14-07-2019 10:40:00 16.2 C 10.48 g/m*3 16.2 C 8.1 km/h
2717 14-07-2019 10:45:00 16.2 C 10.48 g/m*3 16.2 C 8.1 km/h
2718 14-07-2019 10:50:00 16.3 C 10.54 g/m*3 16.3 C 11.3 km/h
2719 14-07-2019 10:55:00 16.4 C 10.47 g/m*3 16.4 C 11.3 km/h
2720 14-07-2019 11:00:00 16.4 C 10.47 g/m*3 16.4 C 9.7 km/h
2721 14-07-2019 11:05:00 16.4 C 10.33 g/m*3 16.4 C 9.7 km/h
2722 14-07-2019 11:10:00 16.6 C 10.45 g/m*3 16.6 C 4.8 km/h
2723 14-07-2019 11:15:00 16.6 C 10.31 g/m*3 16.6 C 11.3 km/h
2724 14-07-2019 11:20:00 16.6 C 10.45 g/m*3 16.6 C 8.1 km/h
2725 14-07-2019 11:25:00 16.7 C 10.52 g/m*3 16.7 C 6.4 km/h
Sensor: Nr:Datum:Temp:Abs-Feuchte:Windchill:Wind:
Aussen-T/F 2726 14-07-2019 11:30:00 16.8 C 10.44 g/m*3 16.8 C 11.3 km/h
2727 14-07-2019 11:35:00 17.1 C 10.77 g/m*3 17.1 C 8.1 km/h
2728 14-07-2019 11:40:00 17.2 C 10.54 g/m*3 17.2 C 8.1 km/h
2729 14-07-2019 11:45:00 17.2 C 10.54 g/m*3 17.2 C 9.7 km/h
2730 14-07-2019 11:50:00 17.2 C 10.54 g/m*3 17.2 C 11.3 km/h
2731 14-07-2019 11:55:00 17.2 C 10.4 g/m*3 17.2 C 12.9 km/h
2732 14-07-2019 12:00:00 17.2 C 10.4 g/m*3 17.2 C 8.1 km/h
2733 14-07-2019 12:05:00 17.2 C 10.4 g/m*3 17.2 C 6.4 km/h
2734 14-07-2019 12:10:00 17.3 C 10.31 g/m*3 17.3 C 9.7 km/h
2735 14-07-2019 12:15:00 17.4 C 10.37 g/m*3 17.4 C 8.1 km/h
2736 14-07-2019 12:20:00 17.5 C 10.44 g/m*3 17.5 C 11.3 km/h
2737 14-07-2019 12:25:00 17.5 C 10.44 g/m*3 17.5 C 12.9 km/h
2738 14-07-2019 12:30:00 17.6 C 10.5 g/m*3 17.6 C 12.9 km/h
2739 14-07-2019 12:35:00 17.7 C 10.56 g/m*3 17.7 C 8.1 km/h
2740 14-07-2019 12:40:00 17.7 C 10.26 g/m*3 17.7 C 11.3 km/h
2741 14-07-2019 12:45:00 17.7 C 10.11 g/m*3 17.7 C 11.3 km/h
2742 14-07-2019 12:50:00 17.8 C 10.32 g/m*3 17.8 C 9.7 km/h
2743 14-07-2019 12:55:00 17.8 C 10.32 g/m*3 17.8 C 9.7 km/h
2744 14-07-2019 13:00:00 17.8 C 10.32 g/m*3 17.8 C 12.9 km/h
2745 14-07-2019 13:05:00 17.7 C 10.11 g/m*3 17.7 C 9.7 km/h
2746 14-07-2019 13:10:00 17.7 C 10.11 g/m*3 17.7 C 8.1 km/h
2747 14-07-2019 13:15:00 17.7 C 10.11 g/m*3 17.7 C 11.3 km/h
2748 14-07-2019 13:20:00 17.7 C 10.11 g/m*3 17.7 C 9.7 km/h
2749 14-07-2019 13:25:00 17.7 C 10.11 g/m*3 17.7 C 8.1 km/h
2750 14-07-2019 13:30:00 17.7 C 9.96 g/m*3 17.7 C 12.9 km/h
Sensor: Nr:Datum:Temp:Abs-Feuchte:Windchill:Wind:
Aussen-T/F 2751 14-07-2019 13:35:00 17.8 C 10.17 g/m*3 17.8 C 8.1 km/h
2752 14-07-2019 13:40:00 17.9 C 10.23 g/m*3 17.9 C 8.1 km/h
2753 14-07-2019 13:45:00 17.9 C 10.08 g/m*3 17.9 C 12.9 km/h
2754 14-07-2019 13:50:00 18 C 10.29 g/m*3 18 C 9.7 km/h
2755 14-07-2019 13:55:00 18.1 C 10.2 g/m*3 18.1 C 9.7 km/h
2756 14-07-2019 14:00:00 18.2 C 10.26 g/m*3 18.2 C 8.1 km/h
2757 14-07-2019 14:05:00 18.1 C 10.04 g/m*3 18.1 C 12.9 km/h
2758 14-07-2019 14:10:00 18.1 C 9.89 g/m*3 18.1 C 8.1 km/h
2759 14-07-2019 14:15:00 18 C 9.98 g/m*3 18 C 11.3 km/h
2760 14-07-2019 14:20:00 18 C 9.98 g/m*3 18 C 9.7 km/h
2761 14-07-2019 14:25:00 18.2 C 10.1 g/m*3 18.2 C 14.5 km/h
2762 14-07-2019 14:30:00 18.2 C 9.95 g/m*3 18.2 C 11.3 km/h
2763 14-07-2019 14:35:00 18.2 C 9.95 g/m*3 18.2 C 11.3 km/h
2764 14-07-2019 14:40:00 18.3 C 10.01 g/m*3 18.3 C 9.7 km/h
2765 14-07-2019 14:45:00 18.3 C 9.85 g/m*3 18.3 C 12.9 km/h
2766 14-07-2019 14:50:00 18.3 C 9.85 g/m*3 18.3 C 14.5 km/h
2767 14-07-2019 14:55:00 18.4 C 10.07 g/m*3 18.4 C 9.7 km/h
2768 14-07-2019 15:00:00 18.5 C 9.97 g/m*3 18.5 C 12.9 km/h
2769 14-07-2019 15:05:00 18.6 C 9.87 g/m*3 18.6 C 9.7 km/h
2770 14-07-2019 15:10:00 18.5 C 9.97 g/m*3 18.5 C 12.9 km/h
2771 14-07-2019 15:15:00 18.6 C 10.03 g/m*3 18.6 C 11.3 km/h
2772 14-07-2019 15:20:00 18.7 C 9.77 g/m*3 18.7 C 8.1 km/h
2773 14-07-2019 15:25:00 18.9 C 9.88 g/m*3 18.9 C 8.1 km/h
2774 14-07-2019 15:30:00 19 C 9.78 g/m*3 19 C 14.5 km/h
2775 14-07-2019 15:35:00 19 C 9.94 g/m*3 19 C 8.1 km/h
Sensor: Nr:Datum:Temp:Abs-Feuchte:Windchill:Wind:
Aussen-T/F 2776 14-07-2019 15:40:00 19 C 9.78 g/m*3 19 C 14.5 km/h
2777 14-07-2019 15:45:00 19.2 C 9.89 g/m*3 19.2 C 8.1 km/h
2778 14-07-2019 15:50:00 19.4 C 10.18 g/m*3 19.4 C 8.1 km/h
2779 14-07-2019 15:55:00 19.7 C 9.85 g/m*3 19.7 C 12.9 km/h
2780 14-07-2019 16:00:00 19.5 C 9.9 g/m*3 19.5 C 12.9 km/h
2781 14-07-2019 16:05:00 19.2 C 9.73 g/m*3 19.2 C 16.1 km/h
2782 14-07-2019 16:10:00 19.2 C 9.73 g/m*3 19.2 C 9.7 km/h
2783 14-07-2019 16:15:00 19.2 C 9.73 g/m*3 19.2 C 12.9 km/h
2784 14-07-2019 16:20:00 19.2 C 9.89 g/m*3 19.2 C 9.7 km/h
2785 14-07-2019 16:25:00 19.4 C 9.68 g/m*3 19.4 C 12.9 km/h
2786 14-07-2019 16:30:00 19.3 C 9.62 g/m*3 19.3 C 17.7 km/h
2787 14-07-2019 16:35:00 19.4 C 9.68 g/m*3 19.4 C 12.9 km/h
2788 14-07-2019 16:40:00 19.4 C 9.84 g/m*3 19.4 C 19.3 km/h
2789 14-07-2019 16:45:00 19.4 C 9.84 g/m*3 19.4 C 9.7 km/h
2790 14-07-2019 16:50:00 19.4 C 9.84 g/m*3 19.4 C 12.9 km/h
2791 14-07-2019 16:55:00 19.4 C 9.84 g/m*3 19.4 C 12.9 km/h
2792 14-07-2019 17:00:00 19.5 C 9.9 g/m*3 19.5 C 6.4 km/h
2793 14-07-2019 17:05:00 19.7 C 10.02 g/m*3 19.7 C 8.1 km/h
2794 14-07-2019 17:10:00 19.6 C 9.62 g/m*3 19.6 C 8.1 km/h
2795 14-07-2019 17:15:00 19.4 C 9.68 g/m*3 19.4 C 8.1 km/h
2796 14-07-2019 17:20:00 19.4 C 9.84 g/m*3 19.4 C 6.4 km/h
2797 14-07-2019 17:25:00 19.3 C 9.79 g/m*3 19.3 C 8.1 km/h
2798 14-07-2019 17:30:00 19.3 C 9.62 g/m*3 19.3 C 9.7 km/h
2799 14-07-2019 17:35:00 19.2 C 9.73 g/m*3 19.2 C 12.9 km/h
2800 14-07-2019 17:40:00 19.2 C 9.89 g/m*3 19.2 C 9.7 km/h
Sensor: Nr:Datum:Temp:Abs-Feuchte:Windchill:Wind:
Aussen-T/F 2801 14-07-2019 17:45:00 19.2 C 9.56 g/m*3 19.2 C 9.7 km/h
2802 14-07-2019 17:50:00 19.2 C 9.56 g/m*3 19.2 C 14.5 km/h
2803 14-07-2019 17:55:00 19.1 C 9.67 g/m*3 19.1 C 6.4 km/h
2804 14-07-2019 18:00:00 19.1 C 9.67 g/m*3 19.1 C 9.7 km/h
2805 14-07-2019 18:05:00 19 C 9.94 g/m*3 19 C 14.5 km/h
2806 14-07-2019 18:10:00 18.8 C 9.82 g/m*3 18.8 C 8.1 km/h
2807 14-07-2019 18:15:00 18.7 C 10.09 g/m*3 18.7 C 14.5 km/h
2808 14-07-2019 18:20:00 18.6 C 10.03 g/m*3 18.6 C 11.3 km/h
2809 14-07-2019 18:25:00 18.6 C 9.87 g/m*3 18.6 C 4.8 km/h
2810 14-07-2019 18:30:00 18.6 C 10.03 g/m*3 18.6 C 6.4 km/h
2811 14-07-2019 18:35:00 18.6 C 9.71 g/m*3 18.6 C 11.3 km/h
2812 14-07-2019 18:40:00 18.5 C 9.81 g/m*3 18.5 C 11.3 km/h
2813 14-07-2019 18:45:00 18.5 C 9.65 g/m*3 18.5 C 14.5 km/h
2814 14-07-2019 18:50:00 18.4 C 9.91 g/m*3 18.4 C 8.1 km/h
2815 14-07-2019 18:55:00 18.5 C 9.97 g/m*3 18.5 C 9.7 km/h
2816 14-07-2019 19:00:00 18.4 C 9.91 g/m*3 18.4 C 8.1 km/h
2817 14-07-2019 19:05:00 18.5 C 9.65 g/m*3 18.5 C 9.7 km/h
2818 14-07-2019 19:10:00 18.4 C 9.59 g/m*3 18.4 C 8.1 km/h
2819 14-07-2019 19:15:00 18.4 C 9.44 g/m*3 18.4 C 11.3 km/h
2820 14-07-2019 19:20:00 18.4 C 9.59 g/m*3 18.4 C 12.9 km/h
2821 14-07-2019 19:25:00 18.4 C 9.59 g/m*3 18.4 C 11.3 km/h
2822 14-07-2019 19:30:00 18.4 C 9.75 g/m*3 18.4 C 9.7 km/h
2823 14-07-2019 19:35:00 18.4 C 9.75 g/m*3 18.4 C 6.4 km/h
2824 14-07-2019 19:40:00 18.3 C 9.85 g/m*3 18.3 C 12.9 km/h
2825 14-07-2019 19:45:00 18.3 C 9.85 g/m*3 18.3 C 12.9 km/h
Sensor: Nr:Datum:Temp:Abs-Feuchte:Windchill:Wind:
Aussen-T/F 2826 14-07-2019 19:50:00 18.3 C 9.85 g/m*3 18.3 C 9.7 km/h
2827 14-07-2019 19:55:00 18.2 C 9.95 g/m*3 18.2 C 11.3 km/h
2828 14-07-2019 20:00:00 18.2 C 10.1 g/m*3 18.2 C 11.3 km/h
2829 14-07-2019 20:05:00 18.1 C 10.04 g/m*3 18.1 C 12.9 km/h
2830 14-07-2019 20:10:00 18.1 C 10.04 g/m*3 18.1 C 9.7 km/h
2831 14-07-2019 20:15:00 18 C 9.98 g/m*3 18 C 12.9 km/h
2832 14-07-2019 20:20:00 17.9 C 10.08 g/m*3 17.9 C 9.7 km/h
2833 14-07-2019 20:25:00 17.9 C 9.92 g/m*3 17.9 C 12.9 km/h
2834 14-07-2019 20:30:00 17.8 C 10.02 g/m*3 17.8 C 11.3 km/h
2835 14-07-2019 20:35:00 17.8 C 10.17 g/m*3 17.8 C 9.7 km/h
2836 14-07-2019 20:40:00 17.8 C 10.17 g/m*3 17.8 C 6.4 km/h
2837 14-07-2019 20:45:00 17.7 C 10.11 g/m*3 17.7 C 6.4 km/h
2838 14-07-2019 20:50:00 17.7 C 10.11 g/m*3 17.7 C 9.7 km/h
2839 14-07-2019 20:55:00 17.7 C 10.11 g/m*3 17.7 C 6.4 km/h
2840 14-07-2019 21:00:00 17.6 C 10.05 g/m*3 17.6 C 8.1 km/h
2841 14-07-2019 21:05:00 17.6 C 10.05 g/m*3 17.6 C 6.4 km/h
2842 14-07-2019 21:10:00 17.6 C 10.05 g/m*3 17.6 C 8.1 km/h
2843 14-07-2019 21:15:00 17.5 C 9.84 g/m*3 17.5 C 9.7 km/h
2844 14-07-2019 21:20:00 17.5 C 9.99 g/m*3 17.5 C 8.1 km/h
2845 14-07-2019 21:25:00 17.5 C 9.99 g/m*3 17.5 C 8.1 km/h
2846 14-07-2019 21:30:00 17.4 C 10.08 g/m*3 17.4 C 6.4 km/h
2847 14-07-2019 21:35:00 17.4 C 10.08 g/m*3 17.4 C 9.7 km/h
2848 14-07-2019 21:40:00 17.4 C 10.08 g/m*3 17.4 C 6.4 km/h
2849 14-07-2019 21:45:00 17.3 C 10.02 g/m*3 17.3 C 6.4 km/h
2850 14-07-2019 21:50:00 17.3 C 10.02 g/m*3 17.3 C 4.8 km/h
Sensor: Nr:Datum:Temp:Abs-Feuchte:Windchill:Wind:
Aussen-T/F 2851 14-07-2019 21:55:00 17.3 C 10.02 g/m*3 17.3 C 4.8 km/h
2852 14-07-2019 22:00:00 17.2 C 10.1 g/m*3 17.2 C 4.8 km/h
2853 14-07-2019 22:05:00 17.2 C 10.4 g/m*3 17.2 C 3.2 km/h
2854 14-07-2019 22:10:00 17.2 C 9.96 g/m*3 17.2 C 3.2 km/h
2855 14-07-2019 22:15:00 17.1 C 9.75 g/m*3 17.1 C 4.8 km/h
2856 14-07-2019 22:20:00 17.1 C 9.75 g/m*3 17.1 C 4.8 km/h
2857 14-07-2019 22:25:00 17.1 C 9.9 g/m*3 17.1 C 6.4 km/h
2858 14-07-2019 22:30:00 17.1 C 9.75 g/m*3 17.1 C 8.1 km/h
2859 14-07-2019 22:35:00 17.2 C 9.81 g/m*3 17.2 C 6.4 km/h
2860 14-07-2019 22:40:00 17.1 C 9.75 g/m*3 17.1 C 0 km/h
2861 14-07-2019 22:45:00 17.1 C 9.9 g/m*3 17.1 C 0 km/h
2862 14-07-2019 22:50:00 17.1 C 10.04 g/m*3 17.1 C 0 km/h
2863 14-07-2019 22:55:00 17 C 9.98 g/m*3 17 C 3.2 km/h
2864 14-07-2019 23:00:00 16.9 C 9.92 g/m*3 16.9 C 3.2 km/h
2865 14-07-2019 23:05:00 16.9 C 9.92 g/m*3 16.9 C 6.4 km/h
2866 14-07-2019 23:10:00 16.9 C 10.07 g/m*3 16.9 C 6.4 km/h
2867 14-07-2019 23:15:00 16.8 C 10.01 g/m*3 16.8 C 8.1 km/h
2868 14-07-2019 23:20:00 16.8 C 9.87 g/m*3 16.8 C 6.4 km/h
2869 14-07-2019 23:25:00 16.8 C 10.01 g/m*3 16.8 C 3.2 km/h
2870 14-07-2019 23:30:00 16.8 C 10.01 g/m*3 16.8 C 6.4 km/h
2871 14-07-2019 23:35:00 16.8 C 10.15 g/m*3 16.8 C 1.6 km/h
2872 14-07-2019 23:40:00 16.8 C 10.44 g/m*3 16.8 C 0 km/h
2873 14-07-2019 23:45:00 16.8 C 10.58 g/m*3 16.8 C 0 km/h
2874 14-07-2019 23:50:00 16.7 C 10.52 g/m*3 16.7 C 0 km/h
2875 14-07-2019 23:55:00 16.6 C 10.45 g/m*3 16.6 C 1.6 km/h
Sensor: Nr:Datum:Temp:Abs-Feuchte:Windchill:Wind:
Aussen-T/F 2876 15-07-2019 00:00:00 16.4 C 10.61 g/m*3 16.4 C 1.6 km/h
2877 15-07-2019 00:05:00 16.3 C 10.27 g/m*3 16.3 C 4.8 km/h
2878 15-07-2019 00:10:00 16.3 C 10.54 g/m*3 16.3 C 1.6 km/h
2879 15-07-2019 00:15:00 16.2 C 10.2 g/m*3 16.2 C 3.2 km/h
2880 15-07-2019 00:20:00 16.2 C 10.34 g/m*3 16.2 C 3.2 km/h
2881 15-07-2019 00:25:00 16.2 C 10.62 g/m*3 16.2 C 0 km/h
2882 15-07-2019 00:30:00 16.1 C 10.55 g/m*3 16.1 C 0 km/h
2883 15-07-2019 00:35:00 16 C 10.63 g/m*3 16 C 0 km/h
2884 15-07-2019 00:40:00 15.9 C 10.56 g/m*3 15.9 C 0 km/h
2885 15-07-2019 00:45:00 15.8 C 10.5 g/m*3 15.8 C 0 km/h
2886 15-07-2019 00:50:00 15.7 C 10.57 g/m*3 15.7 C 0 km/h
2887 15-07-2019 00:55:00 15.7 C 10.57 g/m*3 15.7 C 0 km/h
2888 15-07-2019 01:00:00 15.6 C 10.64 g/m*3 15.6 C 0 km/h
2889 15-07-2019 01:05:00 15.5 C 10.57 g/m*3 15.5 C 0 km/h
2890 15-07-2019 01:10:00 15.4 C 10.51 g/m*3 15.4 C 0 km/h
2891 15-07-2019 01:15:00 15.4 C 10.64 g/m*3 15.4 C 0 km/h
2892 15-07-2019 01:20:00 15.4 C 10.64 g/m*3 15.4 C 3.2 km/h
2893 15-07-2019 01:25:00 15.4 C 10.38 g/m*3 15.4 C 6.4 km/h
2894 15-07-2019 01:30:00 15.6 C 10.37 g/m*3 15.6 C 9.7 km/h
2895 15-07-2019 01:35:00 15.8 C 10.36 g/m*3 15.8 C 3.2 km/h
2896 15-07-2019 01:40:00 15.8 C 10.36 g/m*3 15.8 C 3.2 km/h
2897 15-07-2019 01:45:00 15.9 C 10.56 g/m*3 15.9 C 0 km/h
2898 15-07-2019 01:50:00 15.9 C 10.43 g/m*3 15.9 C 3.2 km/h
2899 15-07-2019 01:55:00 15.9 C 10.43 g/m*3 15.9 C 3.2 km/h
2900 15-07-2019 02:00:00 15.8 C 10.36 g/m*3 15.8 C 1.6 km/h
Sensor: Nr:Datum:Temp:Abs-Feuchte:Windchill:Wind:
Aussen-T/F 2901 15-07-2019 02:05:00 15.8 C 10.5 g/m*3 15.8 C 0 km/h
2902 15-07-2019 02:10:00 15.8 C 10.63 g/m*3 15.8 C 0 km/h
2903 15-07-2019 02:15:00 15.8 C 10.77 g/m*3 15.8 C 0 km/h
2904 15-07-2019 02:20:00 15.7 C 10.7 g/m*3 15.7 C 0 km/h
2905 15-07-2019 02:25:00 15.7 C 10.84 g/m*3 15.7 C 0 km/h
2906 15-07-2019 02:30:00 15.6 C 10.77 g/m*3 15.6 C 0 km/h
2907 15-07-2019 02:35:00 15.4 C 10.64 g/m*3 15.4 C 0 km/h
2908 15-07-2019 02:40:00 15.4 C 10.64 g/m*3 15.4 C 0 km/h
2909 15-07-2019 02:45:00 15.3 C 10.71 g/m*3 15.3 C 0 km/h
2910 15-07-2019 02:50:00 15.2 C 10.64 g/m*3 15.2 C 0 km/h
2911 15-07-2019 02:55:00 15.2 C 10.64 g/m*3 15.2 C 0 km/h
2912 15-07-2019 03:00:00 15.2 C 10.77 g/m*3 15.2 C 0 km/h
2913 15-07-2019 03:05:00 15.1 C 10.71 g/m*3 15.1 C 0 km/h
2914 15-07-2019 03:10:00 15.1 C 10.71 g/m*3 15.1 C 0 km/h
2915 15-07-2019 03:15:00 15.1 C 10.71 g/m*3 15.1 C 0 km/h
2916 15-07-2019 03:20:00 15 C 10.77 g/m*3 15 C 0 km/h
2917 15-07-2019 03:25:00 15 C 10.64 g/m*3 15 C 0 km/h
2918 15-07-2019 03:30:00 14.9 C 10.71 g/m*3 14.9 C 0 km/h
2919 15-07-2019 03:35:00 14.9 C 10.71 g/m*3 14.9 C 0 km/h
2920 15-07-2019 03:40:00 14.9 C 10.71 g/m*3 14.9 C 0 km/h
2921 15-07-2019 03:45:00 14.9 C 10.58 g/m*3 14.9 C 0 km/h
2922 15-07-2019 03:50:00 14.9 C 10.71 g/m*3 14.9 C 0 km/h
2923 15-07-2019 03:55:00 14.9 C 10.71 g/m*3 14.9 C 0 km/h
2924 15-07-2019 04:00:00 14.8 C 10.39 g/m*3 14.8 C 0 km/h
2925 15-07-2019 04:05:00 14.8 C 10.13 g/m*3 14.8 C 0 km/h
Sensor: Nr:Datum:Temp:Abs-Feuchte:Windchill:Wind:
Aussen-T/F 2926 15-07-2019 04:10:00 14.9 C 9.94 g/m*3 14.9 C 3.2 km/h
2927 15-07-2019 04:15:00 15.2 C 9.99 g/m*3 15.2 C 6.4 km/h
2928 15-07-2019 04:20:00 15.3 C 10.19 g/m*3 15.3 C 3.2 km/h
2929 15-07-2019 04:25:00 15.4 C 10.25 g/m*3 15.4 C 3.2 km/h
2930 15-07-2019 04:30:00 15.5 C 10.31 g/m*3 15.5 C 4.8 km/h
2931 15-07-2019 04:35:00 15.5 C 10.31 g/m*3 15.5 C 3.2 km/h
2932 15-07-2019 04:40:00 15.5 C 10.31 g/m*3 15.5 C 3.2 km/h
2933 15-07-2019 04:45:00 15.6 C 10.37 g/m*3 15.6 C 3.2 km/h
2934 15-07-2019 04:50:00 15.6 C 10.24 g/m*3 15.6 C 1.6 km/h
2935 15-07-2019 04:55:00 15.6 C 10.24 g/m*3 15.6 C 0 km/h
2936 15-07-2019 05:00:00 15.6 C 9.97 g/m*3 15.6 C 8.1 km/h
2937 15-07-2019 05:05:00 15.7 C 10.03 g/m*3 15.7 C 8.1 km/h
2938 15-07-2019 05:10:00 15.7 C 9.9 g/m*3 15.7 C 6.4 km/h
2939 15-07-2019 05:15:00 15.7 C 9.9 g/m*3 15.7 C 6.4 km/h
2940 15-07-2019 05:20:00 15.7 C 9.9 g/m*3 15.7 C 1.6 km/h
2941 15-07-2019 05:25:00 15.7 C 10.03 g/m*3 15.7 C 6.4 km/h
2942 15-07-2019 05:30:00 15.7 C 10.17 g/m*3 15.7 C 4.8 km/h
2943 15-07-2019 05:35:00 15.6 C 9.97 g/m*3 15.6 C 0 km/h
2944 15-07-2019 05:40:00 15.6 C 9.84 g/m*3 15.6 C 3.2 km/h
2945 15-07-2019 05:45:00 15.6 C 9.84 g/m*3 15.6 C 4.8 km/h
2946 15-07-2019 05:50:00 15.6 C 9.84 g/m*3 15.6 C 3.2 km/h
2947 15-07-2019 05:55:00 15.6 C 9.71 g/m*3 15.6 C 4.8 km/h
2948 15-07-2019 06:00:00 15.6 C 9.84 g/m*3 15.6 C 1.6 km/h
2949 15-07-2019 06:05:00 15.6 C 9.84 g/m*3 15.6 C 0 km/h
2950 15-07-2019 06:10:00 15.6 C 9.84 g/m*3 15.6 C 4.8 km/h
Sensor: Nr:Datum:Temp:Abs-Feuchte:Windchill:Wind:
Aussen-T/F 2951 15-07-2019 06:15:00 15.6 C 9.84 g/m*3 15.6 C 4.8 km/h
2952 15-07-2019 06:20:00 15.6 C 9.84 g/m*3 15.6 C 1.6 km/h
2953 15-07-2019 06:25:00 15.6 C 9.84 g/m*3 15.6 C 3.2 km/h
2954 15-07-2019 06:30:00 15.6 C 9.84 g/m*3 15.6 C 3.2 km/h
2955 15-07-2019 06:35:00 15.6 C 9.84 g/m*3 15.6 C 3.2 km/h
2956 15-07-2019 06:40:00 15.6 C 9.84 g/m*3 15.6 C 3.2 km/h
2957 15-07-2019 06:45:00 15.6 C 9.84 g/m*3 15.6 C 6.4 km/h
2958 15-07-2019 06:50:00 15.6 C 9.97 g/m*3 15.6 C 4.8 km/h
2959 15-07-2019 06:55:00 15.6 C 9.97 g/m*3 15.6 C 3.2 km/h
2960 15-07-2019 07:00:00 15.6 C 9.97 g/m*3 15.6 C 3.2 km/h
2961 15-07-2019 07:05:00 15.7 C 10.03 g/m*3 15.7 C 1.6 km/h
2962 15-07-2019 07:10:00 15.7 C 10.03 g/m*3 15.7 C 3.2 km/h
2963 15-07-2019 07:15:00 15.7 C 9.9 g/m*3 15.7 C 4.8 km/h
2964 15-07-2019 07:20:00 15.7 C 10.03 g/m*3 15.7 C 4.8 km/h
2965 15-07-2019 07:25:00 15.7 C 9.9 g/m*3 15.7 C 3.2 km/h
2966 15-07-2019 07:30:00 15.7 C 9.77 g/m*3 15.7 C 6.4 km/h
2967 15-07-2019 07:35:00 15.7 C 9.77 g/m*3 15.7 C 8.1 km/h
2968 15-07-2019 07:40:00 15.7 C 9.77 g/m*3 15.7 C 4.8 km/h
2969 15-07-2019 07:45:00 15.7 C 9.77 g/m*3 15.7 C 9.7 km/h
2970 15-07-2019 07:50:00 15.7 C 9.9 g/m*3 15.7 C 6.4 km/h
2971 15-07-2019 07:55:00 15.7 C 9.9 g/m*3 15.7 C 9.7 km/h
2972 15-07-2019 08:00:00 15.7 C 9.9 g/m*3 15.7 C 9.7 km/h
2973 15-07-2019 08:05:00 15.7 C 9.9 g/m*3 15.7 C 9.7 km/h
2974 15-07-2019 08:10:00 15.7 C 10.03 g/m*3 15.7 C 3.2 km/h
2975 15-07-2019 08:15:00 15.7 C 9.9 g/m*3 15.7 C 6.4 km/h
Sensor: Nr:Datum:Temp:Abs-Feuchte:Windchill:Wind:
Aussen-T/F 2976 15-07-2019 08:20:00 15.7 C 9.9 g/m*3 15.7 C 8.1 km/h
2977 15-07-2019 08:25:00 15.7 C 9.9 g/m*3 15.7 C 6.4 km/h
2978 15-07-2019 08:30:00 15.8 C 9.96 g/m*3 15.8 C 4.8 km/h
2979 15-07-2019 08:35:00 15.8 C 10.1 g/m*3 15.8 C 3.2 km/h
2980 15-07-2019 08:40:00 15.9 C 10.02 g/m*3 15.9 C 11.3 km/h
2981 15-07-2019 08:45:00 16 C 10.08 g/m*3 16 C 6.4 km/h
2982 15-07-2019 08:50:00 16.1 C 10.01 g/m*3 16.1 C 6.4 km/h
2983 15-07-2019 08:55:00 16.2 C 10.2 g/m*3 16.2 C 4.8 km/h
2984 15-07-2019 09:00:00 16.3 C 10.13 g/m*3 16.3 C 8.1 km/h
2985 15-07-2019 09:05:00 16.3 C 10.13 g/m*3 16.3 C 8.1 km/h
2986 15-07-2019 09:10:00 16.3 C 9.99 g/m*3 16.3 C 6.4 km/h
2987 15-07-2019 09:15:00 16.4 C 10.05 g/m*3 16.4 C 9.7 km/h
2988 15-07-2019 09:20:00 16.4 C 9.91 g/m*3 16.4 C 9.7 km/h
2989 15-07-2019 09:25:00 16.5 C 10.11 g/m*3 16.5 C 6.4 km/h
2990 15-07-2019 09:30:00 16.6 C 10.17 g/m*3 16.6 C 4.8 km/h
2991 15-07-2019 09:35:00 16.7 C 9.95 g/m*3 16.7 C 6.4 km/h
2992 15-07-2019 09:40:00 16.7 C 9.95 g/m*3 16.7 C 0 km/h
2993 15-07-2019 09:45:00 16.7 C 10.23 g/m*3 16.7 C 3.2 km/h
2994 15-07-2019 09:50:00 16.7 C 9.95 g/m*3 16.7 C 6.4 km/h
2995 15-07-2019 09:55:00 16.8 C 10.01 g/m*3 16.8 C 8.1 km/h
2996 15-07-2019 10:00:00 16.8 C 10.01 g/m*3 16.8 C 0 km/h
2997 15-07-2019 10:05:00 16.8 C 10.01 g/m*3 16.8 C 4.8 km/h
2998 15-07-2019 10:10:00 16.8 C 9.87 g/m*3 16.8 C 6.4 km/h
2999 15-07-2019 10:15:00 16.8 C 9.87 g/m*3 16.8 C 0 km/h
3000 15-07-2019 10:20:00 16.8 C 10.01 g/m*3 16.8 C 4.8 km/h
Sensor: Nr:Datum:Temp:Abs-Feuchte:Windchill:Wind:
Aussen-T/F 3001 15-07-2019 10:25:00 16.8 C 10.29 g/m*3 16.8 C 9.7 km/h
3002 15-07-2019 10:30:00 16.8 C 10.58 g/m*3 16.8 C 6.4 km/h
3003 15-07-2019 10:35:00 16.8 C 10.58 g/m*3 16.8 C 6.4 km/h
3004 15-07-2019 10:40:00 16.8 C 10.58 g/m*3 16.8 C 6.4 km/h
3005 15-07-2019 10:45:00 16.8 C 10.72 g/m*3 16.8 C 6.4 km/h
3006 15-07-2019 10:50:00 16.8 C 10.72 g/m*3 16.8 C 6.4 km/h
3007 15-07-2019 10:55:00 16.8 C 10.58 g/m*3 16.8 C 8.1 km/h
3008 15-07-2019 11:00:00 16.8 C 10.72 g/m*3 16.8 C 9.7 km/h
3009 15-07-2019 11:05:00 16.8 C 10.58 g/m*3 16.8 C 4.8 km/h
3010 15-07-2019 11:10:00 16.8 C 10.58 g/m*3 16.8 C 4.8 km/h
3011 15-07-2019 11:15:00 16.8 C 10.72 g/m*3 16.8 C 4.8 km/h
3012 15-07-2019 11:20:00 16.8 C 10.58 g/m*3 16.8 C 9.7 km/h
3013 15-07-2019 11:25:00 16.8 C 10.58 g/m*3 16.8 C 9.7 km/h
3014 15-07-2019 11:30:00 16.8 C 10.58 g/m*3 16.8 C 6.4 km/h
3015 15-07-2019 11:35:00 16.8 C 10.58 g/m*3 16.8 C 11.3 km/h
3016 15-07-2019 11:40:00 16.9 C 10.79 g/m*3 16.9 C 9.7 km/h
3017 15-07-2019 11:45:00 16.9 C 10.79 g/m*3 16.9 C 3.2 km/h
3018 15-07-2019 11:50:00 16.9 C 10.79 g/m*3 16.9 C 8.1 km/h
3019 15-07-2019 11:55:00 17 C 10.71 g/m*3 17 C 8.1 km/h
3020 15-07-2019 12:00:00 17 C 10.71 g/m*3 17 C 9.7 km/h
3021 15-07-2019 12:05:00 17 C 10.71 g/m*3 17 C 12.9 km/h
3022 15-07-2019 12:10:00 17.1 C 10.63 g/m*3 17.1 C 9.7 km/h
3023 15-07-2019 12:15:00 17 C 10.42 g/m*3 17 C 12.9 km/h
3024 15-07-2019 12:20:00 17.1 C 10.48 g/m*3 17.1 C 9.7 km/h
3025 15-07-2019 12:25:00 17.1 C 10.63 g/m*3 17.1 C 8.1 km/h
Sensor: Nr:Datum:Temp:Abs-Feuchte:Windchill:Wind:
Aussen-T/F 3026 15-07-2019 12:30:00 17.1 C 10.63 g/m*3 17.1 C 9.7 km/h
3027 15-07-2019 12:35:00 17.2 C 10.69 g/m*3 17.2 C 8.1 km/h
3028 15-07-2019 12:40:00 17.2 C 10.54 g/m*3 17.2 C 8.1 km/h
3029 15-07-2019 12:45:00 17.2 C 10.54 g/m*3 17.2 C 8.1 km/h
3030 15-07-2019 12:50:00 17.2 C 10.69 g/m*3 17.2 C 9.7 km/h
3031 15-07-2019 12:55:00 17.1 C 10.63 g/m*3 17.1 C 9.7 km/h
3032 15-07-2019 13:00:00 17.2 C 10.54 g/m*3 17.2 C 9.7 km/h
3033 15-07-2019 13:05:00 17.2 C 10.4 g/m*3 17.2 C 8.1 km/h
3034 15-07-2019 13:10:00 17.2 C 10.54 g/m*3 17.2 C 11.3 km/h
3035 15-07-2019 13:15:00 17.3 C 10.31 g/m*3 17.3 C 11.3 km/h
3036 15-07-2019 13:20:00 17.3 C 10.31 g/m*3 17.3 C 12.9 km/h
3037 15-07-2019 13:25:00 17.4 C 10.37 g/m*3 17.4 C 9.7 km/h
3038 15-07-2019 13:30:00 17.6 C 10.5 g/m*3 17.6 C 8.1 km/h
3039 15-07-2019 13:35:00 17.6 C 10.35 g/m*3 17.6 C 11.3 km/h
3040 15-07-2019 13:40:00 17.7 C 10.41 g/m*3 17.7 C 8.1 km/h
3041 15-07-2019 13:45:00 17.8 C 10.32 g/m*3 17.8 C 16.1 km/h
3042 15-07-2019 13:50:00 17.8 C 10.32 g/m*3 17.8 C 16.1 km/h
3043 15-07-2019 13:55:00 17.8 C 10.32 g/m*3 17.8 C 14.5 km/h
3044 15-07-2019 14:00:00 17.9 C 10.38 g/m*3 17.9 C 14.5 km/h
3045 15-07-2019 14:05:00 17.9 C 10.23 g/m*3 17.9 C 12.9 km/h
3046 15-07-2019 14:10:00 18.1 C 10.2 g/m*3 18.1 C 12.9 km/h
3047 15-07-2019 14:15:00 18.1 C 10.2 g/m*3 18.1 C 12.9 km/h
3048 15-07-2019 14:20:00 18.2 C 10.26 g/m*3 18.2 C 12.9 km/h
3049 15-07-2019 14:25:00 18.1 C 10.2 g/m*3 18.1 C 11.3 km/h
3050 15-07-2019 14:30:00 18.2 C 10.26 g/m*3 18.2 C 11.3 km/h
Sensor: Nr:Datum:Temp:Abs-Feuchte:Windchill:Wind:
Aussen-T/F 3051 15-07-2019 14:35:00 18.2 C 10.26 g/m*3 18.2 C 12.9 km/h
3052 15-07-2019 14:40:00 18.2 C 10.26 g/m*3 18.2 C 12.9 km/h
3053 15-07-2019 14:45:00 18.1 C 10.2 g/m*3 18.1 C 16.1 km/h
3054 15-07-2019 14:50:00 18.1 C 10.2 g/m*3 18.1 C 12.9 km/h
3055 15-07-2019 14:55:00 18 C 10.29 g/m*3 18 C 6.4 km/h
3056 15-07-2019 15:00:00 18.1 C 10.35 g/m*3 18.1 C 9.7 km/h
3057 15-07-2019 15:05:00 18.1 C 10.2 g/m*3 18.1 C 11.3 km/h
3058 15-07-2019 15:10:00 17.9 C 10.23 g/m*3 17.9 C 14.5 km/h
3059 15-07-2019 15:15:00 17.9 C 10.23 g/m*3 17.9 C 16.1 km/h
3060 15-07-2019 15:20:00 17.7 C 10.26 g/m*3 17.7 C 8.1 km/h
3061 15-07-2019 15:25:00 17.7 C 10.26 g/m*3 17.7 C 9.7 km/h
3062 15-07-2019 15:30:00 17.6 C 10.05 g/m*3 17.6 C 9.7 km/h
3063 15-07-2019 15:35:00 17.6 C 10.2 g/m*3 17.6 C 14.5 km/h
3064 15-07-2019 15:40:00 17.4 C 10.08 g/m*3 17.4 C 11.3 km/h
3065 15-07-2019 15:45:00 17.4 C 10.23 g/m*3 17.4 C 9.7 km/h
3066 15-07-2019 15:50:00 17.4 C 10.37 g/m*3 17.4 C 8.1 km/h
3067 15-07-2019 15:55:00 17.4 C 10.37 g/m*3 17.4 C 6.4 km/h
3068 15-07-2019 16:00:00 17.4 C 10.23 g/m*3 17.4 C 9.7 km/h
3069 15-07-2019 16:05:00 17.3 C 10.16 g/m*3 17.3 C 8.1 km/h
3070 15-07-2019 16:10:00 17.3 C 10.31 g/m*3 17.3 C 8.1 km/h
3071 15-07-2019 16:15:00 17.2 C 10.25 g/m*3 17.2 C 12.9 km/h
3072 15-07-2019 16:20:00 17.2 C 10.25 g/m*3 17.2 C 9.7 km/h
3073 15-07-2019 16:25:00 17.1 C 10.34 g/m*3 17.1 C 9.7 km/h
3074 15-07-2019 16:30:00 17.1 C 10.34 g/m*3 17.1 C 12.9 km/h
3075 15-07-2019 16:35:00 17.1 C 10.34 g/m*3 17.1 C 9.7 km/h
Sensor: Nr:Datum:Temp:Abs-Feuchte:Windchill:Wind:
Aussen-T/F 3076 15-07-2019 16:40:00 17 C 10.27 g/m*3 17 C 6.4 km/h
3077 15-07-2019 16:45:00 16.9 C 10.21 g/m*3 16.9 C 6.4 km/h
3078 15-07-2019 16:50:00 16.9 C 10.21 g/m*3 16.9 C 4.8 km/h
3079 15-07-2019 16:55:00 16.9 C 10.36 g/m*3 16.9 C 6.4 km/h
3080 15-07-2019 17:00:00 16.9 C 10.21 g/m*3 16.9 C 8.1 km/h
3081 15-07-2019 17:05:00 16.9 C 10.21 g/m*3 16.9 C 6.4 km/h
3082 15-07-2019 17:10:00 16.9 C 10.21 g/m*3 16.9 C 12.9 km/h
3083 15-07-2019 17:15:00 16.9 C 10.36 g/m*3 16.9 C 8.1 km/h
3084 15-07-2019 17:20:00 16.8 C 10.15 g/m*3 16.8 C 9.7 km/h
3085 15-07-2019 17:25:00 16.8 C 10.29 g/m*3 16.8 C 6.4 km/h
3086 15-07-2019 17:30:00 16.8 C 10.29 g/m*3 16.8 C 8.1 km/h
3087 15-07-2019 17:35:00 16.7 C 10.23 g/m*3 16.7 C 9.7 km/h
3088 15-07-2019 17:40:00 16.7 C 10.23 g/m*3 16.7 C 9.7 km/h
3089 15-07-2019 17:45:00 16.7 C 10.23 g/m*3 16.7 C 9.7 km/h
3090 15-07-2019 17:50:00 16.6 C 10.17 g/m*3 16.6 C 6.4 km/h
3091 15-07-2019 17:55:00 16.6 C 10.17 g/m*3 16.6 C 9.7 km/h
3092 15-07-2019 18:00:00 16.6 C 10.17 g/m*3 16.6 C 6.4 km/h
3093 15-07-2019 18:05:00 16.7 C 10.23 g/m*3 16.7 C 8.1 km/h
3094 15-07-2019 18:10:00 16.6 C 10.17 g/m*3 16.6 C 6.4 km/h
3095 15-07-2019 18:15:00 16.6 C 10.17 g/m*3 16.6 C 8.1 km/h
3096 15-07-2019 18:20:00 16.6 C 10.17 g/m*3 16.6 C 3.2 km/h
3097 15-07-2019 18:25:00 16.6 C 10.17 g/m*3 16.6 C 9.7 km/h
3098 15-07-2019 18:30:00 16.7 C 10.23 g/m*3 16.7 C 6.4 km/h
3099 15-07-2019 18:35:00 16.7 C 10.09 g/m*3 16.7 C 6.4 km/h
3100 15-07-2019 18:40:00 16.7 C 10.09 g/m*3 16.7 C 6.4 km/h
Sensor: Nr:Datum:Temp:Abs-Feuchte:Windchill:Wind:
Aussen-T/F 3101 15-07-2019 18:45:00 16.8 C 10.15 g/m*3 16.8 C 9.7 km/h
3102 15-07-2019 18:50:00 16.8 C 10.15 g/m*3 16.8 C 4.8 km/h
3103 15-07-2019 18:55:00 16.9 C 10.21 g/m*3 16.9 C 3.2 km/h
3104 15-07-2019 19:00:00 16.9 C 10.07 g/m*3 16.9 C 6.4 km/h
3105 15-07-2019 19:05:00 16.9 C 10.21 g/m*3 16.9 C 6.4 km/h
3106 15-07-2019 19:10:00 16.8 C 10.15 g/m*3 16.8 C 11.3 km/h
3107 15-07-2019 19:15:00 16.8 C 10.15 g/m*3 16.8 C 8.1 km/h
3108 15-07-2019 19:20:00 16.8 C 10.15 g/m*3 16.8 C 1.6 km/h
3109 15-07-2019 19:25:00 16.8 C 10.29 g/m*3 16.8 C 0 km/h
3110 15-07-2019 19:30:00 16.8 C 10.15 g/m*3 16.8 C 6.4 km/h
3111 15-07-2019 19:35:00 16.8 C 10.15 g/m*3 16.8 C 8.1 km/h
3112 15-07-2019 19:40:00 16.7 C 10.09 g/m*3 16.7 C 1.6 km/h
3113 15-07-2019 19:45:00 16.7 C 10.09 g/m*3 16.7 C 0 km/h
3114 15-07-2019 19:50:00 16.7 C 10.09 g/m*3 16.7 C 4.8 km/h
3115 15-07-2019 19:55:00 16.7 C 10.09 g/m*3 16.7 C 6.4 km/h
3116 15-07-2019 20:00:00 16.7 C 9.95 g/m*3 16.7 C 8.1 km/h
3117 15-07-2019 20:05:00 16.7 C 10.09 g/m*3 16.7 C 6.4 km/h
3118 15-07-2019 20:10:00 16.7 C 10.09 g/m*3 16.7 C 4.8 km/h
3119 15-07-2019 20:15:00 16.7 C 10.09 g/m*3 16.7 C 4.8 km/h
3120 15-07-2019 20:20:00 16.7 C 10.09 g/m*3 16.7 C 4.8 km/h
3121 15-07-2019 20:25:00 16.7 C 10.09 g/m*3 16.7 C 4.8 km/h
3122 15-07-2019 20:30:00 16.7 C 10.09 g/m*3 16.7 C 3.2 km/h
3123 15-07-2019 20:35:00 16.7 C 10.09 g/m*3 16.7 C 0 km/h
3124 15-07-2019 20:40:00 16.7 C 10.23 g/m*3 16.7 C 0 km/h
3125 15-07-2019 20:45:00 16.7 C 10.09 g/m*3 16.7 C 0 km/h
Sensor: Nr:Datum:Temp:Abs-Feuchte:Windchill:Wind:
Aussen-T/F 3126 15-07-2019 20:50:00 16.7 C 10.09 g/m*3 16.7 C 8.1 km/h
3127 15-07-2019 20:55:00 16.6 C 10.17 g/m*3 16.6 C 3.2 km/h
3128 15-07-2019 21:00:00 16.6 C 10.17 g/m*3 16.6 C 3.2 km/h
3129 15-07-2019 21:05:00 16.5 C 10.11 g/m*3 16.5 C 4.8 km/h
3130 15-07-2019 21:10:00 16.4 C 10.05 g/m*3 16.4 C 4.8 km/h
3131 15-07-2019 21:15:00 16.4 C 10.19 g/m*3 16.4 C 4.8 km/h
3132 15-07-2019 21:20:00 16.4 C 10.19 g/m*3 16.4 C 3.2 km/h
3133 15-07-2019 21:25:00 16.3 C 10.13 g/m*3 16.3 C 1.6 km/h
3134 15-07-2019 21:30:00 16.3 C 10.13 g/m*3 16.3 C 3.2 km/h
3135 15-07-2019 21:35:00 16.3 C 10.13 g/m*3 16.3 C 0 km/h
3136 15-07-2019 21:40:00 16.3 C 10.54 g/m*3 16.3 C 0 km/h
3137 15-07-2019 21:45:00 16.3 C 10.68 g/m*3 16.3 C 0 km/h
3138 15-07-2019 21:50:00 16.2 C 10.62 g/m*3 16.2 C 0 km/h
3139 15-07-2019 21:55:00 16.1 C 10.42 g/m*3 16.1 C 0 km/h
3140 15-07-2019 22:00:00 16 C 10.49 g/m*3 16 C 0 km/h
3141 15-07-2019 22:05:00 15.9 C 10.56 g/m*3 15.9 C 0 km/h
3142 15-07-2019 22:10:00 15.8 C 10.5 g/m*3 15.8 C 0 km/h
3143 15-07-2019 22:15:00 15.8 C 10.63 g/m*3 15.8 C 0 km/h
3144 15-07-2019 22:20:00 15.7 C 10.7 g/m*3 15.7 C 0 km/h
3145 15-07-2019 22:25:00 15.6 C 10.64 g/m*3 15.6 C 0 km/h
3146 15-07-2019 22:30:00 15.6 C 10.64 g/m*3 15.6 C 0 km/h
3147 15-07-2019 22:35:00 15.5 C 10.71 g/m*3 15.5 C 0 km/h
3148 15-07-2019 22:40:00 15.4 C 10.51 g/m*3 15.4 C 0 km/h
3149 15-07-2019 22:45:00 15.4 C 10.64 g/m*3 15.4 C 0 km/h
3150 15-07-2019 22:50:00 15.4 C 10.64 g/m*3 15.4 C 0 km/h
Sensor: Nr:Datum:Temp:Abs-Feuchte:Windchill:Wind:
Aussen-T/F 3151 15-07-2019 22:55:00 15.3 C 10.32 g/m*3 15.3 C 0 km/h
3152 15-07-2019 23:00:00 15.3 C 10.32 g/m*3 15.3 C 0 km/h
3153 15-07-2019 23:05:00 15.3 C 10.19 g/m*3 15.3 C 3.2 km/h
3154 15-07-2019 23:10:00 15.4 C 10.12 g/m*3 15.4 C 1.6 km/h
3155 15-07-2019 23:15:00 15.5 C 10.18 g/m*3 15.5 C 0 km/h
3156 15-07-2019 23:20:00 15.6 C 10.24 g/m*3 15.6 C 0 km/h
3157 15-07-2019 23:25:00 15.6 C 10.24 g/m*3 15.6 C 1.6 km/h
3158 15-07-2019 23:30:00 15.6 C 10.24 g/m*3 15.6 C 3.2 km/h
3159 15-07-2019 23:35:00 15.6 C 10.11 g/m*3 15.6 C 1.6 km/h
3160 15-07-2019 23:40:00 15.5 C 10.18 g/m*3 15.5 C 0 km/h
3161 15-07-2019 23:45:00 15.4 C 10.12 g/m*3 15.4 C 0 km/h
3162 15-07-2019 23:50:00 15.3 C 10.06 g/m*3 15.3 C 0 km/h
3163 15-07-2019 23:55:00 15.2 C 10.12 g/m*3 15.2 C 0 km/h
3164 16-07-2019 00:00:00 15.1 C 10.19 g/m*3 15.1 C 0 km/h
3165 16-07-2019 00:05:00 15 C 10.26 g/m*3 15 C 0 km/h
3166 16-07-2019 00:10:00 14.9 C 10.07 g/m*3 14.9 C 0 km/h
3167 16-07-2019 00:15:00 14.8 C 10.13 g/m*3 14.8 C 0 km/h
3168 16-07-2019 00:20:00 14.8 C 10.13 g/m*3 14.8 C 0 km/h
3169 16-07-2019 00:25:00 14.7 C 10.07 g/m*3 14.7 C 0 km/h
3170 16-07-2019 00:30:00 14.7 C 9.95 g/m*3 14.7 C 0 km/h
3171 16-07-2019 00:35:00 14.7 C 10.2 g/m*3 14.7 C 0 km/h
3172 16-07-2019 00:40:00 14.6 C 10.01 g/m*3 14.6 C 0 km/h
3173 16-07-2019 00:45:00 14.6 C 10.01 g/m*3 14.6 C 0 km/h
3174 16-07-2019 00:50:00 14.6 C 10.01 g/m*3 14.6 C 0 km/h
3175 16-07-2019 00:55:00 14.5 C 9.95 g/m*3 14.5 C 0 km/h
Sensor: Nr:Datum:Temp:Abs-Feuchte:Windchill:Wind:
Aussen-T/F 3176 16-07-2019 01:00:00 14.4 C 9.77 g/m*3 14.4 C 0 km/h
3177 16-07-2019 01:05:00 14.3 C 9.71 g/m*3 14.3 C 0 km/h
3178 16-07-2019 01:10:00 14.2 C 9.65 g/m*3 14.2 C 0 km/h
3179 16-07-2019 01:15:00 14 C 9.53 g/m*3 14 C 0 km/h
3180 16-07-2019 01:20:00 13.9 C 9.47 g/m*3 13.9 C 0 km/h
3181 16-07-2019 01:25:00 13.7 C 9.47 g/m*3 13.7 C 0 km/h
3182 16-07-2019 01:30:00 13.6 C 9.53 g/m*3 13.6 C 0 km/h
3183 16-07-2019 01:35:00 13.4 C 9.42 g/m*3 13.4 C 0 km/h
3184 16-07-2019 01:40:00 13.3 C 9.36 g/m*3 13.3 C 0 km/h
3185 16-07-2019 01:45:00 13.2 C 9.42 g/m*3 13.2 C 0 km/h
3186 16-07-2019 01:50:00 13.1 C 9.36 g/m*3 13.1 C 0 km/h
3187 16-07-2019 01:55:00 13 C 9.3 g/m*3 13 C 0 km/h
3188 16-07-2019 02:00:00 12.9 C 9.35 g/m*3 12.9 C 0 km/h
3189 16-07-2019 02:05:00 12.8 C 9.3 g/m*3 12.8 C 0 km/h
3190 16-07-2019 02:10:00 12.7 C 9.35 g/m*3 12.7 C 0 km/h
3191 16-07-2019 02:15:00 12.6 C 9.29 g/m*3 12.6 C 0 km/h
3192 16-07-2019 02:20:00 12.5 C 9.35 g/m*3 12.5 C 0 km/h
3193 16-07-2019 02:25:00 12.4 C 9.29 g/m*3 12.4 C 0 km/h
3194 16-07-2019 02:30:00 12.2 C 9.28 g/m*3 12.2 C 0 km/h
3195 16-07-2019 02:35:00 12.1 C 9.22 g/m*3 12.1 C 0 km/h
3196 16-07-2019 02:40:00 11.9 C 9.21 g/m*3 11.9 C 0 km/h
3197 16-07-2019 02:45:00 11.7 C 9.1 g/m*3 11.7 C 0 km/h
3198 16-07-2019 02:50:00 11.6 C 9.15 g/m*3 11.6 C 0 km/h
3199 16-07-2019 02:55:00 11.4 C 9.03 g/m*3 11.4 C 0 km/h
3200 16-07-2019 03:00:00 11.3 C 8.98 g/m*3 11.3 C 0 km/h
Sensor: Nr:Datum:Temp:Abs-Feuchte:Windchill:Wind:
Aussen-T/F 3201 16-07-2019 03:05:00 11.2 C 9.02 g/m*3 11.2 C 0 km/h
3202 16-07-2019 03:10:00 11.2 C 9.12 g/m*3 11.2 C 0 km/h
3203 16-07-2019 03:15:00 11.1 C 9.07 g/m*3 11.1 C 0 km/h
3204 16-07-2019 03:20:00 10.9 C 8.95 g/m*3 10.9 C 0 km/h
3205 16-07-2019 03:25:00 10.9 C 8.95 g/m*3 10.9 C 0 km/h
3206 16-07-2019 03:30:00 10.8 C 8.99 g/m*3 10.8 C 0 km/h
3207 16-07-2019 03:35:00 10.8 C 8.99 g/m*3 10.8 C 0 km/h
3208 16-07-2019 03:40:00 10.7 C 8.94 g/m*3 10.7 C 0 km/h
3209 16-07-2019 03:45:00 10.7 C 8.94 g/m*3 10.7 C 0 km/h
3210 16-07-2019 03:50:00 10.6 C 8.88 g/m*3 10.6 C 0 km/h
3211 16-07-2019 03:55:00 10.6 C 8.88 g/m*3 10.6 C 0 km/h
3212 16-07-2019 04:00:00 10.6 C 8.98 g/m*3 10.6 C